Provisional Data: Portage Creek near Emporium, PA


Please select a monitoring station.
Please select start date.
Please select start date.

Toggle Unit: C/F Toggle Unit: C/F
Sample Time Temperature (C) Temperature (F) Specific Conductivity (mS/cm) pH   Turbidity (NTU+) DO (mg/L)
5/4/2021 12:00:00 AM 11.24 52.232 0.084 6.95 89 9.45
5/4/2021 12:15:00 AM 11.22 52.196 0.084 6.95 89.31 9.38
5/4/2021 12:30:00 AM 11.2 52.16 0.082 6.94 89.41 9.53
5/4/2021 12:45:00 AM 11.19 52.142 0.078 6.94 90.75 9.6
5/4/2021 1:00:00 AM 11.17 52.106 0.076 6.91 92.41 9.55
5/4/2021 1:15:00 AM 11.15 52.07 0.076 6.94 92.03 9.48
5/4/2021 1:30:00 AM 11.13 52.034 0.076 6.94 91.15 9.32
5/4/2021 1:45:00 AM 11.12 52.016 0.076 6.92 88.35 9.35
5/4/2021 2:00:00 AM 11.1 51.98 0.076 6.93 87.42 9.36
5/4/2021 2:15:00 AM 11.08 51.944 0.076 6.93 87.59 9.37
5/4/2021 2:30:00 AM 11.06 51.908 0.075 6.93 90.67 9.38
5/4/2021 2:45:00 AM 11.05 51.89 0.075 6.93 90.6 9.48
5/4/2021 3:00:00 AM 11.04 51.872 0.076 6.93 90.42 8.78
5/4/2021 3:15:00 AM 11.02 51.836 0.077 6.93 90.17 8.61
5/4/2021 3:30:00 AM 11.01 51.818 0.077 6.91 89.73 9
5/4/2021 3:45:00 AM 10.99 51.782 0.078 6.91 88.44 9.03
5/4/2021 4:00:00 AM 10.98 51.764 0.078 6.91 87.63 9.25
5/4/2021 4:15:00 AM 10.96 51.728 0.078 6.92 86.63 9.32
5/4/2021 4:30:00 AM 10.95 51.71 0.079 6.91 86.89 9.29
5/4/2021 4:45:00 AM 10.94 51.692 0.079 6.92 86.14 9.38
5/4/2021 5:00:00 AM 10.93 51.674 0.08 6.93 85.7 9.5
5/4/2021 5:15:00 AM 10.91 51.638 0.08 6.9 84.92 9.7
5/4/2021 5:30:00 AM 10.9 51.62 0.08 6.92 87.12 9.9
5/4/2021 5:45:00 AM 10.88 51.584 0.081 6.92 89.52 9.86
5/4/2021 6:00:00 AM 10.86 51.548 0.082 6.89 88.75 9.81
5/4/2021 6:15:00 AM 10.85 51.53 0.083 6.92 88.56 9.81
5/4/2021 6:30:00 AM 10.84 51.512 0.083 6.92 88.5 9.82
5/4/2021 6:45:00 AM 10.83 51.494 0.083 6.92 88.91 9.91
5/4/2021 7:00:00 AM 10.82 51.476 0.084 6.92 91.31 9.99
5/4/2021 7:15:00 AM 10.81 51.458 0.084 6.92 90.74 10.01
5/4/2021 7:30:00 AM 10.81 51.458 0.085 6.94 91.99 10.07
5/4/2021 7:45:00 AM 10.81 51.458 0.086 6.97 90.99 10.13
5/4/2021 8:00:00 AM 10.82 51.476 0.085 6.97 89.88 10.17
5/4/2021 8:15:00 AM 10.83 51.494 0.085 7 89.9 10.2
5/4/2021 8:30:00 AM 10.85 51.53 0.085 7.02 89.04 10.19
5/4/2021 8:45:00 AM 10.87 51.566 0.085 7.03 87.57 10.11
5/4/2021 9:00:00 AM 10.91 51.638 0.085 7.06 87.67 10.17
5/4/2021 9:15:00 AM 10.97 51.746 0.085 7.1 90.91 10.25
5/4/2021 9:30:00 AM 11.05 51.89 0.085 7.15 87.83 10.28
5/4/2021 9:45:00 AM 11.16 52.088 0.085 7.14 87.31 10.3
5/4/2021 10:00:00 AM 11.26 52.268 0.085 7.21 88.11 10.35
5/4/2021 10:15:00 AM 11.37 52.466 0.086 7.23 87.88 10.36
5/4/2021 10:30:00 AM 11.44 52.592 0.086 7.23 88.07 10.29
5/4/2021 10:45:00 AM 11.51 52.718 0.086 7.24 88.28 10.26
5/4/2021 11:00:00 AM 11.59 52.862 0.087 7.25 88.96 10.02
5/4/2021 11:15:00 AM 11.68 53.024 0.087 7.23 88.87 9.86
5/4/2021 11:30:00 AM 11.73 53.114 0.088 7.22 88.76 9.8
5/4/2021 11:45:00 AM 11.8 53.24 0.088 7.26 88.42 10.02
5/4/2021 12:00:00 PM 11.87 53.366 0.089 7.28 88.23 9.82
5/4/2021 12:15:00 PM 11.94 53.492 0.09 7.22 88.89 9.61
5/4/2021 12:30:00 PM 11.99 53.582 0.09 7.27 87.68 9.6
5/4/2021 12:45:00 PM 12.07 53.726 0.089 7.26 88.58 9.34
5/4/2021 1:00:00 PM 12.15 53.87 0.088 7.24 88.55 9.39
5/4/2021 1:15:00 PM 12.22 53.996 0.087 7.29 87.75 9.74
5/4/2021 1:30:00 PM 12.3 54.14 0.085 7.27 87.89 9.94
5/4/2021 1:45:00 PM 12.37 54.266 0.084 7.27 86.63 10.02
5/4/2021 2:00:00 PM 12.44 54.392 0.083 7.27 84.73 9.81
5/4/2021 2:15:00 PM 12.5 54.5 0.082 7.25 85.61 9.85
5/4/2021 2:30:00 PM 12.53 54.554 0.081 7.26 85.27 9.83
5/4/2021 2:45:00 PM 12.53 54.554 0.081 7.23 84.33 9.68
5/4/2021 3:00:00 PM 12.51 54.518 0.08 7.21 85.02 9.61
5/4/2021 3:15:00 PM 12.49 54.482 0.08 7.21 84.71 9.64
5/4/2021 3:30:00 PM 12.48 54.464 0.079 7.19 84.79 9.66
5/4/2021 3:45:00 PM 12.48 54.464 0.079 7.2 84.84 9.56
5/4/2021 4:00:00 PM 12.48 54.464 0.078 7.18 85.38 9.53
5/4/2021 4:15:00 PM 12.5 54.5 0.078 7.18 85.38 9.57
5/4/2021 4:30:00 PM 12.53 54.554 0.078 7.17 85.72 9.54
5/4/2021 4:45:00 PM 12.54 54.572 0.078 7.16 84.65 9.44
5/4/2021 5:00:00 PM 12.57 54.626 0.077 7.18 85.43 9.63
5/4/2021 5:15:00 PM 12.6 54.68 0.077 7.18 85.34 9.85
5/4/2021 5:30:00 PM 12.63 54.734 0.077 7.19 85.37 9.89
5/4/2021 5:45:00 PM 12.66 54.788 0.076 7.22 85.32 9.96
5/4/2021 6:00:00 PM 12.67 54.806 0.076 7.24 84.45 9.98
5/4/2021 6:15:00 PM 12.68 54.824 0.075 7.21 84.11 9.96
5/4/2021 6:30:00 PM 12.71 54.878 0.075 7.23 83.78 9.99
5/4/2021 6:45:00 PM 12.73 54.914 0.074 7.23 83.91 9.98
5/4/2021 7:00:00 PM 12.74 54.932 0.074 7.2 84.23 9.9
5/4/2021 7:15:00 PM 12.74 54.932 0.073 7.17 84.77 9.86
5/4/2021 7:30:00 PM 12.73 54.914 0.072 7.15 82.57 9.81
5/4/2021 7:45:00 PM 12.72 54.896 0.072 7.11 82.96 9.75
5/4/2021 8:00:00 PM 12.71 54.878 0.071 7.09 83.01 9.72
5/4/2021 8:15:00 PM 12.71 54.878 0.071 7.06 83.03 9.65
5/4/2021 8:30:00 PM 12.69 54.842 0.071 7.05 83.88 9.55
5/4/2021 8:45:00 PM 12.68 54.824 0.071 7.04 84.12 9.52
5/4/2021 9:00:00 PM 12.66 54.788 0.071 7.01 85.49 9.5
5/4/2021 9:15:00 PM 12.63 54.734 0.071 7.01 85.26 9.47
5/4/2021 9:30:00 PM 12.6 54.68 0.072 7.01 85.39 9.44
5/4/2021 9:45:00 PM 12.58 54.644 0.072 6.99 84.96 9.37
5/4/2021 10:00:00 PM 12.55 54.59 0.072 7 84.9 9.3
5/4/2021 10:15:00 PM 12.53 54.554 0.072 6.99 84.55 9.34
5/4/2021 10:30:00 PM 12.51 54.518 0.073 7 83.29 9.12
5/4/2021 10:45:00 PM 12.49 54.482 0.074 6.99 83.51 9.31
5/4/2021 11:00:00 PM 12.47 54.446 0.074 6.99 83.37 9.23
5/4/2021 11:15:00 PM 12.45 54.41 0.074 6.99 83.47 9.3
5/4/2021 11:30:00 PM 12.43 54.374 0.074 6.97 84.92 9.36
5/4/2021 11:45:00 PM 12.41 54.338 0.075 6.98 84.89 9.25
5/5/2021 12:00:00 AM 12.38 54.284 0.075 6.96 85.19 9.26
5/5/2021 12:15:00 AM 12.35 54.23 0.075 6.97 84.59 9.21
5/5/2021 12:30:00 AM 12.33 54.194 0.075 6.97 84.2 9.24
5/5/2021 12:45:00 AM 12.3 54.14 0.076 6.97 83.64 9.24
5/5/2021 1:00:00 AM 12.27 54.086 0.077 6.97 83.89 9.03
5/5/2021 1:15:00 AM 12.24 54.032 0.077 6.98 83.04 8.93
5/5/2021 1:30:00 AM 12.2 53.96 0.078 6.97 82.87 9.01
5/5/2021 1:45:00 AM 12.16 53.888 0.078 6.98 83.56 8.81
5/5/2021 2:00:00 AM 12.13 53.834 0.079 6.97 83.23 6.75
5/5/2021 2:15:00 AM 12.09 53.762 0.079 6.97 84.94 7.02
5/5/2021 2:30:00 AM 12.06 53.708 0.08 6.97 84.34 6.47
5/5/2021 2:45:00 AM 12.02 53.636 0.081 6.97 84.46 7.67
5/5/2021 3:00:00 AM 11.98 53.564 0.082 6.98 85.67 5.63
5/5/2021 3:15:00 AM 11.94 53.492 0.081 6.97 86.48 5.74
5/5/2021 3:30:00 AM 11.91 53.438 0.081 6.97 85.61 5.78
5/5/2021 3:45:00 AM 11.87 53.366 0.082 6.97 86.98 6.62
5/5/2021 4:00:00 AM 11.84 53.312 0.083 6.97 83.45 3.93
5/5/2021 4:15:00 AM 11.81 53.258 0.083 6.96 83.96 4.66
5/5/2021 4:30:00 AM 11.78 53.204 0.081 6.97 83.72 8.53
5/5/2021 4:45:00 AM 11.75 53.15 0.08 6.98 83.34 8.69
5/5/2021 5:00:00 AM 11.72 53.096 0.079 6.97 82.76 8.45
5/5/2021 5:15:00 AM 11.69 53.042 0.078 6.98 82.38 8.25
5/5/2021 5:30:00 AM 11.67 53.006 0.077 6.98 82.47 7.86
5/5/2021 5:45:00 AM 11.64 52.952 0.077 6.99 82.72 7.46
5/5/2021 6:00:00 AM 11.61 52.898 0.077 6.99 85.47 7.21
5/5/2021 6:15:00 AM 11.58 52.844 0.077 6.99 83.38 6.17
5/5/2021 6:30:00 AM 11.55 52.79 0.077 7 85.51 5.72
5/5/2021 6:45:00 AM 11.53 52.754 0.077 7 85.32 5.93
5/5/2021 7:00:00 AM 11.5 52.7 0.077 7.02 86.24 6.6
5/5/2021 7:15:00 AM 11.47 52.646 0.077 7.02 86.57 6.5
5/5/2021 7:30:00 AM 11.45 52.61 0.077 7.03 86.32 6.14
5/5/2021 7:45:00 AM 11.42 52.556 0.077 7.03 87.41 6.5
5/5/2021 8:00:00 AM 11.4 52.52 0.077 7.04 88.94 7.17
5/5/2021 8:15:00 AM 11.38 52.484 0.077 7.03 90.92 7.37
5/5/2021 8:30:00 AM 11.36 52.448 0.077 7.05 90.82 7.26
5/5/2021 8:45:00 AM 11.35 52.43 0.077 7.05 94.18 7.39
5/5/2021 9:00:00 AM 11.33 52.394 0.077 7.06 93.78 7.39
5/5/2021 9:15:00 AM 11.32 52.376 0.077 7.05 94.01 7.56
5/5/2021 9:30:00 AM 11.31 52.358 0.077 7.08 95.09 7.22
5/5/2021 9:45:00 AM 11.3 52.34 0.077 7.08 98.48 7.45
5/5/2021 10:00:00 AM 11.31 52.358 0.077 7.11 98.85 6.73
5/5/2021 10:15:00 AM 11.32 52.376 0.076 7.13 100.57 9.34
5/5/2021 10:30:00 AM 11.34 52.412 0.076 7.16 100.38 9.57
5/5/2021 10:45:00 AM 11.34 52.412 0.076 7.18 100.59 9.34
5/5/2021 11:00:00 AM 11.34 52.412 0.076 7.16 104.93 9.29
5/5/2021 11:15:00 AM 11.34 52.412 0.076 7.17 105.16 9.12
5/5/2021 11:30:00 AM 11.34 52.412 0.076 7.16 108.96 8.24
5/5/2021 11:45:00 AM 11.35 52.43 0.076 7.16 112.45 9.68
5/5/2021 12:00:00 PM 11.36 52.448 0.076 7.16 110.48 9.98
5/5/2021 12:15:00 PM 11.37 52.466 0.076 7.21 109.69 10.05
5/5/2021 12:30:00 PM 11.38 52.484 0.076 7.19 112.43 10.08
5/5/2021 12:45:00 PM 11.37 52.466 0.075 7.22 115.9 10.1
5/5/2021 1:00:00 PM 11.38 52.484 0.074 7.16 118.44 10.43
5/5/2021 1:15:00 PM 11.41 52.538 0.073 7.18 123.7 10.43
5/5/2021 1:30:00 PM 11.46 52.628 0.072 7.23 124.99 10.49
5/5/2021 1:45:00 PM 11.54 52.772 0.071 7.23 128.38 10.26
5/5/2021 2:00:00 PM 11.57 52.826 0.071 7.24 134.54 9.92
5/5/2021 2:15:00 PM 11.57 52.826 0.071 7.17 138.15 9.95
5/5/2021 2:30:00 PM 11.57 52.826 0.072 7.23 139.37 6.35
5/5/2021 2:45:00 PM 11.55 52.79 0.072 7.24 141.31 9.39
5/5/2021 3:00:00 PM 11.52 52.736 0.073 7.2 144.8 10.05
5/5/2021 3:15:00 PM 11.54 52.772 0.073 7.22 141.01 10.28
5/5/2021 3:30:00 PM 11.59 52.862 0.073 7.2 139.66 10.25
5/5/2021 3:45:00 PM 11.7 53.06 0.073 7.23 138.03 10.32
5/5/2021 4:00:00 PM 11.81 53.258 0.073 7.23 144.7 10.33
5/5/2021 4:15:00 PM 11.94 53.492 0.074 7.18 145.85 10.32
5/5/2021 4:30:00 PM 12.06 53.708 0.074 7.25 147.49 10.33
5/5/2021 4:45:00 PM 12.11 53.798 0.074 7.23 145.93 10.18
5/5/2021 5:00:00 PM 12.06 53.708 0.075 7.26 137.25 10.21
5/5/2021 5:15:00 PM 12.03 53.654 0.075 7.22 129.47 10.08
5/5/2021 5:30:00 PM 12.02 53.636 0.076 7.24 127.75 9.86
5/5/2021 5:45:00 PM 11.99 53.582 0.077 7.25 134.24 9.55
5/5/2021 6:00:00 PM 11.91 53.438 0.077 7.19 128.18 8.91
5/5/2021 6:15:00 PM 11.85 53.33 0.077 7.22 125.84 9.54
5/5/2021 6:30:00 PM 11.79 53.222 0.077 7.23 134.01 10.11
5/5/2021 6:45:00 PM 11.72 53.096 0.078 7.21 138.33 9.96
5/5/2021 7:00:00 PM 11.64 52.952 0.078 7.17 136.76 10.17
5/5/2021 7:15:00 PM 11.56 52.808 0.078 7.1 135.2 10.15
5/5/2021 7:30:00 PM 11.47 52.646 0.078 7.09 126.05 10.11
5/5/2021 7:45:00 PM 11.39 52.502 0.078 7.08 133.58 10.17
5/5/2021 8:00:00 PM 11.31 52.358 0.077 7.09 136.77 10.08
5/5/2021 8:15:00 PM 11.24 52.232 0.077 7.03 135.53 10.03
5/5/2021 8:30:00 PM 11.17 52.106 0.077 7.03 133.29 9.99
5/5/2021 8:45:00 PM 11.1 51.98 0.077 7.06 134.86 10.02
5/5/2021 9:00:00 PM 11.03 51.854 0.077 7.05 139.97 10.11
5/5/2021 9:15:00 PM 10.96 51.728 0.077 7.05 132.08 10.12
5/5/2021 9:30:00 PM 10.89 51.602 0.077 7.05 135.78 10.17
5/5/2021 9:45:00 PM 10.82 51.476 0.077 7.02 138.42 10.04
5/5/2021 10:00:00 PM 10.76 51.368 0.077 7.02 137.43 10.1
5/5/2021 10:15:00 PM 10.69 51.242 0.077 7.03 140.16 10.16
5/5/2021 10:30:00 PM 10.63 51.134 0.078 7.03 141.14 10.2
5/5/2021 10:45:00 PM 10.56 51.008 0.077 7.03 137.08 10.24
5/5/2021 11:00:00 PM 10.51 50.918 0.076 7.02 139.7 9.99
5/5/2021 11:15:00 PM 10.45 50.81 0.076 7.04 145.34 10.05
5/5/2021 11:30:00 PM 10.39 50.702 0.076 7.03 150.89 10.07
5/5/2021 11:45:00 PM 10.33 50.594 0.076 7.02 151.23 10.13
5/6/2021 12:00:00 AM 10.27 50.486 0.076 7 155.37 10.1
5/6/2021 12:15:00 AM 10.2 50.36 0.075 7.02 159.19 10.36
5/6/2021 12:30:00 AM 10.14 50.252 0.075 7.01 160.99 10.35
5/6/2021 12:45:00 AM 10.07 50.126 0.075 7.01 161.21 10.26
5/6/2021 1:00:00 AM 10.01 50.018 0.072 7 158.44 10.01
5/6/2021 1:15:00 AM 9.96 49.928 0.071 7 156.85 9.67
5/6/2021 1:30:00 AM 9.91 49.838 0.07 7 157.35 9.41
5/6/2021 1:45:00 AM 9.86 49.748 0.07 7.01 160.22 9.73
5/6/2021 2:00:00 AM 9.8 49.64 0.069 6.98 160.63 10.06
5/6/2021 2:15:00 AM 9.76 49.568 0.068 7.01 161.79 10.33
5/6/2021 2:30:00 AM 9.71 49.478 0.067 6.99 161.46 9.95
5/6/2021 2:45:00 AM 9.66 49.388 0.066 7 163.43 9.8
5/6/2021 3:00:00 AM 9.61 49.298 0.066 7 162.64 10.17
5/6/2021 3:15:00 AM 9.56 49.208 0.066 6.99 165.41 10.52
5/6/2021 3:30:00 AM 9.51 49.118 0.065 7 158.81 10.57
5/6/2021 3:45:00 AM 9.47 49.046 0.065 7.02 157.13 10.61
5/6/2021 4:00:00 AM 9.41 48.938 0.065 7.01 155.44 10.65
5/6/2021 4:15:00 AM 9.36 48.848 0.064 7 163.35 10.66
5/6/2021 4:30:00 AM 9.32 48.776 0.064 7 164.24 10.35
5/6/2021 4:45:00 AM 9.28 48.704 0.064 6.99 160.44 10.43
5/6/2021 5:00:00 AM 9.24 48.632 0.064 6.99 159.3 10.7
5/6/2021 5:15:00 AM 9.19 48.542 0.063 7 158.34 10.63
5/6/2021 5:30:00 AM 9.15 48.47 0.063 6.97 158.86 10.27
5/6/2021 5:45:00 AM 9.11 48.398 0.063 6.96 158.54 10.59
5/6/2021 6:00:00 AM 9.06 48.308 0.063 6.97 159.28 10.73
5/6/2021 6:15:00 AM 9.01 48.218 0.064 6.93 160.09 10.73
5/6/2021 6:30:00 AM 8.95 48.11 0.064 6.98 164.29 10.84
5/6/2021 6:45:00 AM 8.9 48.02 0.064 6.98 165.48 10.9
5/6/2021 7:00:00 AM 8.84 47.912 0.064 7.01 167.79 10.99
5/6/2021 7:15:00 AM 8.79 47.822 0.064 7.02 170.13 11.03
5/6/2021 7:30:00 AM 8.74 47.732 0.064 7.01 169.08 11.04
5/6/2021 7:45:00 AM 8.71 47.678 0.065 7.05 172.58 11.16
5/6/2021 8:00:00 AM 8.69 47.642 0.065 7.07 174.71 11.21
5/6/2021 8:15:00 AM 8.67 47.606 0.066 7.09 178.95 11.22
5/6/2021 8:30:00 AM 8.67 47.606 0.066 7.08 172.81 11.3
5/6/2021 8:45:00 AM 8.68 47.624 0.066 7.08 169.14 11.08
5/6/2021 9:00:00 AM 8.68 47.624 0.066 7.1 170.51 11.27
5/6/2021 9:15:00 AM 8.7 47.66 0.066 7.1 170.29 11.08
5/6/2021 9:30:00 AM 8.72 47.696 0.067 7.12 171.86 11.17
5/6/2021 9:45:00 AM 8.78 47.804 0.067 7.15 173.77 11.22
5/6/2021 10:00:00 AM 8.86 47.948 0.067 7.14 162.47 11.26
5/6/2021 10:15:00 AM 8.91 48.038 0.067 7.14 162.34 11.19
5/6/2021 10:30:00 AM 8.99 48.182 0.067 7.2 164.12 11.26
5/6/2021 10:45:00 AM 9.09 48.362 0.067 7.19 164 10.2
5/6/2021 11:00:00 AM 9.21 48.578 0.067 7.2 163.77 10.82
5/6/2021 11:15:00 AM 9.41 48.938 0.067 7.2 164.38 10.05
5/6/2021 11:30:00 AM 9.61 49.298 0.067 7.24 173.52 11.15
5/6/2021 11:45:00 AM 9.77 49.586 0.067 7.23 168.67 11.23
5/6/2021 12:00:00 PM 9.96 49.928 0.066 7.2 166.89 11.27
5/6/2021 12:15:00 PM 10.1 50.18 0.065 7.19 167.94 11.1
5/6/2021 12:30:00 PM 10.18 50.324 0.065 7.18 167.31 11.06
5/6/2021 12:45:00 PM 10.24 50.432 0.065 7.22 174.42 10.37
5/6/2021 1:00:00 PM 10.33 50.594 0.065 7.23 175.41 10.79
5/6/2021 1:15:00 PM 10.44 50.792 0.065 7.25 183.28 9.66
5/6/2021 1:30:00 PM 10.58 51.044 0.065 7.28 190.47 10.52
5/6/2021 1:45:00 PM 10.72 51.296 0.064 7.26 194.92 10.54
5/6/2021 2:00:00 PM 10.86 51.548 0.065 7.24 197.52 9.66
5/6/2021 2:15:00 PM 11 51.8 0.065 7.27 206.47 9.55
5/6/2021 2:30:00 PM 11.15 52.07 0.065 7.22 199.01 9.87
5/6/2021 2:45:00 PM 11.3 52.34 0.065 7.22 203.58 10.69
5/6/2021 3:00:00 PM 11.42 52.556 0.064 7.25 205.35 10.69
5/6/2021 3:15:00 PM 11.53 52.754 0.063 7.29 217.36 10.65
5/6/2021 3:30:00 PM 11.63 52.934 0.063 7.22 221.32 10.78
5/6/2021 3:45:00 PM 11.72 53.096 0.061 7.35 218.04 10.85
5/6/2021 4:00:00 PM 11.79 53.222 0.06 7.37 220.28 10.62
5/6/2021 4:15:00 PM 11.85 53.33 0.06 7.35 238.43 10.62
5/6/2021 4:30:00 PM 11.91 53.438 0.06 7.35 239.99 10.69
5/6/2021 4:45:00 PM 11.96 53.528 0.06 7.26 314.53 10.38
5/6/2021 5:00:00 PM 11.97 53.546 0.06 7.25 412.86 10.49
5/6/2021 5:15:00 PM 11.98 53.564 0.06 7.3 504.83 10.65
5/6/2021 5:30:00 PM 11.97 53.546 0.06 7.28 535.25 9.85
5/6/2021 5:45:00 PM 11.97 53.546 0.06 7.26 711.32 10.26
5/6/2021 6:00:00 PM 11.97 53.546 0.06 7.28 721.95 10.6
5/6/2021 6:15:00 PM 11.94 53.492 0.06 7.26 899.12 10.28
5/6/2021 6:30:00 PM 11.9 53.42 0.06 7.19 1107.62 10.06
5/6/2021 6:45:00 PM 11.87 53.366 0.061 7.2 1220.67 10.1
5/6/2021 7:00:00 PM 11.83 53.294 0.063 7.1 1292.97 9.8
5/6/2021 7:15:00 PM 11.77 53.186 0.065 7.04 1364.9 9.66
5/6/2021 7:30:00 PM 11.7 53.06 0.066 7.07 1379.69 9.8
5/6/2021 7:45:00 PM 11.59 52.862 0.066 7.07 1446.77 10.14
5/6/2021 8:00:00 PM 11.51 52.718 0.067 7.08 1534.35 9.91
5/6/2021 8:15:00 PM 11.42 52.556 0.068 7.09 1540.78 10.02
5/6/2021 8:30:00 PM 11.33 52.394 0.068 7.08 1590.93 9.89
5/6/2021 8:45:00 PM 11.23 52.214 0.068 7.05 1616.2 9.94
5/6/2021 9:00:00 PM 11.15 52.07 0.068 7.04 1626.97 9.43
5/6/2021 9:15:00 PM 11.06 51.908 0.069 6.97 1604.11 9.24
5/6/2021 9:30:00 PM 10.96 51.728 0.07 6.99 1413.32 9.83
5/6/2021 9:45:00 PM 10.87 51.566 0.071 6.94 1502.51 9.39
5/6/2021 10:00:00 PM 10.77 51.386 0.072 6.96 1524.18 8.91
5/6/2021 10:15:00 PM 10.66 51.188 0.072 6.96 1556.01 9.62
5/6/2021 10:30:00 PM 10.56 51.008 0.071 6.96 1573.02 9.6
5/6/2021 10:45:00 PM 10.46 50.828 0.069 6.94 1558.55 8.4
5/6/2021 11:00:00 PM 10.37 50.666 0.069 6.94 1520.07 6.31
5/6/2021 11:15:00 PM 10.26 50.468 0.069 6.97 1490.9 5.68
5/6/2021 11:30:00 PM 10.16 50.288 0.069 6.93 1455.59 6.25
5/6/2021 11:45:00 PM 10.06 50.108 0.069 6.92 1442.92 8.01
5/7/2021 12:00:00 AM 9.95 49.91 0.069 6.94 1412.66 7.58
5/7/2021 12:15:00 AM 9.84 49.712 0.069 6.96 1403.66 6.73
5/7/2021 12:30:00 AM 9.75 49.55 0.071 6.94 1422.51 8.48
5/7/2021 12:45:00 AM 9.66 49.388 0.074 6.93 1412.51 8.6
5/7/2021 1:00:00 AM 9.56 49.208 0.075 6.95 1417.36 8.83
5/7/2021 1:15:00 AM 9.46 49.028 0.077 6.97 1426.3 9.62
5/7/2021 1:30:00 AM 9.36 48.848 0.078 6.96 1429.32 9.49
5/7/2021 1:45:00 AM 9.27 48.686 0.079 6.95 1438.77 9.14
5/7/2021 2:00:00 AM 9.17 48.506 0.081 6.97 1472.86 8.45
5/7/2021 2:15:00 AM 9.08 48.344 0.083 6.98 1495.87 8.27
5/7/2021 2:30:00 AM 8.99 48.182 0.085 6.99 1448.03 7.22
5/7/2021 2:45:00 AM 8.9 48.02 0.086 6.98 1361.36 7.52
5/7/2021 3:00:00 AM 8.81 47.858 0.087 6.98 1359.34 7.66
5/7/2021 3:15:00 AM 8.73 47.714 0.089 6.98 1365.49 8.52
5/7/2021 3:30:00 AM 8.64 47.552 0.091 6.95 1396.25 8.93
5/7/2021 3:45:00 AM 8.55 47.39 0.091 6.94 1372.64 10.05
5/7/2021 4:00:00 AM 8.47 47.246 0.093 6.91 1397.16 9.42
5/7/2021 4:15:00 AM 8.39 47.102 0.094 6.85 1450.56 8.84
5/7/2021 4:30:00 AM 8.31 46.958 0.096 6.86 1452.63 8.89
5/7/2021 4:45:00 AM 8.22 46.796 0.098 6.87 1415 8.86
5/7/2021 5:00:00 AM 8.14 46.652 0.1 6.87 1389.46 8.77
5/7/2021 5:15:00 AM 8.06 46.508 0.101 6.86 1344.99 8.9
5/7/2021 5:30:00 AM 7.97 46.346 0.103 6.86 1342.19 8.46
5/7/2021 5:45:00 AM 7.9 46.22 0.105 6.85 1354.22 7.93
5/7/2021 6:00:00 AM 7.82 46.076 0.106 6.85 1379.9 7.16
5/7/2021 6:15:00 AM 7.74 45.932 0.107 6.85 1369.59 7.6
5/7/2021 6:30:00 AM 7.67 45.806 0.108 6.84 1400.86 8.45
5/7/2021 6:45:00 AM 7.61 45.698 0.109 6.86 1409.9 8.1
5/7/2021 7:00:00 AM 7.56 45.608 0.11 6.85 1402.19 8.39
5/7/2021 7:15:00 AM 7.51 45.518 0.11 6.88 1386.53 8.24
5/7/2021 7:30:00 AM 7.47 45.446 0.11 6.87 1352.5 8.49
5/7/2021 7:45:00 AM 7.44 45.392 0.109 6.84 1358.76 8.5
5/7/2021 8:00:00 AM 7.42 45.356 0.109 6.82 1322.52 8.25
5/7/2021 8:15:00 AM 7.41 45.338 0.109 6.85 1326.01 8.67
5/7/2021 8:30:00 AM 7.41 45.338 0.109 6.85 1287.83 8.2
5/7/2021 8:45:00 AM 7.42 45.356 0.109 6.85 1282.55 8.81
5/7/2021 9:00:00 AM 7.43 45.374 0.109 6.84 1267.67 8.91
5/7/2021 9:15:00 AM 7.47 45.446 0.109 6.85 1283.71 8.88
5/7/2021 9:30:00 AM 7.53 45.554 0.109 6.86 1331.4 8.61
5/7/2021 9:45:00 AM 7.6 45.68 0.11 6.79 1471.24 7.9
5/7/2021 10:00:00 AM 7.7 45.86 0.11 6.8 1487.7 7.83
5/7/2021 10:15:00 AM 7.82 46.076 0.111 6.85 1453.76 7.27
5/7/2021 10:30:00 AM 7.92 46.256 0.111 6.77 1483.59 6.91
5/7/2021 10:45:00 AM 8.03 46.454 0.112 6.77 1467.29 6.87
5/7/2021 11:00:00 AM 8.11 46.598 0.112 6.77 1423.27 7.62
5/7/2021 11:15:00 AM 8.17 46.706 0.113 6.76 1429.5 7.87
5/7/2021 11:30:00 AM 8.22 46.796 0.113 6.76 1411.62 7.39
5/7/2021 11:45:00 AM 8.26 46.868 0.113 6.75 1404.31 7.86
5/7/2021 12:00:00 PM 8.32 46.976 0.114 6.75 1408.52 8.04
5/7/2021 12:15:00 PM 8.39 47.102 0.113 6.72 1395.41 8.31
5/7/2021 12:30:00 PM 8.46 47.228 0.113 6.71 1404.02 8.63
5/7/2021 12:45:00 PM 8.56 47.408 0.112 6.71 1385.09 9.27
5/7/2021 1:00:00 PM 8.66 47.588 0.111 6.71 1387.53 9.31
5/7/2021 1:15:00 PM 8.74 47.732 0.111 6.7 1430.39 9
5/7/2021 1:30:00 PM 8.82 47.876 0.11 6.7 1442.34 8.53
5/7/2021 1:45:00 PM 8.89 48.002 0.11 6.7 1446.88 8.67
5/7/2021 2:00:00 PM 8.94 48.092 0.11 6.76 1448.97 8.73
5/7/2021 2:15:00 PM 8.97 48.146 0.113 6.8 1430.45 8.53
5/7/2021 2:30:00 PM 9 48.2 0.117 6.85 1418.7 7.65
5/7/2021 2:45:00 PM 9.03 48.254 0.117 6.88 1435.32 7.82
5/7/2021 3:00:00 PM 9.05 48.29 0.119 6.86 1418.72 7.49
5/7/2021 3:15:00 PM 9.07 48.326 0.12 6.86 1452.6 7.29
5/7/2021 3:30:00 PM 9.1 48.38 0.121 6.84 1420.39 6.88
5/7/2021 3:45:00 PM 9.13 48.434 0.123 6.81 1440.38 7.84
5/7/2021 4:00:00 PM 9.16 48.488 0.126 6.8 1410.73 7.67
5/7/2021 4:15:00 PM 9.18 48.524 0.13 6.85 1414.82 7.63
5/7/2021 4:30:00 PM 9.19 48.542 0.134 6.77 1400.08 7.83
5/7/2021 4:45:00 PM 9.2 48.56 0.135 6.8 1417.22 8.57
5/7/2021 5:00:00 PM 9.21 48.578 0.136 6.78 1437.91 7.73
5/7/2021 5:15:00 PM 9.21 48.578 0.137 6.79 1453.42 7
5/7/2021 5:30:00 PM 9.21 48.578 0.138 6.83 1486.18 8.44
5/7/2021 5:45:00 PM 9.22 48.596 0.139 6.84 1524.72 8.3
5/7/2021 6:00:00 PM 9.22 48.596 0.14 6.83 1546.15 8.34
5/7/2021 6:15:00 PM 9.22 48.596 0.141 6.87 1549.73 8.64
5/7/2021 6:30:00 PM 9.21 48.578 0.142 6.86 1548.34 8.62
5/7/2021 6:45:00 PM 9.22 48.596 0.142 6.9 1521.86 8.5
5/7/2021 7:00:00 PM 9.22 48.596 0.143 6.9 1547.09 8.11
5/7/2021 7:15:00 PM 9.21 48.578 0.143 6.87 1511.75 8.98
5/7/2021 7:30:00 PM 9.2 48.56 0.143 6.89 1548.99 9.1
5/7/2021 7:45:00 PM 9.18 48.524 0.143 6.9 1542.26 9.37
5/7/2021 8:00:00 PM 9.17 48.506 0.142 6.89 1536.18 9.33
5/7/2021 8:15:00 PM 9.15 48.47 0.14 6.92 1558.29 8.92
5/7/2021 8:30:00 PM 9.13 48.434 0.138 6.89 1533.11 9.39
5/7/2021 8:45:00 PM 9.1 48.38 0.137 6.96 1542.53 9.25
5/7/2021 9:00:00 PM 9.08 48.344 0.135 6.88 1522.22 9.24
5/7/2021 9:15:00 PM 9.05 48.29 0.133 6.91 1534.1 9.46
5/7/2021 9:30:00 PM 9.02 48.236 0.131 6.91 1490.63 9.66
5/7/2021 9:45:00 PM 8.99 48.182 0.129 6.92 1459.39 9.36
5/7/2021 10:00:00 PM 8.97 48.146 0.128 6.89 1433.85 8.9
5/7/2021 10:15:00 PM 8.94 48.092 0.128 6.9 1407.26 8.31
5/7/2021 10:30:00 PM 8.92 48.056 0.127 6.91 1394.22 8.86
5/7/2021 10:45:00 PM 8.89 48.002 0.126 6.91 1405.66 9.03
5/7/2021 11:00:00 PM 8.86 47.948 0.125 6.91 1405.12 9.06
5/7/2021 11:15:00 PM 8.83 47.894 0.124 6.87 1421.9 8.87
5/7/2021 11:30:00 PM 8.8 47.84 0.123 6.9 1431.38 9.51
5/7/2021 11:45:00 PM 8.76 47.768 0.121 6.9 1457.43 9.39
5/8/2021 12:00:00 AM 8.73 47.714 0.12 6.87 1464.36 9.42
5/8/2021 12:15:00 AM 8.7 47.66 0.119 6.88 1415.02 9.57
5/8/2021 12:30:00 AM 8.67 47.606 0.119 6.89 1482.18 9.57
5/8/2021 12:45:00 AM 8.64 47.552 0.118 6.89 1484.97 9.77
5/8/2021 1:00:00 AM 8.6 47.48 0.117 6.9 1479.28 9.56
5/8/2021 1:15:00 AM 8.56 47.408 0.115 6.9 1476.88 9.6
5/8/2021 1:30:00 AM 8.52 47.336 0.113 6.89 1475.42 9.38
5/8/2021 1:45:00 AM 8.48 47.264 0.112 6.9 1480.94 9.4
5/8/2021 2:00:00 AM 8.44 47.192 0.111 6.91 1496.27 9.66
5/8/2021 2:15:00 AM 8.41 47.138 0.11 6.89 1477.11 9.35
5/8/2021 2:30:00 AM 8.38 47.084 0.11 6.89 1497.21 9.26
5/8/2021 2:45:00 AM 8.35 47.03 0.11 6.89 1503.79 8.83
5/8/2021 3:00:00 AM 8.32 46.976 0.109 6.91 1504.47 8.17
5/8/2021 3:15:00 AM 8.29 46.922 0.107 6.9 1477.96 6.83
5/8/2021 3:30:00 AM 8.26 46.868 0.106 6.91 1442.78 5.72
5/8/2021 3:45:00 AM 8.23 46.814 0.107 6.85 1378.12 6.89
5/8/2021 4:00:00 AM 8.19 46.742 0.109 6.86 1391.18 3.03
5/8/2021 4:15:00 AM 8.16 46.688 0.111 6.87 1385.95 2.84
5/8/2021 4:30:00 AM 8.13 46.634 0.11 6.87 1378.93 2.06
5/8/2021 4:45:00 AM 8.09 46.562 0.11 6.89 1375.32 3.5
5/8/2021 5:00:00 AM 8.06 46.508 0.111 6.87 1387.08 4.23
5/8/2021 5:15:00 AM 8.03 46.454 0.113 6.86 1380.93 4.1
5/8/2021 5:30:00 AM 7.99 46.382 0.114 6.86 1389.86 3.95
5/8/2021 5:45:00 AM 7.95 46.31 0.115 6.85 1423.11 3.42
5/8/2021 6:00:00 AM 7.92 46.256 0.115 6.86 1424.58 1.05
5/8/2021 6:15:00 AM 7.88 46.184 0.114 6.89 1452.24 1.28
5/8/2021 6:30:00 AM 7.85 46.13 0.114 6.92 1479.22 1.08
5/8/2021 6:45:00 AM 7.81 46.058 0.115 6.9 1468.18 0.84
5/8/2021 7:00:00 AM 7.78 46.004 0.114 6.91 1396.29 1.07
5/8/2021 7:15:00 AM 7.74 45.932 0.114 6.9 1379.11 1.07
5/8/2021 7:30:00 AM 7.71 45.878 0.114 6.85 1380.23 0.82
5/8/2021 7:45:00 AM 7.68 45.824 0.114 6.88 1383 0.89
5/8/2021 8:00:00 AM 7.67 45.806 0.114 6.89 1344.59 0.94
5/8/2021 8:15:00 AM 7.66 45.788 0.114 6.9 1386.97 0.98
5/8/2021 8:30:00 AM 7.65 45.77 0.11 6.9 1358.92 6.43
5/8/2021 8:45:00 AM 7.65 45.77 0.105 6.89 1366.26 10.17
5/8/2021 9:00:00 AM 7.68 45.824 0.101 6.93 1394.91 10.71
5/8/2021 9:15:00 AM 7.72 45.896 0.095 6.95 1362.1 11.15
5/8/2021 9:30:00 AM 7.76 45.968 0.092 6.88 1366.01 10.53
5/8/2021 9:45:00 AM 7.83 46.094 0.09 6.95 1388.65 10.74
5/8/2021 10:00:00 AM 7.89 46.202 0.088 6.93 1411.71 11
5/8/2021 10:15:00 AM 7.95 46.31 0.086 6.94 1474.46 10.86
5/8/2021 10:30:00 AM 8 46.4 0.086 6.93 1460.4 9.55
5/8/2021 10:45:00 AM 8.04 46.472 0.086 6.91 1484.76 10.4
5/8/2021 11:00:00 AM 8.05 46.49 0.087 6.93 1495.69 8.63
5/8/2021 11:15:00 AM 8.06 46.508 0.087 6.86 1532.5 8.06
5/8/2021 11:30:00 AM 8.08 46.544 0.088 6.92 1516.42 8.61
5/8/2021 11:45:00 AM 8.11 46.598 0.089 6.93 1534.76 7.72
5/8/2021 12:00:00 PM 8.16 46.688 0.09 6.9 1516.42 7.91
5/8/2021 12:15:00 PM 8.24 46.832 0.09 6.94 1499.46 10.4
5/8/2021 12:30:00 PM 8.41 47.138 0.091 6.97 1495.76 9.83
5/8/2021 12:45:00 PM 8.47 47.246 0.091 6.99 1482.15 10.25
5/8/2021 1:00:00 PM 8.51 47.318 0.092 6.95 1457.94 9.64
5/8/2021 1:15:00 PM 8.61 47.498 0.093 6.94 1522.9 9.57
5/8/2021 1:30:00 PM 8.71 47.678 0.094 6.91 1519.65 9.88
5/8/2021 1:45:00 PM 8.78 47.804 0.093 6.92 1508.19 10.1
5/8/2021 2:00:00 PM 8.83 47.894 0.094 6.9 1492.18 9.85
5/8/2021 2:15:00 PM 8.9 48.02 0.091 6.95 1501.76 11.22
5/8/2021 2:30:00 PM 8.96 48.128 0.088 6.97 1482.45 11.15
5/8/2021 2:45:00 PM 9.02 48.236 0.085 6.97 1442.08 10.92
5/8/2021 3:00:00 PM 9.09 48.362 0.083 7 1426.75 11.07
5/8/2021 3:15:00 PM 9.19 48.542 0.08 6.91 1400.31 11.21
5/8/2021 3:30:00 PM 9.31 48.758 0.077 6.95 1396.1 11.3
5/8/2021 3:45:00 PM 9.36 48.848 0.074 6.91 1429.57 10.99
5/8/2021 4:00:00 PM 9.4 48.92 0.073 6.9 1419.66 11.03
5/8/2021 4:15:00 PM 9.52 49.136 0.071 6.88 1389.08 11.17
5/8/2021 4:30:00 PM 9.64 49.352 0.07 6.91 1381.7 10.85
5/8/2021 4:45:00 PM 9.73 49.514 0.07 6.85 1372.79 10.76
5/8/2021 5:00:00 PM 9.83 49.694 0.069 6.85 1369.88 10.6
5/8/2021 5:15:00 PM 9.92 49.856 0.07 6.95 1293.87 10.66
5/8/2021 5:30:00 PM 10.02 50.036 0.07 6.89 1195.5 10.38
5/8/2021 5:45:00 PM 10.1 50.18 0.071 6.87 1280.87 9.17
5/8/2021 6:00:00 PM 10.17 50.306 0.072 6.86 1241.4 8.93
5/8/2021 6:15:00 PM 10.24 50.432 0.073 6.88 1211.47 9.43
5/8/2021 6:30:00 PM 10.25 50.45 0.074 6.87 1255.13 10.14
5/8/2021 6:45:00 PM 10.22 50.396 0.075 6.93 1265.22 9.62
5/8/2021 7:00:00 PM 10.17 50.306 0.076 6.86 1220.93 9.02
5/8/2021 7:15:00 PM 10.11 50.198 0.077 6.85 1278.64 8.42
5/8/2021 7:30:00 PM 10.05 50.09 0.077 6.83 1173.58 6.76
5/8/2021 7:45:00 PM 9.98 49.964 0.078 6.81 1192.28 8.51
5/8/2021 8:00:00 PM 9.9 49.82 0.078 6.81 1232.19 9.12
5/8/2021 8:15:00 PM 9.83 49.694 0.078 6.91 1243.38 8.86
5/8/2021 8:30:00 PM 9.76 49.568 0.077 6.93 1225.64 8.24
5/8/2021 8:45:00 PM 9.68 49.424 0.076 6.93 1225.32 8.88
5/8/2021 9:00:00 PM 9.61 49.298 0.075 6.83 1207.96 8.58
5/8/2021 9:15:00 PM 9.53 49.154 0.074 6.83 1193.99 8.9
5/8/2021 9:30:00 PM 9.46 49.028 0.074 6.79 1189.87 6.7
5/8/2021 9:45:00 PM 9.37 48.866 0.075 6.85 1266.41 7.66
5/8/2021 10:00:00 PM 9.28 48.704 0.076 6.86 1331.83 7.35
5/8/2021 10:15:00 PM 9.19 48.542 0.076 6.82 1285.44 7.99
5/8/2021 10:30:00 PM 9.11 48.398 0.077 6.82 1285.4 9.1
5/8/2021 10:45:00 PM 9.03 48.254 0.077 6.82 1227.81 7.32
5/8/2021 11:00:00 PM 8.94 48.092 0.077 6.78 1141.78 9.54
5/8/2021 11:15:00 PM 8.86 47.948 0.076 6.78 1211.32 9.66
5/8/2021 11:30:00 PM 8.78 47.804 0.074 6.78 1225.58 9.43
5/8/2021 11:45:00 PM 8.7 47.66 0.072 6.79 1098.48 9.5
5/9/2021 12:00:00 AM 8.62 47.516 0.071 6.77 932.31 9.87
5/9/2021 12:15:00 AM 8.54 47.372 0.071 6.77 922.83 10.11
5/9/2021 12:30:00 AM 8.46 47.228 0.07 6.8 997.73 10.39
5/9/2021 12:45:00 AM 8.38 47.084 0.07 6.79 981.52 10.68
5/9/2021 1:00:00 AM 8.3 46.94 0.07 6.79 999.26 9.74
5/9/2021 1:15:00 AM 8.23 46.814 0.069 6.76 1027.05 8.5
5/9/2021 1:30:00 AM 8.15 46.67 0.069 6.77 1101.26 8.62
5/9/2021 1:45:00 AM 8.07 46.526 0.068 6.76 1083.83 8.58
5/9/2021 2:00:00 AM 8.01 46.418 0.068 6.75 1204.44 8.1
5/9/2021 2:15:00 AM 7.95 46.31 0.068 6.75 1262.59 7.04
5/9/2021 2:30:00 AM 7.9 46.22 0.068 6.74 1297.48 5.6
5/9/2021 2:45:00 AM 7.86 46.148 0.068 6.77 1273.92 4.5
5/9/2021 3:00:00 AM 7.82 46.076 0.068 6.78 1284.02 3
5/9/2021 3:15:00 AM 7.78 46.004 0.068 6.78 1204.17 3.21
5/9/2021 3:30:00 AM 7.74 45.932 0.068 6.76 1253.91 2.3
5/9/2021 3:45:00 AM 7.69 45.842 0.068 6.77 1299.72 1.84
5/9/2021 4:00:00 AM 7.65 45.77 0.069 6.79 1237.81 1.28
5/9/2021 4:15:00 AM 7.61 45.698 0.069 6.83 1239.24 1.42
5/9/2021 4:30:00 AM 7.56 45.608 0.069 6.83 1237.66 1.21
5/9/2021 4:45:00 AM 7.5 45.5 0.069 6.78 1231.35 1.28
5/9/2021 5:00:00 AM 7.46 45.428 0.069 6.8 1258.44 1.36
5/9/2021 5:15:00 AM 7.41 45.338 0.069 6.77 1285.32 1.45
5/9/2021 5:30:00 AM 7.36 45.248 0.069 6.75 1221.15 1.21
5/9/2021 5:45:00 AM 7.32 45.176 0.07 6.82 1185.68 4.59
5/9/2021 6:00:00 AM 7.28 45.104 0.072 6.84 1216.52 3.78
5/9/2021 6:15:00 AM 7.23 45.014 0.073 6.82 1200.89 3.72
5/9/2021 6:30:00 AM 7.19 44.942 0.074 6.83 1238.68 4.16
5/9/2021 6:45:00 AM 7.15 44.87 0.075 6.82 1214.22 3.12
5/9/2021 7:00:00 AM 7.11 44.798 0.076 6.83 1204.46 2.11
5/9/2021 7:15:00 AM 7.08 44.744 0.078 6.87 1190.89 2.34
5/9/2021 7:30:00 AM 7.05 44.69 0.079 6.88 1214.72 1.95
5/9/2021 7:45:00 AM 7.02 44.636 0.08 6.9 1231.35 2.04
5/9/2021 8:00:00 AM 7.01 44.618 0.08 6.91 1149.15 1.5
5/9/2021 8:15:00 AM 7.01 44.618 0.081 6.91 1114.83 1.59
5/9/2021 8:30:00 AM 7.01 44.618 0.082 6.91 1132.33 1.6
5/9/2021 8:45:00 AM 7.03 44.654 0.083 6.91 1136.64 1.69
5/9/2021 9:00:00 AM 7.06 44.708 0.084 6.9 1063.62 1.56
5/9/2021 9:15:00 AM 7.09 44.762 0.085 6.89 1105.48 1.78
5/9/2021 9:30:00 AM 7.13 44.834 0.085 6.93 1000.76 1.24
5/9/2021 9:45:00 AM 7.17 44.906 0.086 6.9 1062.27 1.35
5/9/2021 10:00:00 AM 7.22 44.996 0.086 6.88 1010.6 1.32
5/9/2021 10:15:00 AM 7.26 45.068 0.087 6.9 980.68 1.54
5/9/2021 10:30:00 AM 7.3 45.14 0.087 6.84 961.08 1.65
5/9/2021 10:45:00 AM 7.34 45.212 0.087 6.87 957.95 1.36
5/9/2021 11:00:00 AM 7.37 45.266 0.087 6.87 959.85 1.26
5/9/2021 11:15:00 AM 7.4 45.32 0.088 6.82 970.28 1.23
5/9/2021 11:30:00 AM 7.43 45.374 0.088 6.85 940.26 0.96
5/9/2021 11:45:00 AM 7.47 45.446 0.088 6.81 934.53 0.87
5/9/2021 12:00:00 PM 7.5 45.5 0.088 6.86 913.06 1.02
5/9/2021 12:15:00 PM 7.52 45.536 0.088 6.87 926.05 0.89
5/9/2021 12:30:00 PM 7.54 45.572 0.088 6.89 923.43 0.89
5/9/2021 12:45:00 PM 7.57 45.626 0.088 6.93 921.05 0.96
5/9/2021 1:00:00 PM 7.58 45.644 0.088 6.93 923.24 0.97
5/9/2021 1:15:00 PM 7.59 45.662 0.088 6.9 920.33 1.01
5/9/2021 1:30:00 PM 7.58 45.644 0.088 6.89 896.8 1.04
5/9/2021 1:45:00 PM 7.57 45.626 0.089 6.9 896.19 1.08
5/9/2021 2:00:00 PM 7.56 45.608 0.089 6.86 868.23 1.12
5/9/2021 2:15:00 PM 7.53 45.554 0.089 6.85 905.6 1.11
5/9/2021 2:30:00 PM 7.51 45.518 0.09 6.89 894.78 1.04
5/9/2021 2:45:00 PM 7.5 45.5 0.09 6.93 901.24 0.89
5/9/2021 3:00:00 PM 7.47 45.446 0.091 6.89 923.36 0.85
5/9/2021 3:15:00 PM 7.41 45.338 0.091 6.86 927.09 0.72
5/9/2021 3:30:00 PM 7.33 45.194 0.091 6.85 948.85 0.73
5/9/2021 3:45:00 PM 7.25 45.05 0.091 6.94 937.78 0.8
5/9/2021 4:00:00 PM 7.16 44.888 0.091 6.9 937.37 0.96
5/9/2021 4:15:00 PM 7.07 44.726 0.091 6.86 945.57 0.91
5/9/2021 4:30:00 PM 6.99 44.582 0.091 6.88 900.58 0.83
5/9/2021 4:45:00 PM 6.91 44.438 0.091 6.9 974.15 0.95
5/9/2021 5:00:00 PM 6.83 44.294 0.091 6.83 976.67 1.29
5/9/2021 5:15:00 PM 6.77 44.186 0.091 6.85 975.96 1.69
5/9/2021 5:30:00 PM 6.73 44.114 0.09 6.85 1006.95 3.31
5/9/2021 5:45:00 PM 6.7 44.06 0.088 6.85 985.9 3.95
5/9/2021 6:00:00 PM 6.67 44.006 0.088 6.82 993.65 3.6
5/9/2021 6:15:00 PM 6.64 43.952 0.087 6.81 1022.86 4.13
5/9/2021 6:30:00 PM 6.61 43.898 0.088 6.82 1031.69 8.16
5/9/2021 6:45:00 PM 6.59 43.862 0.088 6.77 963.22 8.67
5/9/2021 7:00:00 PM 6.56 43.808 0.081 6.85 900.94 9.38
5/9/2021 7:15:00 PM 6.53 43.754 0.077 6.83 907.44 10.12
5/9/2021 7:30:00 PM 6.48 43.664 0.074 6.98 971.4 9.53
5/9/2021 7:45:00 PM 6.45 43.61 0.07 6.97 847.4 6.72
5/9/2021 8:00:00 PM 6.43 43.574 0.066 7 867.85 7.95
5/9/2021 8:15:00 PM 6.41 43.538 0.064 7.02 910.82 8.49
5/9/2021 8:30:00 PM 6.39 43.502 0.064 7.01 891.97 5.79
5/9/2021 8:45:00 PM 6.38 43.484 0.064 6.99 842.65 10.8
5/9/2021 9:00:00 PM 6.36 43.448 0.063 6.97 897.1 9.59
5/9/2021 9:15:00 PM 6.35 43.43 0.061 6.94 887.43 9.63
5/9/2021 9:30:00 PM 6.35 43.43 0.06 6.92 938.65 8.32
5/9/2021 9:45:00 PM 6.35 43.43 0.059 6.93 917.43 8.56
5/9/2021 10:00:00 PM 6.36 43.448 0.059 6.95 908.6 3.17
5/9/2021 10:15:00 PM 6.37 43.466 0.059 6.95 887.99 4.84
5/9/2021 10:30:00 PM 6.39 43.502 0.059 6.95 831.78 7.75
5/9/2021 10:45:00 PM 6.41 43.538 0.058 6.94 865.31 5.41
5/9/2021 11:00:00 PM 6.42 43.556 0.058 6.93 880.62 3.77
5/9/2021 11:15:00 PM 6.45 43.61 0.058 6.94 850.82 6.85
5/9/2021 11:30:00 PM 6.47 43.646 0.058 6.94 845.75 6.67
5/9/2021 11:45:00 PM 6.49 43.682 0.059 6.94 840.91 4.33
5/10/2021 12:00:00 AM 6.51 43.718 0.059 6.92 848.7 5.17
5/10/2021 12:15:00 AM 6.53 43.754 0.058 6.91 845.85 2.72
5/10/2021 12:30:00 AM 6.55 43.79 0.057 6.9 902.76 2.09
5/10/2021 12:45:00 AM 6.58 43.844 0.056 6.89 867.17 6.11
5/10/2021 1:00:00 AM 6.6 43.88 0.056 6.87 926.73 10.96
5/10/2021 1:15:00 AM 6.62 43.916 0.055 6.9 906.84 8.03
5/10/2021 1:30:00 AM 6.64 43.952 0.055 6.92 941.54 10.53
5/10/2021 1:45:00 AM 6.66 43.988 0.055 6.91 971.72 10.12
5/10/2021 2:00:00 AM 6.68 44.024 0.055 6.9 969.14 9
5/10/2021 2:15:00 AM 6.7 44.06 0.055 6.88 953.26 11.31
5/10/2021 2:30:00 AM 6.72 44.096 0.055 6.91 939.19 11.3
5/10/2021 2:45:00 AM 6.73 44.114 0.054 6.91 937.98 11.3
5/10/2021 3:00:00 AM 6.75 44.15 0.053 6.88 974.66 11.35
5/10/2021 3:15:00 AM 6.76 44.168 0.053 6.88 952.03 11.31
5/10/2021 3:30:00 AM 6.77 44.186 0.052 6.86 919.37 11.43
5/10/2021 3:45:00 AM 6.79 44.222 0.051 6.84 886.47 11.4
5/10/2021 4:00:00 AM 6.8 44.24 0.051 6.84 884.77 11.42
5/10/2021 4:15:00 AM 6.82 44.276 0.051 6.86 864.29 11.42
5/10/2021 4:30:00 AM 6.84 44.312 0.05 6.86 869.93 11.43
5/10/2021 4:45:00 AM 6.85 44.33 0.05 6.86 818.38 11.41
5/10/2021 5:00:00 AM 6.87 44.366 0.05 6.87 801.25 11.4
5/10/2021 5:15:00 AM 6.88 44.384 0.05 6.86 754.29 11.34
5/10/2021 5:30:00 AM 6.9 44.42 0.051 6.85 745.21 11.38
5/10/2021 5:45:00 AM 6.92 44.456 0.051 6.85 733.94 11.39
5/10/2021 6:00:00 AM 6.93 44.474 0.051 6.86 702.04 11.39
5/10/2021 6:15:00 AM 6.94 44.492 0.051 6.88 680.98 11.36
5/10/2021 6:30:00 AM 6.96 44.528 0.051 6.84 657.4 11.39
5/10/2021 6:45:00 AM 6.97 44.546 0.051 6.84 643.09 11.4
5/10/2021 7:00:00 AM 6.99 44.582 0.05 6.81 673.99 11.45
5/10/2021 7:15:00 AM 7.01 44.618 0.05 6.82 651.61 11.43
5/10/2021 7:30:00 AM 7.03 44.654 0.05 6.84 631.73 11.43
5/10/2021 7:45:00 AM 7.05 44.69 0.051 6.87 552.59 11.43
5/10/2021 8:00:00 AM 7.08 44.744 0.05 6.88 541.07 11.43
5/10/2021 8:15:00 AM 7.11 44.798 0.051 6.86 518.23 11.43
5/10/2021 8:30:00 AM 7.15 44.87 0.052 6.81 495.1 11.4
5/10/2021 8:45:00 AM 7.19 44.942 0.052 6.86 508.12 11.44
5/10/2021 9:00:00 AM 7.24 45.032 0.053 6.85 510.12 11.39
5/10/2021 9:15:00 AM 7.31 45.158 0.054 6.85 504.36 11.34
5/10/2021 9:30:00 AM 7.37 45.266 0.055 6.85 502.31 11.34
5/10/2021 9:45:00 AM 7.44 45.392 0.056 6.86 501.4 11.33
5/10/2021 10:00:00 AM 7.52 45.536 0.055 6.83 1596.32 10.38
5/10/2021 10:15:00 AM 7.6 45.68 0.051 6.89 1577.95 10.81
5/10/2021 10:30:00 AM 7.71 45.878 0.05 6.88 1509.81 11.22
5/10/2021 10:45:00 AM 7.84 46.112 0.049 6.88 1538.86 11.34
5/10/2021 11:00:00 AM 7.96 46.328 0.049 6.86 1608.13 11.25
5/10/2021 11:15:00 AM 8.08 46.544 0.048 6.91 1588.87 11.19
5/10/2021 11:30:00 AM 8.17 46.706 0.048 6.87 1553.6 10.95
5/10/2021 11:45:00 AM 8.27 46.886 0.048 6.87 1379.44 10.18
5/10/2021 12:00:00 PM 8.29 46.922 0.05 6.89 1650.94 10.79
5/10/2021 12:15:00 PM 8.41 47.138 0.05 6.88 1658.01 9.76
5/10/2021 12:30:00 PM 8.59 47.462 0.05 6.89 1642.86 8.78
5/10/2021 12:45:00 PM 8.69 47.642 0.051 6.88 1615.8 8.85
5/10/2021 1:00:00 PM 8.79 47.822 0.052 6.87 1599.45 7.37
5/10/2021 1:15:00 PM 8.85 47.93 0.052 6.89 1609.63 9.18
5/10/2021 1:30:00 PM 8.89 48.002 0.053 6.86 1615.27 7.65
5/10/2021 1:45:00 PM 9.01 48.218 0.053 6.87 1622.28 8.71
5/10/2021 2:00:00 PM 9.09 48.362 0.053 6.84 1192.81 9.39
5/10/2021 2:15:00 PM 9.16 48.488 0.052 6.82 1161.08 9.61
5/10/2021 2:30:00 PM 9.22 48.596 0.052 6.83 1173.67 8.36
5/10/2021 2:45:00 PM 9.25 48.65 0.052 6.83 1143.44 9.2
5/10/2021 3:00:00 PM 9.27 48.686 0.052 6.83 1146.83 8.02
5/10/2021 3:15:00 PM 9.29 48.722 0.052 6.84 1154.43 8.98
5/10/2021 3:30:00 PM 9.35 48.83 0.051 6.85 1189.13 9.93
5/10/2021 3:45:00 PM 9.39 48.902 0.05 6.86 1175.07 10.04
5/10/2021 4:00:00 PM 9.42 48.956 0.05 6.85 1185.4 10.03
5/10/2021 4:15:00 PM 9.49 49.082 0.051 6.84 1174.35 9.64
5/10/2021 4:30:00 PM 9.5 49.1 0.051 6.82 1128.68 9.78
5/10/2021 4:45:00 PM 9.52 49.136 0.051 6.83 1114.24 10.14
5/10/2021 5:00:00 PM 9.54 49.172 0.051 6.84 1120.35 9.42
5/10/2021 5:15:00 PM 9.54 49.172 0.051 6.84 1099.88 10.18
5/10/2021 5:30:00 PM 9.5 49.1 0.051 6.84 1099.99 10.01
5/10/2021 5:45:00 PM 9.49 49.082 0.051 6.82 1115.09 9.75
5/10/2021 6:00:00 PM 9.45 49.01 0.051 6.82 1081.91 10.16
5/10/2021 6:15:00 PM 9.42 48.956 0.05 6.83 1076.72 10.47
5/10/2021 6:30:00 PM 9.4 48.92 0.05 6.83 1081.9 10.44
5/10/2021 6:45:00 PM 9.36 48.848 0.051 6.82 1101.27 10.04
5/10/2021 7:00:00 PM 9.31 48.758 0.051 6.82 1093.13 10.57
5/10/2021 7:15:00 PM 9.27 48.686 0.052 6.81 1114.03 10.4
5/10/2021 7:30:00 PM 9.22 48.596 0.052 6.82 1100.31 10.16
5/10/2021 7:45:00 PM 9.17 48.506 0.052 6.79 1098.95 10.46
5/10/2021 8:00:00 PM 9.11 48.398 0.051 6.81 1106.36 10.61
5/10/2021 8:15:00 PM 9.05 48.29 0.051 6.81 1104.49 10.5
5/10/2021 8:30:00 PM 9 48.2 0.051 6.8 1116.03 10.42
5/10/2021 8:45:00 PM 8.94 48.092 0.051 6.8 1091.94 10.5
5/10/2021 9:00:00 PM 8.88 47.984 0.051 6.81 1111.29 10.6
5/10/2021 9:15:00 PM 8.82 47.876 0.051 6.78 1114.65 10.45
5/10/2021 9:30:00 PM 8.76 47.768 0.052 6.77 1107.24 10.3
5/10/2021 9:45:00 PM 8.69 47.642 0.052 6.77 1103.54 10.5
5/10/2021 10:00:00 PM 8.63 47.534 0.053 6.75 1064.57 10.32
5/10/2021 10:15:00 PM 8.56 47.408 0.054 6.74 1049.92 10.29
5/10/2021 10:30:00 PM 8.49 47.282 0.054 6.75 1056.32 10.47
5/10/2021 10:45:00 PM 8.42 47.156 0.054 6.73 1033.96 10.18
5/10/2021 11:00:00 PM 8.35 47.03 0.054 6.73 1018.11 10.21
5/10/2021 11:15:00 PM 8.29 46.922 0.054 6.74 1002.01 10.01
5/10/2021 11:30:00 PM 8.22 46.796 0.054 6.73 990.3 10.06
5/10/2021 11:45:00 PM 8.16 46.688 0.054 6.74 1014.71 9.95
5/11/2021 12:00:00 AM 8.1 46.58 0.054 6.73 1041.17 8.29
5/11/2021 12:15:00 AM 8.03 46.454 0.054 6.75 1015.03 8.58
5/11/2021 12:30:00 AM 7.97 46.346 0.054 6.74 974.06 8.44
5/11/2021 12:45:00 AM 7.92 46.256 0.054 6.73 961.23 8.93
5/11/2021 1:00:00 AM 7.86 46.148 0.054 6.75 945.98 7.87
5/11/2021 1:15:00 AM 7.82 46.076 0.054 6.75 919.29 8.77
5/11/2021 1:30:00 AM 7.77 45.986 0.054 6.76 903.26 8.78
5/11/2021 1:45:00 AM 7.72 45.896 0.054 6.74 902.55 9.53
5/11/2021 2:00:00 AM 7.67 45.806 0.054 6.74 895.49 9
5/11/2021 2:15:00 AM 7.62 45.716 0.054 6.75 880.49 9.02
5/11/2021 2:30:00 AM 7.58 45.644 0.054 6.74 876.73 9.13
5/11/2021 2:45:00 AM 7.54 45.572 0.054 6.73 869.35 9.82
5/11/2021 3:00:00 AM 7.5 45.5 0.054 6.72 870.82 9.89
5/11/2021 3:15:00 AM 7.46 45.428 0.054 6.73 860.81 9.2
5/11/2021 3:30:00 AM 7.43 45.374 0.054 6.73 814.52 9.49
5/11/2021 3:45:00 AM 7.39 45.302 0.054 6.74 812.63 9.47
5/11/2021 4:00:00 AM 7.36 45.248 0.054 6.75 807.54 10.45
5/11/2021 4:15:00 AM 7.32 45.176 0.054 6.75 832.59 11.02
5/11/2021 4:30:00 AM 7.28 45.104 0.054 6.75 830.19 10.97
5/11/2021 4:45:00 AM 7.24 45.032 0.054 6.76 806.39 11.01
5/11/2021 5:00:00 AM 7.2 44.96 0.054 6.75 819.33 10.64
5/11/2021 5:15:00 AM 7.17 44.906 0.054 6.76 794.78 11.17
5/11/2021 5:30:00 AM 7.13 44.834 0.055 6.76 804.14 11.12
5/11/2021 5:45:00 AM 7.1 44.78 0.055 6.76 804.7 11.19
5/11/2021 6:00:00 AM 7.07 44.726 0.055 6.75 802.31 11.11
5/11/2021 6:15:00 AM 7.04 44.672 0.055 6.75 811.18 11.06
5/11/2021 6:30:00 AM 7.01 44.618 0.054 6.73 807.99 11.25
5/11/2021 6:45:00 AM 6.98 44.564 0.054 6.74 803.72 11.18
5/11/2021 7:00:00 AM 6.96 44.528 0.055 6.75 797.45 11.13
5/11/2021 7:15:00 AM 6.95 44.51 0.055 6.76 796.43 10.98
5/11/2021 7:30:00 AM 6.94 44.492 0.055 6.76 799.67 11.33
5/11/2021 7:45:00 AM 6.93 44.474 0.054 6.76 792.08 11.44
5/11/2021 8:00:00 AM 6.93 44.474 0.055 6.77 777.09 11.36
5/11/2021 8:15:00 AM 6.94 44.492 0.054 6.77 771.99 11.5
5/11/2021 8:30:00 AM 6.95 44.51 0.054 6.76 767.57 11.56
5/11/2021 8:45:00 AM 6.97 44.546 0.054 6.78 751.95 11.53
5/11/2021 9:00:00 AM 7.01 44.618 0.054 6.77 756.58 11.53
5/11/2021 9:15:00 AM 7.07 44.726 0.054 6.77 756.75 11.54
5/11/2021 9:30:00 AM 7.13 44.834 0.053 6.8 760.61 11.57
5/11/2021 9:45:00 AM 7.22 44.996 0.053 6.79 755.49 11.59
5/11/2021 10:00:00 AM 7.32 45.176 0.053 6.81 758.85 11.59
5/11/2021 10:15:00 AM 7.4 45.32 0.053 6.81 747.06 11.51
5/11/2021 10:30:00 AM 7.43 45.374 0.053 6.81 755.52 11.48
5/11/2021 10:45:00 AM 7.51 45.518 0.053 6.8 742.84 11.49
5/11/2021 11:00:00 AM 7.68 45.824 0.053 6.8 741.09 11.53
5/11/2021 11:15:00 AM 7.83 46.094 0.052 6.8 738.1 11.51
5/11/2021 11:30:00 AM 7.95 46.31 0.052 6.8 734.13 11.49
5/11/2021 11:45:00 AM 8.07 46.526 0.051 6.8 717.05 11.52
5/11/2021 12:00:00 PM 8.16 46.688 0.052 6.78 716.82 11.42
5/11/2021 12:15:00 PM 8.22 46.796 0.052 6.78 698.18 11.36
5/11/2021 12:30:00 PM 8.4 47.12 0.051 6.79 701 11.39
5/11/2021 12:45:00 PM 8.52 47.336 0.052 6.78 703.19 11.38
5/11/2021 1:00:00 PM 8.76 47.768 0.052 6.78 711.95 11.36
5/11/2021 1:15:00 PM 8.96 48.128 0.052 6.78 700.66 11.3
5/11/2021 1:30:00 PM 9.07 48.326 0.052 6.77 691.77 11.25
5/11/2021 1:45:00 PM 9.16 48.488 0.052 6.78 692.62 11.19
5/11/2021 2:00:00 PM 9.28 48.704 0.052 6.78 686.28 11.14
5/11/2021 2:15:00 PM 9.42 48.956 0.052 6.77 681.49 11.14
5/11/2021 2:30:00 PM 9.49 49.082 0.052 6.8 689.18 11.13
5/11/2021 2:45:00 PM 9.52 49.136 0.053 6.78 683.18 11.09
5/11/2021 3:00:00 PM 9.64 49.352 0.053 6.78 672.78 11.05
5/11/2021 3:15:00 PM 9.79 49.622 0.053 6.77 660.01 11.04
5/11/2021 3:30:00 PM 9.92 49.856 0.053 6.77 654.68 11.05
5/11/2021 3:45:00 PM 10.09 50.162 0.053 6.77 647.36 11.03
5/11/2021 4:00:00 PM 10.15 50.27 0.053 6.77 642.17 10.99
5/11/2021 4:15:00 PM 10.21 50.378 0.053 6.77 641.22 10.96
5/11/2021 4:30:00 PM 10.22 50.396 0.053 6.78 643.39 10.94
5/11/2021 4:45:00 PM 10.25 50.45 0.053 6.76 637.31 10.93
5/11/2021 5:00:00 PM 10.23 50.414 0.053 6.82 644.66 10.88
5/11/2021 5:15:00 PM 10.26 50.468 0.053 6.75 633.16 10.9
5/11/2021 5:30:00 PM 10.3 50.54 0.053 6.75 635.69 10.85
5/11/2021 5:45:00 PM 10.34 50.612 0.053 6.8 636.7 10.86
5/11/2021 6:00:00 PM 10.35 50.63 0.053 6.78 633.86 10.84
5/11/2021 6:15:00 PM 10.28 50.504 0.053 6.77 631.75 10.84
5/11/2021 6:30:00 PM 10.2 50.36 0.053 6.76 642.49 10.83
5/11/2021 6:45:00 PM 10.1 50.18 0.052 6.77 648.49 10.85
5/11/2021 7:00:00 PM 9.99 49.982 0.052 6.76 640.5 10.85
5/11/2021 7:15:00 PM 9.9 49.82 0.052 6.74 637.35 10.85
5/11/2021 7:30:00 PM 9.82 49.676 0.052 6.73 630.44 10.87
5/11/2021 7:45:00 PM 9.74 49.532 0.053 6.74 631.76 10.86
5/11/2021 8:00:00 PM 9.64 49.352 0.053 6.72 626.6 10.84
5/11/2021 8:15:00 PM 9.54 49.172 0.053 6.71 625.67 10.85
5/11/2021 8:30:00 PM 9.44 48.992 0.053 6.69 633.17 10.83
5/11/2021 8:45:00 PM 9.34 48.812 0.053 6.68 624.5 10.81
5/11/2021 9:00:00 PM 9.23 48.614 0.053 6.68 637.01 10.87
5/11/2021 9:15:00 PM 9.13 48.434 0.054 6.67 645.6 10.89
5/11/2021 9:30:00 PM 9.02 48.236 0.054 6.68 648.29 10.9
5/11/2021 9:45:00 PM 8.92 48.056 0.054 6.67 651.81 10.93
5/11/2021 10:00:00 PM 8.82 47.876 0.054 6.67 655.53 10.91
5/11/2021 10:15:00 PM 8.71 47.678 0.054 6.66 656.29 10.95
5/11/2021 10:30:00 PM 8.62 47.516 0.054 6.65 651.77 11.01
5/11/2021 10:45:00 PM 8.52 47.336 0.054 6.66 652.87 11.07
5/11/2021 11:00:00 PM 8.44 47.192 0.054 6.65 640.53 11.1
5/11/2021 11:15:00 PM 8.34 47.012 0.054 6.66 634.82 11.13
5/11/2021 11:30:00 PM 8.25 46.85 0.054 6.64 637.31 11.14
5/11/2021 11:45:00 PM 8.16 46.688 0.054 6.65 635.12 11.18
5/12/2021 12:00:00 AM 8.07 46.526 0.054 6.64 638.15 11.18
5/12/2021 12:15:00 AM 7.99 46.382 0.054 6.64 636.97 11.16
5/12/2021 12:30:00 AM 7.91 46.238 0.054 6.64 637.33 11.22
5/12/2021 12:45:00 AM 7.84 46.112 0.054 6.63 639.17 11.27
5/12/2021 1:00:00 AM 7.78 46.004 0.054 6.63 638.93 11.2
5/12/2021 1:15:00 AM 7.69 45.842 0.054 6.63 633.4 11.29
5/12/2021 1:30:00 AM 7.61 45.698 0.054 6.63 635.04 11.31
5/12/2021 1:45:00 AM 7.52 45.536 0.054 6.62 636.44 11.4
5/12/2021 2:00:00 AM 7.45 45.41 0.053 6.61 637.69 11.42
5/12/2021 2:15:00 AM 7.37 45.266 0.053 6.61 641.59 11.44
5/12/2021 2:30:00 AM 7.3 45.14 0.053 6.62 639.21 11.46
5/12/2021 2:45:00 AM 7.24 45.032 0.052 6.61 642.21 11.49
5/12/2021 3:00:00 AM 7.19 44.942 0.052 6.62 645.25 11.51
5/12/2021 3:15:00 AM 7.13 44.834 0.052 6.61 643.19 11.53
5/12/2021 3:30:00 AM 7.08 44.744 0.052 6.61 634.69 11.54
5/12/2021 3:45:00 AM 7.02 44.636 0.052 6.61 642.85 11.56
5/12/2021 4:00:00 AM 6.97 44.546 0.052 6.63 640.05 11.58
5/12/2021 4:15:00 AM 6.92 44.456 0.052 6.63 647.23 11.6
5/12/2021 4:30:00 AM 6.89 44.402 0.051 6.64 640.53 11.6
5/12/2021 4:45:00 AM 6.84 44.312 0.051 6.63 645.74 11.63
5/12/2021 5:00:00 AM 6.8 44.24 0.051 6.59 639.31 11.64
5/12/2021 5:15:00 AM 6.75 44.15 0.051 6.58 644.54 11.65
5/12/2021 5:30:00 AM 6.71 44.078 0.051 6.6 643.33 11.67
5/12/2021 5:45:00 AM 6.67 44.006 0.051 6.6 640.82 11.69
5/12/2021 6:00:00 AM 6.63 43.934 0.05 6.59 641.46 11.7
5/12/2021 6:15:00 AM 6.59 43.862 0.05 6.59 636.2 11.72
5/12/2021 6:30:00 AM 6.55 43.79 0.05 6.6 638.74 11.75
5/12/2021 6:45:00 AM 6.51 43.718 0.05 6.59 633.41 11.77
5/12/2021 7:00:00 AM 6.48 43.664 0.05 6.61 628.74 11.8
5/12/2021 7:15:00 AM 6.45 43.61 0.05 6.61 627.24 11.84
5/12/2021 7:30:00 AM 6.44 43.592 0.05 6.61 625.6 11.87
5/12/2021 7:45:00 AM 6.44 43.592 0.05 6.63 621.94 11.93
5/12/2021 8:00:00 AM 6.45 43.61 0.05 6.62 624.34 11.97
5/12/2021 8:15:00 AM 6.48 43.664 0.05 6.63 621.19 12
5/12/2021 8:30:00 AM 6.51 43.718 0.05 6.62 621.12 12
5/12/2021 8:45:00 AM 6.55 43.79 0.05 6.64 618.5 12.03
5/12/2021 9:00:00 AM 6.6 43.88 0.05 6.63 615.68 12.03
5/12/2021 9:15:00 AM 6.68 44.024 0.05 6.65 616.88 12.03
5/12/2021 9:30:00 AM 6.76 44.168 0.05 6.66 624.17 12.01
5/12/2021 9:45:00 AM 6.87 44.366 0.05 6.66 622.28 11.99
5/12/2021 10:00:00 AM 6.99 44.582 0.051 6.64 619.6 11.98
5/12/2021 10:15:00 AM 7.26 45.068 0.046 6.96 3.08 11.97
5/12/2021 10:30:00 AM 7.38 45.284 0.045 6.53 2.72 11.92
5/12/2021 10:45:00 AM 7.54 45.572 0.045 6.62 3.96 11.9
5/12/2021 11:00:00 AM 7.71 45.878 0.045 6.64 2.81 11.87
5/12/2021 11:15:00 AM 7.91 46.238 0.045 6.69 2.67 11.84
5/12/2021 11:30:00 AM 8.1 46.58 0.045 6.74 2.69 11.79
5/12/2021 11:45:00 AM 8.31 46.958 0.045 6.79 2.77 11.74
5/12/2021 12:00:00 PM 8.5 47.3 0.045 6.8 2.56 11.68
5/12/2021 12:15:00 PM 8.75 47.75 0.045 6.84 2.63 11.64
5/12/2021 12:30:00 PM 8.98 48.164 0.045 6.86 2.52 11.57
5/12/2021 12:45:00 PM 9.07 48.326 0.045 6.87 2.73 11.53
5/12/2021 1:00:00 PM 9.34 48.812 0.045 6.88 2.54 11.49
5/12/2021 1:15:00 PM 9.51 49.118 0.045 6.9 2.65 11.43
5/12/2021 1:30:00 PM 9.63 49.334 0.045 6.91 2.79 11.38
5/12/2021 1:45:00 PM 9.7 49.46 0.044 6.91 2.6 11.34
5/12/2021 2:00:00 PM 9.79 49.622 0.044 6.93 2.61 11.32
5/12/2021 2:15:00 PM 9.95 49.91 0.045 6.94 2.75 11.29
5/12/2021 2:30:00 PM 10.3 50.54 0.044 6.95 2.59 11.26
5/12/2021 2:45:00 PM 10.48 50.864 0.045 6.95 2.67 11.21
5/12/2021 3:00:00 PM 10.7 51.26 0.045 6.97 2.74 11.17
5/12/2021 3:15:00 PM 10.9 51.62 0.045 6.97 2.48 11.13
5/12/2021 3:30:00 PM 10.85 51.53 0.045 6.98 2.69 11.11
5/12/2021 3:45:00 PM 10.84 51.512 0.045 6.97 2.88 11.09
5/12/2021 4:00:00 PM 10.64 51.152 0.045 6.97 2.79 11.06
5/12/2021 4:15:00 PM 10.56 51.008 0.045 6.95 2.89 11.06
5/12/2021 4:30:00 PM 10.5 50.9 0.045 6.96 2.73 11.06
5/12/2021 4:45:00 PM 10.5 50.9 0.045 6.95 2.75 11.05
5/12/2021 5:00:00 PM 10.5 50.9 0.045 6.95 2.83 11.05
5/12/2021 5:15:00 PM 10.49 50.882 0.045 6.95 3.01 11.05
5/12/2021 5:30:00 PM 10.49 50.882 0.045 6.95 2.83 11.03
5/12/2021 5:45:00 PM 10.52 50.936 0.045 6.95 3.09 11.02
5/12/2021 6:00:00 PM 10.48 50.864 0.045 6.95 2.75 10.99
5/12/2021 6:15:00 PM 10.49 50.882 0.045 6.93 2.85 10.98
5/12/2021 6:30:00 PM 10.51 50.918 0.045 6.94 4.8 10.97
5/12/2021 6:45:00 PM 10.51 50.918 0.045 6.94 2.89 10.96
5/12/2021 7:00:00 PM 10.5 50.9 0.045 6.93 3.03 10.93
5/12/2021 7:15:00 PM 10.48 50.864 0.045 6.92 3.09 10.91
5/12/2021 7:30:00 PM 10.43 50.774 0.045 6.91 2.87 10.87
5/12/2021 7:45:00 PM 10.36 50.648 0.045 6.9 3.3 10.86
5/12/2021 8:00:00 PM 10.27 50.486 0.045 6.89 2.84 10.85
5/12/2021 8:15:00 PM 10.16 50.288 0.045 6.87 3.91 10.85
5/12/2021 8:30:00 PM 10.07 50.126 0.045 6.86 3.36 10.83
5/12/2021 8:45:00 PM 9.98 49.964 0.046 6.85 2.93 10.84
5/12/2021 9:00:00 PM 9.91 49.838 0.046 6.84 3.05 10.84
5/12/2021 9:15:00 PM 9.83 49.694 0.046 6.83 3.01 10.85
5/12/2021 9:30:00 PM 9.75 49.55 0.046 6.82 3.14 10.85
5/12/2021 9:45:00 PM 9.66 49.388 0.046 6.82 3.23 10.87
5/12/2021 10:00:00 PM 9.57 49.226 0.046 6.81 3.11 10.89
5/12/2021 10:15:00 PM 9.48 49.064 0.046 6.81 3.05 10.92
5/12/2021 10:30:00 PM 9.39 48.902 0.046 6.81 2.94 10.93
5/12/2021 10:45:00 PM 9.3 48.74 0.046 6.81 3.22 10.96
5/12/2021 11:00:00 PM -99999.99 -179968 -99999.99 -99999.99 -99999.99 -99999.99
5/12/2021 11:15:00 PM -99999.99 -179968 -99999.99 -99999.99 -99999.99 -99999.99
5/12/2021 11:30:00 PM -99999.99 -179968 -99999.99 -99999.99 -99999.99 -99999.99
5/12/2021 11:45:00 PM -99999.99 -179968 -99999.99 -99999.99 -99999.99 -99999.99
5/13/2021 12:00:00 AM -99999.99 -179968 -99999.99 -99999.99 -99999.99 -99999.99
5/13/2021 12:15:00 AM -99999.99 -179968 -99999.99 -99999.99 -99999.99 -99999.99
5/13/2021 12:30:00 AM -99999.99 -179968 -99999.99 -99999.99 -99999.99 -99999.99
5/13/2021 12:45:00 AM -99999.99 -179968 -99999.99 -99999.99 -99999.99 -99999.99
5/13/2021 1:00:00 AM -99999.99 -179968 -99999.99 -99999.99 -99999.99 -99999.99
5/13/2021 1:15:00 AM -99999.99 -179968 -99999.99 -99999.99 -99999.99 -99999.99
5/13/2021 1:30:00 AM -99999.99 -179968 -99999.99 -99999.99 -99999.99 -99999.99
5/13/2021 1:45:00 AM -99999.99 -179968 -99999.99 -99999.99 -99999.99 -99999.99
5/13/2021 2:00:00 AM -99999.99 -179968 -99999.99 -99999.99 -99999.99 -99999.99
5/13/2021 2:15:00 AM -99999.99 -179968 -99999.99 -99999.99 -99999.99 -99999.99
5/13/2021 2:30:00 AM -99999.99 -179968 -99999.99 -99999.99 -99999.99 -99999.99
5/13/2021 2:45:00 AM -99999.99 -179968 -99999.99 -99999.99 -99999.99 -99999.99
5/13/2021 3:00:00 AM -99999.99 -179968 -99999.99 -99999.99 -99999.99 -99999.99
5/13/2021 3:15:00 AM -99999.99 -179968 -99999.99 -99999.99 -99999.99 -99999.99
5/13/2021 3:30:00 AM -99999.99 -179968 -99999.99 -99999.99 -99999.99 -99999.99
5/13/2021 3:45:00 AM -99999.99 -179968 -99999.99 -99999.99 -99999.99 -99999.99
5/13/2021 4:00:00 AM -99999.99 -179968 -99999.99 -99999.99 -99999.99 -99999.99
5/13/2021 4:15:00 AM -99999.99 -179968 -99999.99 -99999.99 -99999.99 -99999.99
5/13/2021 4:30:00 AM -99999.99 -179968 -99999.99 -99999.99 -99999.99 -99999.99
5/13/2021 4:45:00 AM -99999.99 -179968 -99999.99 -99999.99 -99999.99 -99999.99
5/13/2021 5:00:00 AM -99999.99 -179968 -99999.99 -99999.99 -99999.99 -99999.99
5/13/2021 5:15:00 AM -99999.99 -179968 -99999.99 -99999.99 -99999.99 -99999.99
5/13/2021 5:30:00 AM -99999.99 -179968 -99999.99 -99999.99 -99999.99 -99999.99
5/13/2021 5:45:00 AM -99999.99 -179968 -99999.99 -99999.99 -99999.99 -99999.99
5/13/2021 6:00:00 AM -99999.99 -179968 -99999.99 -99999.99 -99999.99 -99999.99
5/13/2021 6:15:00 AM -99999.99 -179968 -99999.99 -99999.99 -99999.99 -99999.99
5/13/2021 6:30:00 AM -99999.99 -179968 -99999.99 -99999.99 -99999.99 -99999.99
5/13/2021 6:45:00 AM -99999.99 -179968 -99999.99 -99999.99 -99999.99 -99999.99
5/13/2021 7:00:00 AM -99999.99 -179968 -99999.99 -99999.99 -99999.99 -99999.99
5/13/2021 7:15:00 AM -99999.99 -179968 -99999.99 -99999.99 -99999.99 -99999.99
5/13/2021 7:30:00 AM -99999.99 -179968 -99999.99 -99999.99 -99999.99 -99999.99
5/13/2021 7:45:00 AM -99999.99 -179968 -99999.99 -99999.99 -99999.99 -99999.99
5/13/2021 8:00:00 AM -99999.99 -179968 -99999.99 -99999.99 -99999.99 -99999.99
5/13/2021 8:15:00 AM -99999.99 -179968 -99999.99 -99999.99 -99999.99 -99999.99
5/13/2021 8:30:00 AM -99999.99 -179968 -99999.99 -99999.99 -99999.99 -99999.99
5/13/2021 8:45:00 AM -99999.99 -179968 -99999.99 -99999.99 -99999.99 -99999.99
5/13/2021 9:00:00 AM -99999.99 -179968 -99999.99 -99999.99 -99999.99 -99999.99
5/13/2021 9:15:00 AM -99999.99 -179968 -99999.99 -99999.99 -99999.99 -99999.99
5/13/2021 9:30:00 AM -99999.99 -179968 -99999.99 -99999.99 -99999.99 -99999.99
5/13/2021 9:45:00 AM -99999.99 -179968 -99999.99 -99999.99 -99999.99 -99999.99
5/13/2021 10:00:00 AM -99999.99 -179968 -99999.99 -99999.99 -99999.99 -99999.99
5/13/2021 10:15:00 AM -99999.99 -179968 -99999.99 -99999.99 -99999.99 -99999.99
5/13/2021 10:30:00 AM -99999.99 -179968 -99999.99 -99999.99 -99999.99 -99999.99
5/13/2021 10:45:00 AM -99999.99 -179968 -99999.99 -99999.99 -99999.99 -99999.99
5/13/2021 11:00:00 AM -99999.99 -179968 -99999.99 -99999.99 -99999.99 -99999.99
5/13/2021 11:15:00 AM -99999.99 -179968 -99999.99 -99999.99 -99999.99 -99999.99
5/13/2021 11:30:00 AM -99999.99 -179968 -99999.99 -99999.99 -99999.99 -99999.99
5/13/2021 11:45:00 AM -99999.99 -179968 -99999.99 -99999.99 -99999.99 -99999.99
5/13/2021 12:00:00 PM -99999.99 -179968 -99999.99 -99999.99 -99999.99 -99999.99
5/13/2021 12:15:00 PM -99999.99 -179968 -99999.99 -99999.99 -99999.99 -99999.99
5/13/2021 12:30:00 PM -99999.99 -179968 -99999.99 -99999.99 -99999.99 -99999.99
5/13/2021 12:45:00 PM -99999.99 -179968 -99999.99 -99999.99 -99999.99 -99999.99
5/13/2021 1:00:00 PM -99999.99 -179968 -99999.99 -99999.99 -99999.99 -99999.99
5/13/2021 1:15:00 PM -99999.99 -179968 -99999.99 -99999.99 -99999.99 -99999.99
5/13/2021 1:30:00 PM -99999.99 -179968 -99999.99 -99999.99 -99999.99 -99999.99
5/13/2021 1:45:00 PM -99999.99 -179968 -99999.99 -99999.99 -99999.99 -99999.99
5/13/2021 2:00:00 PM -99999.99 -179968 -99999.99 -99999.99 -99999.99 -99999.99
5/13/2021 2:15:00 PM -99999.99 -179968 -99999.99 -99999.99 -99999.99 -99999.99
5/13/2021 2:30:00 PM -99999.99 -179968 -99999.99 -99999.99 -99999.99 -99999.99
5/13/2021 2:45:00 PM -99999.99 -179968 -99999.99 -99999.99 -99999.99 -99999.99
5/13/2021 3:00:00 PM -99999.99 -179968 -99999.99 -99999.99 -99999.99 -99999.99
5/13/2021 3:15:00 PM -99999.99 -179968 -99999.99 -99999.99 -99999.99 -99999.99
5/13/2021 3:30:00 PM -99999.99 -179968 -99999.99 -99999.99 -99999.99 -99999.99
5/13/2021 3:45:00 PM -99999.99 -179968 -99999.99 -99999.99 -99999.99 -99999.99
5/13/2021 4:00:00 PM -99999.99 -179968 -99999.99 -99999.99 -99999.99 -99999.99
5/13/2021 4:15:00 PM -99999.99 -179968 -99999.99 -99999.99 -99999.99 -99999.99
5/13/2021 4:30:00 PM -99999.99 -179968 -99999.99 -99999.99 -99999.99 -99999.99
5/13/2021 4:45:00 PM -99999.99 -179968 -99999.99 -99999.99 -99999.99 -99999.99
5/13/2021 5:00:00 PM -99999.99 -179968 -99999.99 -99999.99 -99999.99 -99999.99
5/13/2021 5:15:00 PM -99999.99 -179968 -99999.99 -99999.99 -99999.99 -99999.99
5/13/2021 5:30:00 PM -99999.99 -179968 -99999.99 -99999.99 -99999.99 -99999.99
5/13/2021 5:45:00 PM -99999.99 -179968 -99999.99 -99999.99 -99999.99 -99999.99
5/13/2021 6:00:00 PM -99999.99 -179968 -99999.99 -99999.99 -99999.99 -99999.99
5/13/2021 6:15:00 PM -99999.99 -179968 -99999.99 -99999.99 -99999.99 -99999.99
5/13/2021 6:30:00 PM -99999.99 -179968 -99999.99 -99999.99 -99999.99 -99999.99
5/13/2021 6:45:00 PM -99999.99 -179968 -99999.99 -99999.99 -99999.99 -99999.99
5/13/2021 7:00:00 PM -99999.99 -179968 -99999.99 -99999.99 -99999.99 -99999.99
5/13/2021 7:15:00 PM -99999.99 -179968 -99999.99 -99999.99 -99999.99 -99999.99
5/13/2021 7:30:00 PM -99999.99 -179968 -99999.99 -99999.99 -99999.99 -99999.99
5/13/2021 7:45:00 PM -99999.99 -179968 -99999.99 -99999.99 -99999.99 -99999.99
5/13/2021 8:00:00 PM -99999.99 -179968 -99999.99 -99999.99 -99999.99 -99999.99
5/13/2021 8:15:00 PM -99999.99 -179968 -99999.99 -99999.99 -99999.99 -99999.99
5/13/2021 8:30:00 PM -99999.99 -179968 -99999.99 -99999.99 -99999.99 -99999.99
5/13/2021 8:45:00 PM -99999.99 -179968 -99999.99 -99999.99 -99999.99 -99999.99
5/13/2021 9:00:00 PM -99999.99 -179968 -99999.99 -99999.99 -99999.99 -99999.99
5/13/2021 9:15:00 PM -99999.99 -179968 -99999.99 -99999.99 -99999.99 -99999.99
5/13/2021 9:30:00 PM -99999.99 -179968 -99999.99 -99999.99 -99999.99 -99999.99
5/13/2021 9:45:00 PM -99999.99 -179968 -99999.99 -99999.99 -99999.99 -99999.99
5/13/2021 10:00:00 PM -99999.99 -179968 -99999.99 -99999.99 -99999.99 -99999.99
5/13/2021 10:15:00 PM -99999.99 -179968 -99999.99 -99999.99 -99999.99 -99999.99
5/13/2021 10:30:00 PM -99999.99 -179968 -99999.99 -99999.99 -99999.99 -99999.99
5/13/2021 10:45:00 PM -99999.99 -179968 -99999.99 -99999.99 -99999.99 -99999.99
5/13/2021 11:00:00 PM -99999.99 -179968 -99999.99 -99999.99 -99999.99 -99999.99
5/13/2021 11:15:00 PM -99999.99 -179968 -99999.99 -99999.99 -99999.99 -99999.99
5/13/2021 11:30:00 PM -99999.99 -179968 -99999.99 -99999.99 -99999.99 -99999.99
5/13/2021 11:45:00 PM -99999.99 -179968 -99999.99 -99999.99 -99999.99 -99999.99
5/14/2021 12:00:00 AM -99999.99 -179968 -99999.99 -99999.99 -99999.99 -99999.99
5/14/2021 12:15:00 AM -99999.99 -179968 -99999.99 -99999.99 -99999.99 -99999.99
5/14/2021 12:30:00 AM -99999.99 -179968 -99999.99 -99999.99 -99999.99 -99999.99
5/14/2021 12:45:00 AM -99999.99 -179968 -99999.99 -99999.99 -99999.99 -99999.99
5/14/2021 1:00:00 AM -99999.99 -179968 -99999.99 -99999.99 -99999.99 -99999.99
5/14/2021 1:15:00 AM -99999.99 -179968 -99999.99 -99999.99 -99999.99 -99999.99
5/14/2021 1:30:00 AM -99999.99 -179968 -99999.99 -99999.99 -99999.99 -99999.99
5/14/2021 1:45:00 AM -99999.99 -179968 -99999.99 -99999.99 -99999.99 -99999.99
5/14/2021 2:00:00 AM -99999.99 -179968 -99999.99 -99999.99 -99999.99 -99999.99
5/14/2021 2:15:00 AM -99999.99 -179968 -99999.99 -99999.99 -99999.99 -99999.99
5/14/2021 2:30:00 AM -99999.99 -179968 -99999.99 -99999.99 -99999.99 -99999.99
5/14/2021 2:45:00 AM -99999.99 -179968 -99999.99 -99999.99 -99999.99 -99999.99
5/14/2021 3:00:00 AM -99999.99 -179968 -99999.99 -99999.99 -99999.99 -99999.99
5/14/2021 3:15:00 AM -99999.99 -179968 -99999.99 -99999.99 -99999.99 -99999.99
5/14/2021 3:30:00 AM -99999.99 -179968 -99999.99 -99999.99 -99999.99 -99999.99
5/14/2021 3:45:00 AM -99999.99 -179968 -99999.99 -99999.99 -99999.99 -99999.99
5/14/2021 4:00:00 AM -99999.99 -179968 -99999.99 -99999.99 -99999.99 -99999.99
5/14/2021 4:15:00 AM -99999.99 -179968 -99999.99 -99999.99 -99999.99 -99999.99
5/14/2021 4:30:00 AM -99999.99 -179968 -99999.99 -99999.99 -99999.99 -99999.99
5/14/2021 4:45:00 AM -99999.99 -179968 -99999.99 -99999.99 -99999.99 -99999.99
5/14/2021 5:00:00 AM -99999.99 -179968 -99999.99 -99999.99 -99999.99 -99999.99
5/14/2021 5:15:00 AM -99999.99 -179968 -99999.99 -99999.99 -99999.99 -99999.99
5/14/2021 5:30:00 AM -99999.99 -179968 -99999.99 -99999.99 -99999.99 -99999.99
5/14/2021 5:45:00 AM -99999.99 -179968 -99999.99 -99999.99 -99999.99 -99999.99
5/14/2021 6:00:00 AM -99999.99 -179968 -99999.99 -99999.99 -99999.99 -99999.99
5/14/2021 6:15:00 AM -99999.99 -179968 -99999.99 -99999.99 -99999.99 -99999.99
5/14/2021 6:30:00 AM -99999.99 -179968 -99999.99 -99999.99 -99999.99 -99999.99
5/14/2021 6:45:00 AM -99999.99 -179968 -99999.99 -99999.99 -99999.99 -99999.99
5/14/2021 7:00:00 AM -99999.99 -179968 -99999.99 -99999.99 -99999.99 -99999.99
5/14/2021 7:15:00 AM -99999.99 -179968 -99999.99 -99999.99 -99999.99 -99999.99
5/14/2021 7:30:00 AM -99999.99 -179968 -99999.99 -99999.99 -99999.99 -99999.99
5/14/2021 7:45:00 AM -99999.99 -179968 -99999.99 -99999.99 -99999.99 -99999.99
5/14/2021 8:00:00 AM -99999.99 -179968 -99999.99 -99999.99 -99999.99 -99999.99
5/14/2021 8:15:00 AM -99999.99 -179968 -99999.99 -99999.99 -99999.99 -99999.99
5/14/2021 8:30:00 AM -99999.99 -179968 -99999.99 -99999.99 -99999.99 -99999.99
5/14/2021 8:45:00 AM -99999.99 -179968 -99999.99 -99999.99 -99999.99 -99999.99
5/14/2021 9:00:00 AM -99999.99 -179968 -99999.99 -99999.99 -99999.99 -99999.99
5/14/2021 9:15:00 AM -99999.99 -179968 -99999.99 -99999.99 -99999.99 -99999.99
5/14/2021 9:30:00 AM -99999.99 -179968 -99999.99 -99999.99 -99999.99 -99999.99
5/14/2021 9:45:00 AM -99999.99 -179968 -99999.99 -99999.99 -99999.99 -99999.99
5/14/2021 10:00:00 AM -99999.99 -179968 -99999.99 -99999.99 -99999.99 -99999.99
5/14/2021 10:15:00 AM -99999.99 -179968 -99999.99 -99999.99 -99999.99 -99999.99
5/14/2021 10:30:00 AM -99999.99 -179968 -99999.99 -99999.99 -99999.99 -99999.99
5/14/2021 10:45:00 AM -99999.99 -179968 -99999.99 -99999.99 -99999.99 -99999.99
5/14/2021 11:00:00 AM -99999.99 -179968 -99999.99 -99999.99 -99999.99 -99999.99
5/14/2021 11:15:00 AM -99999.99 -179968 -99999.99 -99999.99 -99999.99 -99999.99
5/14/2021 11:30:00 AM -99999.99 -179968 -99999.99 -99999.99 -99999.99 -99999.99
5/14/2021 11:45:00 AM -99999.99 -179968 -99999.99 -99999.99 -99999.99 -99999.99
5/14/2021 12:00:00 PM -99999.99 -179968 -99999.99 -99999.99 -99999.99 -99999.99
5/14/2021 12:15:00 PM -99999.99 -179968 -99999.99 -99999.99 -99999.99 -99999.99
5/14/2021 12:30:00 PM -99999.99 -179968 -99999.99 -99999.99 -99999.99 -99999.99
5/14/2021 12:45:00 PM -99999.99 -179968 -99999.99 -99999.99 -99999.99 -99999.99
5/14/2021 1:00:00 PM -99999.99 -179968 -99999.99 -99999.99 -99999.99 -99999.99
5/14/2021 1:15:00 PM -99999.99 -179968 -99999.99 -99999.99 -99999.99 -99999.99
5/14/2021 1:30:00 PM -99999.99 -179968 -99999.99 -99999.99 -99999.99 -99999.99
5/14/2021 1:45:00 PM -99999.99 -179968 -99999.99 -99999.99 -99999.99 -99999.99
5/14/2021 2:00:00 PM -99999.99 -179968 -99999.99 -99999.99 -99999.99 -99999.99
5/14/2021 2:15:00 PM -99999.99 -179968 -99999.99 -99999.99 -99999.99 -99999.99
5/14/2021 2:30:00 PM -99999.99 -179968 -99999.99 -99999.99 -99999.99 -99999.99
5/14/2021 2:45:00 PM -99999.99 -179968 -99999.99 -99999.99 -99999.99 -99999.99
5/14/2021 3:00:00 PM -99999.99 -179968 -99999.99 -99999.99 -99999.99 -99999.99
5/14/2021 3:15:00 PM -99999.99 -179968 -99999.99 -99999.99 -99999.99 -99999.99
5/14/2021 3:30:00 PM -99999.99 -179968 -99999.99 -99999.99 -99999.99 -99999.99
5/14/2021 3:45:00 PM -99999.99 -179968 -99999.99 -99999.99 -99999.99 -99999.99
5/14/2021 4:00:00 PM -99999.99 -179968 -99999.99 -99999.99 -99999.99 -99999.99
5/14/2021 4:15:00 PM -99999.99 -179968 -99999.99 -99999.99 -99999.99 -99999.99
5/14/2021 4:30:00 PM -99999.99 -179968 -99999.99 -99999.99 -99999.99 -99999.99
5/14/2021 4:45:00 PM -99999.99 -179968 -99999.99 -99999.99 -99999.99 -99999.99
5/14/2021 5:00:00 PM -99999.99 -179968 -99999.99 -99999.99 -99999.99 -99999.99
5/14/2021 5:15:00 PM -99999.99 -179968 -99999.99 -99999.99 -99999.99 -99999.99
5/14/2021 5:30:00 PM -99999.99 -179968 -99999.99 -99999.99 -99999.99 -99999.99
5/14/2021 5:45:00 PM -99999.99 -179968 -99999.99 -99999.99 -99999.99 -99999.99
5/14/2021 6:00:00 PM -99999.99 -179968 -99999.99 -99999.99 -99999.99 -99999.99
5/14/2021 6:15:00 PM -99999.99 -179968 -99999.99 -99999.99 -99999.99 -99999.99
5/14/2021 6:30:00 PM -99999.99 -179968 -99999.99 -99999.99 -99999.99 -99999.99
5/14/2021 6:45:00 PM -99999.99 -179968 -99999.99 -99999.99 -99999.99 -99999.99
5/14/2021 7:00:00 PM -99999.99 -179968 -99999.99 -99999.99 -99999.99 -99999.99
5/14/2021 7:15:00 PM -99999.99 -179968 -99999.99 -99999.99 -99999.99 -99999.99
5/14/2021 7:30:00 PM -99999.99 -179968 -99999.99 -99999.99 -99999.99 -99999.99
5/14/2021 7:45:00 PM -99999.99 -179968 -99999.99 -99999.99 -99999.99 -99999.99
5/14/2021 8:00:00 PM -99999.99 -179968 -99999.99 -99999.99 -99999.99 -99999.99
5/14/2021 8:15:00 PM -99999.99 -179968 -99999.99 -99999.99 -99999.99 -99999.99
5/14/2021 8:30:00 PM -99999.99 -179968 -99999.99 -99999.99 -99999.99 -99999.99
5/14/2021 8:45:00 PM -99999.99 -179968 -99999.99 -99999.99 -99999.99 -99999.99
5/14/2021 9:00:00 PM -99999.99 -179968 -99999.99 -99999.99 -99999.99 -99999.99
5/14/2021 9:15:00 PM -99999.99 -179968 -99999.99 -99999.99 -99999.99 -99999.99
5/14/2021 9:30:00 PM -99999.99 -179968 -99999.99 -99999.99 -99999.99 -99999.99
5/14/2021 9:45:00 PM -99999.99 -179968 -99999.99 -99999.99 -99999.99 -99999.99
5/14/2021 10:00:00 PM -99999.99 -179968 -99999.99 -99999.99 -99999.99 -99999.99
5/14/2021 10:15:00 PM -99999.99 -179968 -99999.99 -99999.99 -99999.99 -99999.99
5/14/2021 10:30:00 PM -99999.99 -179968 -99999.99 -99999.99 -99999.99 -99999.99
5/14/2021 10:45:00 PM -99999.99 -179968 -99999.99 -99999.99 -99999.99 -99999.99
5/14/2021 11:00:00 PM -99999.99 -179968 -99999.99 -99999.99 -99999.99 -99999.99
5/14/2021 11:15:00 PM -99999.99 -179968 -99999.99 -99999.99 -99999.99 -99999.99
5/14/2021 11:30:00 PM -99999.99 -179968 -99999.99 -99999.99 -99999.99 -99999.99
5/14/2021 11:45:00 PM -99999.99 -179968 -99999.99 -99999.99 -99999.99 -99999.99
5/15/2021 12:00:00 AM -99999.99 -179968 -99999.99 -99999.99 -99999.99 -99999.99
5/15/2021 12:15:00 AM -99999.99 -179968 -99999.99 -99999.99 -99999.99 -99999.99
5/15/2021 12:30:00 AM -99999.99 -179968 -99999.99 -99999.99 -99999.99 -99999.99
5/15/2021 12:45:00 AM -99999.99 -179968 -99999.99 -99999.99 -99999.99 -99999.99
5/15/2021 1:00:00 AM -99999.99 -179968 -99999.99 -99999.99 -99999.99 -99999.99
5/15/2021 1:15:00 AM -99999.99 -179968 -99999.99 -99999.99 -99999.99 -99999.99
5/15/2021 1:30:00 AM -99999.99 -179968 -99999.99 -99999.99 -99999.99 -99999.99
5/15/2021 1:45:00 AM -99999.99 -179968 -99999.99 -99999.99 -99999.99 -99999.99
5/15/2021 2:00:00 AM -99999.99 -179968 -99999.99 -99999.99 -99999.99 -99999.99
5/15/2021 2:15:00 AM -99999.99 -179968 -99999.99 -99999.99 -99999.99 -99999.99
5/15/2021 2:30:00 AM -99999.99 -179968 -99999.99 -99999.99 -99999.99 -99999.99
5/15/2021 2:45:00 AM -99999.99 -179968 -99999.99 -99999.99 -99999.99 -99999.99
5/15/2021 3:00:00 AM -99999.99 -179968 -99999.99 -99999.99 -99999.99 -99999.99
5/15/2021 3:15:00 AM -99999.99 -179968 -99999.99 -99999.99 -99999.99 -99999.99
5/15/2021 3:30:00 AM -99999.99 -179968 -99999.99 -99999.99 -99999.99 -99999.99
5/15/2021 3:45:00 AM -99999.99 -179968 -99999.99 -99999.99 -99999.99 -99999.99
5/15/2021 4:00:00 AM -99999.99 -179968 -99999.99 -99999.99 -99999.99 -99999.99
5/15/2021 4:15:00 AM -99999.99 -179968 -99999.99 -99999.99 -99999.99 -99999.99
5/15/2021 4:30:00 AM -99999.99 -179968 -99999.99 -99999.99 -99999.99 -99999.99
5/15/2021 4:45:00 AM -99999.99 -179968 -99999.99 -99999.99 -99999.99 -99999.99
5/15/2021 5:00:00 AM -99999.99 -179968 -99999.99 -99999.99 -99999.99 -99999.99
5/15/2021 5:15:00 AM -99999.99 -179968 -99999.99 -99999.99 -99999.99 -99999.99
5/15/2021 5:30:00 AM -99999.99 -179968 -99999.99 -99999.99 -99999.99 -99999.99
5/15/2021 5:45:00 AM -99999.99 -179968 -99999.99 -99999.99 -99999.99 -99999.99
5/15/2021 6:00:00 AM -99999.99 -179968 -99999.99 -99999.99 -99999.99 -99999.99
5/15/2021 6:15:00 AM -99999.99 -179968 -99999.99 -99999.99 -99999.99 -99999.99
5/15/2021 6:30:00 AM -99999.99 -179968 -99999.99 -99999.99 -99999.99 -99999.99
5/15/2021 6:45:00 AM -99999.99 -179968 -99999.99 -99999.99 -99999.99 -99999.99
5/15/2021 7:00:00 AM -99999.99 -179968 -99999.99 -99999.99 -99999.99 -99999.99
5/15/2021 7:15:00 AM -99999.99 -179968 -99999.99 -99999.99 -99999.99 -99999.99
5/15/2021 7:30:00 AM -99999.99 -179968 -99999.99 -99999.99 -99999.99 -99999.99
5/15/2021 7:45:00 AM -99999.99 -179968 -99999.99 -99999.99 -99999.99 -99999.99
5/15/2021 8:00:00 AM -99999.99 -179968 -99999.99 -99999.99 -99999.99 -99999.99
5/15/2021 8:15:00 AM -99999.99 -179968 -99999.99 -99999.99 -99999.99 -99999.99
5/15/2021 8:30:00 AM -99999.99 -179968 -99999.99 -99999.99 -99999.99 -99999.99
5/15/2021 8:45:00 AM -99999.99 -179968 -99999.99 -99999.99 -99999.99 -99999.99
5/15/2021 9:00:00 AM -99999.99 -179968 -99999.99 -99999.99 -99999.99 -99999.99
5/15/2021 9:15:00 AM -99999.99 -179968 -99999.99 -99999.99 -99999.99 -99999.99
5/15/2021 9:30:00 AM -99999.99 -179968 -99999.99 -99999.99 -99999.99 -99999.99
5/15/2021 9:45:00 AM -99999.99 -179968 -99999.99 -99999.99 -99999.99 -99999.99
5/15/2021 10:00:00 AM -99999.99 -179968 -99999.99 -99999.99 -99999.99 -99999.99
5/15/2021 10:15:00 AM -99999.99 -179968 -99999.99 -99999.99 -99999.99 -99999.99
5/15/2021 10:30:00 AM -99999.99 -179968 -99999.99 -99999.99 -99999.99 -99999.99
5/15/2021 10:45:00 AM -99999.99 -179968 -99999.99 -99999.99 -99999.99 -99999.99
5/15/2021 11:00:00 AM -99999.99 -179968 -99999.99 -99999.99 -99999.99 -99999.99
5/15/2021 11:15:00 AM -99999.99 -179968 -99999.99 -99999.99 -99999.99 -99999.99
5/15/2021 11:30:00 AM -99999.99 -179968 -99999.99 -99999.99 -99999.99 -99999.99
5/15/2021 11:45:00 AM -99999.99 -179968 -99999.99 -99999.99 -99999.99 -99999.99
5/15/2021 12:00:00 PM -99999.99 -179968 -99999.99 -99999.99 -99999.99 -99999.99
5/15/2021 12:15:00 PM -99999.99 -179968 -99999.99 -99999.99 -99999.99 -99999.99
5/15/2021 12:30:00 PM -99999.99 -179968 -99999.99 -99999.99 -99999.99 -99999.99
5/15/2021 12:45:00 PM -99999.99 -179968 -99999.99 -99999.99 -99999.99 -99999.99
5/15/2021 1:00:00 PM -99999.99 -179968 -99999.99 -99999.99 -99999.99 -99999.99
5/15/2021 1:15:00 PM -99999.99 -179968 -99999.99 -99999.99 -99999.99 -99999.99
5/15/2021 1:30:00 PM -99999.99 -179968 -99999.99 -99999.99 -99999.99 -99999.99
5/15/2021 1:45:00 PM -99999.99 -179968 -99999.99 -99999.99 -99999.99 -99999.99
5/15/2021 2:00:00 PM -99999.99 -179968 -99999.99 -99999.99 -99999.99 -99999.99
5/15/2021 2:15:00 PM -99999.99 -179968 -99999.99 -99999.99 -99999.99 -99999.99
5/15/2021 2:30:00 PM -99999.99 -179968 -99999.99 -99999.99 -99999.99 -99999.99
5/15/2021 2:45:00 PM -99999.99 -179968 -99999.99 -99999.99 -99999.99 -99999.99
5/15/2021 3:00:00 PM -99999.99 -179968 -99999.99 -99999.99 -99999.99 -99999.99
5/15/2021 3:15:00 PM -99999.99 -179968 -99999.99 -99999.99 -99999.99 -99999.99
5/15/2021 3:30:00 PM -99999.99 -179968 -99999.99 -99999.99 -99999.99 -99999.99
5/15/2021 3:45:00 PM -99999.99 -179968 -99999.99 -99999.99 -99999.99 -99999.99
5/15/2021 4:00:00 PM -99999.99 -179968 -99999.99 -99999.99 -99999.99 -99999.99
5/15/2021 4:15:00 PM -99999.99 -179968 -99999.99 -99999.99 -99999.99 -99999.99
5/15/2021 4:30:00 PM -99999.99 -179968 -99999.99 -99999.99 -99999.99 -99999.99
5/15/2021 4:45:00 PM -99999.99 -179968 -99999.99 -99999.99 -99999.99 -99999.99
5/15/2021 5:00:00 PM -99999.99 -179968 -99999.99 -99999.99 -99999.99 -99999.99
5/15/2021 5:15:00 PM -99999.99 -179968 -99999.99 -99999.99 -99999.99 -99999.99
5/15/2021 5:30:00 PM -99999.99 -179968 -99999.99 -99999.99 -99999.99 -99999.99
5/15/2021 5:45:00 PM -99999.99 -179968 -99999.99 -99999.99 -99999.99 -99999.99
5/15/2021 6:00:00 PM -99999.99 -179968 -99999.99 -99999.99 -99999.99 -99999.99
5/15/2021 6:15:00 PM -99999.99 -179968 -99999.99 -99999.99 -99999.99 -99999.99
5/15/2021 6:30:00 PM -99999.99 -179968 -99999.99 -99999.99 -99999.99 -99999.99
5/15/2021 6:45:00 PM -99999.99 -179968 -99999.99 -99999.99 -99999.99 -99999.99
5/15/2021 7:00:00 PM -99999.99 -179968 -99999.99 -99999.99 -99999.99 -99999.99
5/15/2021 7:15:00 PM -99999.99 -179968 -99999.99 -99999.99 -99999.99 -99999.99
5/15/2021 7:30:00 PM -99999.99 -179968 -99999.99 -99999.99 -99999.99 -99999.99
5/15/2021 7:45:00 PM -99999.99 -179968 -99999.99 -99999.99 -99999.99 -99999.99
5/15/2021 8:00:00 PM -99999.99 -179968 -99999.99 -99999.99 -99999.99 -99999.99
5/15/2021 8:15:00 PM -99999.99 -179968 -99999.99 -99999.99 -99999.99 -99999.99
5/15/2021 8:30:00 PM -99999.99 -179968 -99999.99 -99999.99 -99999.99 -99999.99
5/15/2021 8:45:00 PM -99999.99 -179968 -99999.99 -99999.99 -99999.99 -99999.99
5/15/2021 9:00:00 PM -99999.99 -179968 -99999.99 -99999.99 -99999.99 -99999.99
5/15/2021 9:15:00 PM -99999.99 -179968 -99999.99 -99999.99 -99999.99 -99999.99
5/15/2021 9:30:00 PM -99999.99 -179968 -99999.99 -99999.99 -99999.99 -99999.99
5/15/2021 9:45:00 PM -99999.99 -179968 -99999.99 -99999.99 -99999.99 -99999.99
5/15/2021 10:00:00 PM -99999.99 -179968 -99999.99 -99999.99 -99999.99 -99999.99
5/15/2021 10:15:00 PM -99999.99 -179968 -99999.99 -99999.99 -99999.99 -99999.99
5/15/2021 10:30:00 PM -99999.99 -179968 -99999.99 -99999.99 -99999.99 -99999.99
5/15/2021 10:45:00 PM -99999.99 -179968 -99999.99 -99999.99 -99999.99 -99999.99
5/15/2021 11:00:00 PM -99999.99 -179968 -99999.99 -99999.99 -99999.99 -99999.99
5/15/2021 11:15:00 PM -99999.99 -179968 -99999.99 -99999.99 -99999.99 -99999.99
5/15/2021 11:30:00 PM -99999.99 -179968 -99999.99 -99999.99 -99999.99 -99999.99
5/15/2021 11:45:00 PM -99999.99 -179968 -99999.99 -99999.99 -99999.99 -99999.99
5/16/2021 12:00:00 AM -99999.99 -179968 -99999.99 -99999.99 -99999.99 -99999.99
5/16/2021 12:15:00 AM -99999.99 -179968 -99999.99 -99999.99 -99999.99 -99999.99
5/16/2021 12:30:00 AM -99999.99 -179968 -99999.99 -99999.99 -99999.99 -99999.99
5/16/2021 12:45:00 AM -99999.99 -179968 -99999.99 -99999.99 -99999.99 -99999.99
5/16/2021 1:00:00 AM -99999.99 -179968 -99999.99 -99999.99 -99999.99 -99999.99
5/16/2021 1:15:00 AM -99999.99 -179968 -99999.99 -99999.99 -99999.99 -99999.99
5/16/2021 1:30:00 AM -99999.99 -179968 -99999.99 -99999.99 -99999.99 -99999.99
5/16/2021 1:45:00 AM -99999.99 -179968 -99999.99 -99999.99 -99999.99 -99999.99
5/16/2021 2:00:00 AM -99999.99 -179968 -99999.99 -99999.99 -99999.99 -99999.99
5/16/2021 2:15:00 AM -99999.99 -179968 -99999.99 -99999.99 -99999.99 -99999.99
5/16/2021 2:30:00 AM -99999.99 -179968 -99999.99 -99999.99 -99999.99 -99999.99
5/16/2021 2:45:00 AM -99999.99 -179968 -99999.99 -99999.99 -99999.99 -99999.99
5/16/2021 3:00:00 AM -99999.99 -179968 -99999.99 -99999.99 -99999.99 -99999.99
5/16/2021 3:15:00 AM -99999.99 -179968 -99999.99 -99999.99 -99999.99 -99999.99
5/16/2021 3:30:00 AM -99999.99 -179968 -99999.99 -99999.99 -99999.99 -99999.99
5/16/2021 3:45:00 AM -99999.99 -179968 -99999.99 -99999.99 -99999.99 -99999.99
5/16/2021 4:00:00 AM -99999.99 -179968 -99999.99 -99999.99 -99999.99 -99999.99
5/16/2021 4:15:00 AM -99999.99 -179968 -99999.99 -99999.99 -99999.99 -99999.99
5/16/2021 4:30:00 AM -99999.99 -179968 -99999.99 -99999.99 -99999.99 -99999.99
5/16/2021 4:45:00 AM -99999.99 -179968 -99999.99 -99999.99 -99999.99 -99999.99
5/16/2021 5:00:00 AM -99999.99 -179968 -99999.99 -99999.99 -99999.99 -99999.99
5/16/2021 5:15:00 AM -99999.99 -179968 -99999.99 -99999.99 -99999.99 -99999.99
5/16/2021 5:30:00 AM -99999.99 -179968 -99999.99 -99999.99 -99999.99 -99999.99
5/16/2021 5:45:00 AM -99999.99 -179968 -99999.99 -99999.99 -99999.99 -99999.99
5/16/2021 6:00:00 AM -99999.99 -179968 -99999.99 -99999.99 -99999.99 -99999.99
5/16/2021 6:15:00 AM -99999.99 -179968 -99999.99 -99999.99 -99999.99 -99999.99
5/16/2021 6:30:00 AM -99999.99 -179968 -99999.99 -99999.99 -99999.99 -99999.99
5/16/2021 6:45:00 AM -99999.99 -179968 -99999.99 -99999.99 -99999.99 -99999.99
5/16/2021 7:00:00 AM -99999.99 -179968 -99999.99 -99999.99 -99999.99 -99999.99
5/16/2021 7:15:00 AM -99999.99 -179968 -99999.99 -99999.99 -99999.99 -99999.99
5/16/2021 7:30:00 AM -99999.99 -179968 -99999.99 -99999.99 -99999.99 -99999.99
5/16/2021 7:45:00 AM -99999.99 -179968 -99999.99 -99999.99 -99999.99 -99999.99
5/16/2021 8:00:00 AM -99999.99 -179968 -99999.99 -99999.99 -99999.99 -99999.99
5/16/2021 8:15:00 AM -99999.99 -179968 -99999.99 -99999.99 -99999.99 -99999.99
5/16/2021 8:30:00 AM -99999.99 -179968 -99999.99 -99999.99 -99999.99 -99999.99
5/16/2021 8:45:00 AM -99999.99 -179968 -99999.99 -99999.99 -99999.99 -99999.99
5/16/2021 9:00:00 AM -99999.99 -179968 -99999.99 -99999.99 -99999.99 -99999.99
5/16/2021 9:15:00 AM -99999.99 -179968 -99999.99 -99999.99 -99999.99 -99999.99
5/16/2021 9:30:00 AM -99999.99 -179968 -99999.99 -99999.99 -99999.99 -99999.99
5/16/2021 9:45:00 AM -99999.99 -179968 -99999.99 -99999.99 -99999.99 -99999.99
5/16/2021 10:00:00 AM -99999.99 -179968 -99999.99 -99999.99 -99999.99 -99999.99
5/16/2021 10:15:00 AM -99999.99 -179968 -99999.99 -99999.99 -99999.99 -99999.99
5/16/2021 10:30:00 AM -99999.99 -179968 -99999.99 -99999.99 -99999.99 -99999.99
5/16/2021 10:45:00 AM -99999.99 -179968 -99999.99 -99999.99 -99999.99 -99999.99
5/16/2021 11:00:00 AM -99999.99 -179968 -99999.99 -99999.99 -99999.99 -99999.99
5/16/2021 11:15:00 AM -99999.99 -179968 -99999.99 -99999.99 -99999.99 -99999.99
5/16/2021 11:30:00 AM -99999.99 -179968 -99999.99 -99999.99 -99999.99 -99999.99
5/16/2021 11:45:00 AM -99999.99 -179968 -99999.99 -99999.99 -99999.99 -99999.99
5/16/2021 12:00:00 PM -99999.99 -179968 -99999.99 -99999.99 -99999.99 -99999.99
5/16/2021 12:15:00 PM -99999.99 -179968 -99999.99 -99999.99 -99999.99 -99999.99
5/16/2021 12:30:00 PM -99999.99 -179968 -99999.99 -99999.99 -99999.99 -99999.99
5/16/2021 12:45:00 PM -99999.99 -179968 -99999.99 -99999.99 -99999.99 -99999.99
5/16/2021 1:00:00 PM -99999.99 -179968 -99999.99 -99999.99 -99999.99 -99999.99
5/16/2021 1:15:00 PM -99999.99 -179968 -99999.99 -99999.99 -99999.99 -99999.99
5/16/2021 1:30:00 PM -99999.99 -179968 -99999.99 -99999.99 -99999.99 -99999.99
5/16/2021 1:45:00 PM -99999.99 -179968 -99999.99 -99999.99 -99999.99 -99999.99
5/16/2021 2:00:00 PM -99999.99 -179968 -99999.99 -99999.99 -99999.99 -99999.99
5/16/2021 2:15:00 PM -99999.99 -179968 -99999.99 -99999.99 -99999.99 -99999.99
5/16/2021 2:30:00 PM -99999.99 -179968 -99999.99 -99999.99 -99999.99 -99999.99
5/16/2021 2:45:00 PM -99999.99 -179968 -99999.99 -99999.99 -99999.99 -99999.99
5/16/2021 3:00:00 PM -99999.99 -179968 -99999.99 -99999.99 -99999.99 -99999.99
5/16/2021 3:15:00 PM -99999.99 -179968 -99999.99 -99999.99 -99999.99 -99999.99
5/16/2021 3:30:00 PM -99999.99 -179968 -99999.99 -99999.99 -99999.99 -99999.99
5/16/2021 3:45:00 PM -99999.99 -179968 -99999.99 -99999.99 -99999.99 -99999.99
5/16/2021 4:00:00 PM -99999.99 -179968 -99999.99 -99999.99 -99999.99 -99999.99
5/16/2021 4:15:00 PM -99999.99 -179968 -99999.99 -99999.99 -99999.99 -99999.99
5/16/2021 4:30:00 PM -99999.99 -179968 -99999.99 -99999.99 -99999.99 -99999.99
5/16/2021 4:45:00 PM -99999.99 -179968 -99999.99 -99999.99 -99999.99 -99999.99
5/16/2021 5:00:00 PM -99999.99 -179968 -99999.99 -99999.99 -99999.99 -99999.99
5/16/2021 5:15:00 PM -99999.99 -179968 -99999.99 -99999.99 -99999.99 -99999.99
5/16/2021 5:30:00 PM -99999.99 -179968 -99999.99 -99999.99 -99999.99 -99999.99
5/16/2021 5:45:00 PM -99999.99 -179968 -99999.99 -99999.99 -99999.99 -99999.99
5/16/2021 6:00:00 PM -99999.99 -179968 -99999.99 -99999.99 -99999.99 -99999.99
5/16/2021 6:15:00 PM -99999.99 -179968 -99999.99 -99999.99 -99999.99 -99999.99
5/16/2021 6:30:00 PM -99999.99 -179968 -99999.99 -99999.99 -99999.99 -99999.99
5/16/2021 6:45:00 PM -99999.99 -179968 -99999.99 -99999.99 -99999.99 -99999.99
5/16/2021 7:00:00 PM -99999.99 -179968 -99999.99 -99999.99 -99999.99 -99999.99
5/16/2021 7:15:00 PM -99999.99 -179968 -99999.99 -99999.99 -99999.99 -99999.99
5/16/2021 7:30:00 PM -99999.99 -179968 -99999.99 -99999.99 -99999.99 -99999.99
5/16/2021 7:45:00 PM -99999.99 -179968 -99999.99 -99999.99 -99999.99 -99999.99
5/16/2021 8:00:00 PM -99999.99 -179968 -99999.99 -99999.99 -99999.99 -99999.99
5/16/2021 8:15:00 PM -99999.99 -179968 -99999.99 -99999.99 -99999.99 -99999.99
5/16/2021 8:30:00 PM -99999.99 -179968 -99999.99 -99999.99 -99999.99 -99999.99
5/16/2021 8:45:00 PM -99999.99 -179968 -99999.99 -99999.99 -99999.99 -99999.99
5/16/2021 9:00:00 PM -99999.99 -179968 -99999.99 -99999.99 -99999.99 -99999.99
5/16/2021 9:15:00 PM -99999.99 -179968 -99999.99 -99999.99 -99999.99 -99999.99
5/16/2021 9:30:00 PM -99999.99 -179968 -99999.99 -99999.99 -99999.99 -99999.99
5/16/2021 9:45:00 PM -99999.99 -179968 -99999.99 -99999.99 -99999.99 -99999.99
5/16/2021 10:00:00 PM -99999.99 -179968 -99999.99 -99999.99 -99999.99 -99999.99
5/16/2021 10:15:00 PM -99999.99 -179968 -99999.99 -99999.99 -99999.99 -99999.99
5/16/2021 10:30:00 PM -99999.99 -179968 -99999.99 -99999.99 -99999.99 -99999.99
5/16/2021 10:45:00 PM -99999.99 -179968 -99999.99 -99999.99 -99999.99 -99999.99
5/16/2021 11:00:00 PM -99999.99 -179968 -99999.99 -99999.99 -99999.99 -99999.99
5/16/2021 11:15:00 PM -99999.99 -179968 -99999.99 -99999.99 -99999.99 -99999.99
5/16/2021 11:30:00 PM -99999.99 -179968 -99999.99 -99999.99 -99999.99 -99999.99
5/16/2021 11:45:00 PM -99999.99 -179968 -99999.99 -99999.99 -99999.99 -99999.99
5/17/2021 12:00:00 AM -99999.99 -179968 -99999.99 -99999.99 -99999.99 -99999.99
5/17/2021 12:15:00 AM -99999.99 -179968 -99999.99 -99999.99 -99999.99 -99999.99
5/17/2021 12:30:00 AM -99999.99 -179968 -99999.99 -99999.99 -99999.99 -99999.99
5/17/2021 12:45:00 AM -99999.99 -179968 -99999.99 -99999.99 -99999.99 -99999.99
5/17/2021 1:00:00 AM -99999.99 -179968 -99999.99 -99999.99 -99999.99 -99999.99
5/17/2021 1:15:00 AM -99999.99 -179968 -99999.99 -99999.99 -99999.99 -99999.99
5/17/2021 1:30:00 AM -99999.99 -179968 -99999.99 -99999.99 -99999.99 -99999.99
5/17/2021 1:45:00 AM -99999.99 -179968 -99999.99 -99999.99 -99999.99 -99999.99
5/17/2021 2:00:00 AM -99999.99 -179968 -99999.99 -99999.99 -99999.99 -99999.99
5/17/2021 2:15:00 AM -99999.99 -179968 -99999.99 -99999.99 -99999.99 -99999.99
5/17/2021 2:30:00 AM -99999.99 -179968 -99999.99 -99999.99 -99999.99 -99999.99
5/17/2021 2:45:00 AM -99999.99 -179968 -99999.99 -99999.99 -99999.99 -99999.99
5/17/2021 3:00:00 AM -99999.99 -179968 -99999.99 -99999.99 -99999.99 -99999.99
5/17/2021 3:15:00 AM -99999.99 -179968 -99999.99 -99999.99 -99999.99 -99999.99
5/17/2021 3:30:00 AM -99999.99 -179968 -99999.99 -99999.99 -99999.99 -99999.99
5/17/2021 3:45:00 AM -99999.99 -179968 -99999.99 -99999.99 -99999.99 -99999.99
5/17/2021 4:00:00 AM -99999.99 -179968 -99999.99 -99999.99 -99999.99 -99999.99
5/17/2021 4:15:00 AM -99999.99 -179968 -99999.99 -99999.99 -99999.99 -99999.99
5/17/2021 4:30:00 AM -99999.99 -179968 -99999.99 -99999.99 -99999.99 -99999.99
5/17/2021 4:45:00 AM -99999.99 -179968 -99999.99 -99999.99 -99999.99 -99999.99
5/17/2021 5:00:00 AM -99999.99 -179968 -99999.99 -99999.99 -99999.99 -99999.99
5/17/2021 5:15:00 AM -99999.99 -179968 -99999.99 -99999.99 -99999.99 -99999.99
5/17/2021 5:30:00 AM -99999.99 -179968 -99999.99 -99999.99 -99999.99 -99999.99
5/17/2021 5:45:00 AM -99999.99 -179968 -99999.99 -99999.99 -99999.99 -99999.99
5/17/2021 6:00:00 AM -99999.99 -179968 -99999.99 -99999.99 -99999.99 -99999.99
5/17/2021 6:15:00 AM -99999.99 -179968 -99999.99 -99999.99 -99999.99 -99999.99
5/17/2021 6:30:00 AM -99999.99 -179968 -99999.99 -99999.99 -99999.99 -99999.99
5/17/2021 6:45:00 AM -99999.99 -179968 -99999.99 -99999.99 -99999.99 -99999.99
5/17/2021 7:00:00 AM -99999.99 -179968 -99999.99 -99999.99 -99999.99 -99999.99
5/17/2021 7:15:00 AM -99999.99 -179968 -99999.99 -99999.99 -99999.99 -99999.99
5/17/2021 7:30:00 AM -99999.99 -179968 -99999.99 -99999.99 -99999.99 -99999.99
5/17/2021 7:45:00 AM -99999.99 -179968 -99999.99 -99999.99 -99999.99 -99999.99
5/17/2021 8:00:00 AM -99999.99 -179968 -99999.99 -99999.99 -99999.99 -99999.99
5/17/2021 8:15:00 AM -99999.99 -179968 -99999.99 -99999.99 -99999.99 -99999.99
5/17/2021 8:30:00 AM -99999.99 -179968 -99999.99 -99999.99 -99999.99 -99999.99
5/17/2021 8:45:00 AM -99999.99 -179968 -99999.99 -99999.99 -99999.99 -99999.99
5/17/2021 9:00:00 AM -99999.99 -179968 -99999.99 -99999.99 -99999.99 -99999.99
5/17/2021 9:15:00 AM -99999.99 -179968 -99999.99 -99999.99 -99999.99 -99999.99
5/17/2021 9:30:00 AM -99999.99 -179968 -99999.99 -99999.99 -99999.99 -99999.99
5/17/2021 9:45:00 AM -99999.99 -179968 -99999.99 -99999.99 -99999.99 -99999.99
5/17/2021 10:00:00 AM -99999.99 -179968 -99999.99 -99999.99 -99999.99 -99999.99
5/17/2021 10:15:00 AM -99999.99 -179968 -99999.99 -99999.99 -99999.99 -99999.99
5/17/2021 10:30:00 AM -99999.99 -179968 -99999.99 -99999.99 -99999.99 -99999.99
5/17/2021 10:45:00 AM -99999.99 -179968 -99999.99 -99999.99 -99999.99 -99999.99
5/17/2021 11:00:00 AM -99999.99 -179968 -99999.99 -99999.99 -99999.99 -99999.99
5/17/2021 11:15:00 AM -99999.99 -179968 -99999.99 -99999.99 -99999.99 -99999.99
5/17/2021 11:30:00 AM -99999.99 -179968 -99999.99 -99999.99 -99999.99 -99999.99
5/17/2021 11:45:00 AM -99999.99 -179968 -99999.99 -99999.99 -99999.99 -99999.99
5/17/2021 12:00:00 PM -99999.99 -179968 -99999.99 -99999.99 -99999.99 -99999.99
5/17/2021 12:15:00 PM -99999.99 -179968 -99999.99 -99999.99 -99999.99 -99999.99
5/17/2021 12:30:00 PM -99999.99 -179968 -99999.99 -99999.99 -99999.99 -99999.99
5/17/2021 12:45:00 PM -99999.99 -179968 -99999.99 -99999.99 -99999.99 -99999.99
5/17/2021 1:00:00 PM -99999.99 -179968 -99999.99 -99999.99 -99999.99 -99999.99
5/17/2021 1:15:00 PM -99999.99 -179968 -99999.99 -99999.99 -99999.99 -99999.99
5/17/2021 1:30:00 PM -99999.99 -179968 -99999.99 -99999.99 -99999.99 -99999.99
5/17/2021 1:45:00 PM -99999.99 -179968 -99999.99 -99999.99 -99999.99 -99999.99
5/17/2021 2:00:00 PM -99999.99 -179968 -99999.99 -99999.99 -99999.99 -99999.99
5/17/2021 2:15:00 PM -99999.99 -179968 -99999.99 -99999.99 -99999.99 -99999.99
5/17/2021 2:30:00 PM -99999.99 -179968 -99999.99 -99999.99 -99999.99 -99999.99
5/17/2021 2:45:00 PM -99999.99 -179968 -99999.99 -99999.99 -99999.99 -99999.99
5/17/2021 3:00:00 PM -99999.99 -179968 -99999.99 -99999.99 -99999.99 -99999.99
5/17/2021 3:15:00 PM -99999.99 -179968 -99999.99 -99999.99 -99999.99 -99999.99
5/17/2021 3:30:00 PM -99999.99 -179968 -99999.99 -99999.99 -99999.99 -99999.99
5/17/2021 3:45:00 PM -99999.99 -179968 -99999.99 -99999.99 -99999.99 -99999.99
5/17/2021 4:00:00 PM -99999.99 -179968 -99999.99 -99999.99 -99999.99 -99999.99
5/17/2021 4:15:00 PM -99999.99 -179968 -99999.99 -99999.99 -99999.99 -99999.99
5/17/2021 4:30:00 PM -99999.99 -179968 -99999.99 -99999.99 -99999.99 -99999.99
5/17/2021 4:45:00 PM -99999.99 -179968 -99999.99 -99999.99 -99999.99 -99999.99
5/17/2021 5:00:00 PM -99999.99 -179968 -99999.99 -99999.99 -99999.99 -99999.99
5/17/2021 5:15:00 PM -99999.99 -179968 -99999.99 -99999.99 -99999.99 -99999.99
5/17/2021 5:30:00 PM -99999.99 -179968 -99999.99 -99999.99 -99999.99 -99999.99
5/17/2021 5:45:00 PM -99999.99 -179968 -99999.99 -99999.99 -99999.99 -99999.99
5/17/2021 6:00:00 PM -99999.99 -179968 -99999.99 -99999.99 -99999.99 -99999.99
5/17/2021 6:15:00 PM -99999.99 -179968 -99999.99 -99999.99 -99999.99 -99999.99
5/17/2021 6:30:00 PM -99999.99 -179968 -99999.99 -99999.99 -99999.99 -99999.99
5/17/2021 6:45:00 PM -99999.99 -179968 -99999.99 -99999.99 -99999.99 -99999.99
5/17/2021 7:00:00 PM -99999.99 -179968 -99999.99 -99999.99 -99999.99 -99999.99
5/17/2021 7:15:00 PM -99999.99 -179968 -99999.99 -99999.99 -99999.99 -99999.99
5/17/2021 7:30:00 PM -99999.99 -179968 -99999.99 -99999.99 -99999.99 -99999.99
5/17/2021 7:45:00 PM -99999.99 -179968 -99999.99 -99999.99 -99999.99 -99999.99
5/17/2021 8:00:00 PM -99999.99 -179968 -99999.99 -99999.99 -99999.99 -99999.99
5/17/2021 8:15:00 PM -99999.99 -179968 -99999.99 -99999.99 -99999.99 -99999.99
5/17/2021 8:30:00 PM -99999.99 -179968 -99999.99 -99999.99 -99999.99 -99999.99
5/17/2021 8:45:00 PM -99999.99 -179968 -99999.99 -99999.99 -99999.99 -99999.99
5/17/2021 9:00:00 PM -99999.99 -179968 -99999.99 -99999.99 -99999.99 -99999.99
5/17/2021 9:15:00 PM -99999.99 -179968 -99999.99 -99999.99 -99999.99 -99999.99
5/17/2021 9:30:00 PM -99999.99 -179968 -99999.99 -99999.99 -99999.99 -99999.99
5/17/2021 9:45:00 PM -99999.99 -179968 -99999.99 -99999.99 -99999.99 -99999.99
5/17/2021 10:00:00 PM -99999.99 -179968 -99999.99 -99999.99 -99999.99 -99999.99
5/17/2021 10:15:00 PM -99999.99 -179968 -99999.99 -99999.99 -99999.99 -99999.99
5/17/2021 10:30:00 PM -99999.99 -179968 -99999.99 -99999.99 -99999.99 -99999.99
5/17/2021 10:45:00 PM -99999.99 -179968 -99999.99 -99999.99 -99999.99 -99999.99
5/17/2021 11:00:00 PM -99999.99 -179968 -99999.99 -99999.99 -99999.99 -99999.99
5/17/2021 11:15:00 PM -99999.99 -179968 -99999.99 -99999.99 -99999.99 -99999.99
5/17/2021 11:30:00 PM -99999.99 -179968 -99999.99 -99999.99 -99999.99 -99999.99
5/17/2021 11:45:00 PM -99999.99 -179968 -99999.99 -99999.99 -99999.99 -99999.99
5/18/2021 12:00:00 AM -99999.99 -179968 -99999.99 -99999.99 -99999.99 -99999.99
5/18/2021 12:15:00 AM -99999.99 -179968 -99999.99 -99999.99 -99999.99 -99999.99
5/18/2021 12:30:00 AM -99999.99 -179968 -99999.99 -99999.99 -99999.99 -99999.99
5/18/2021 12:45:00 AM -99999.99 -179968 -99999.99 -99999.99 -99999.99 -99999.99
5/18/2021 1:00:00 AM -99999.99 -179968 -99999.99 -99999.99 -99999.99 -99999.99
5/18/2021 1:15:00 AM -99999.99 -179968 -99999.99 -99999.99 -99999.99 -99999.99
5/18/2021 1:30:00 AM -99999.99 -179968 -99999.99 -99999.99 -99999.99 -99999.99
5/18/2021 1:45:00 AM -99999.99 -179968 -99999.99 -99999.99 -99999.99 -99999.99
5/18/2021 2:00:00 AM -99999.99 -179968 -99999.99 -99999.99 -99999.99 -99999.99
5/18/2021 2:15:00 AM -99999.99 -179968 -99999.99 -99999.99 -99999.99 -99999.99
5/18/2021 2:30:00 AM -99999.99 -179968 -99999.99 -99999.99 -99999.99 -99999.99
5/18/2021 2:45:00 AM -99999.99 -179968 -99999.99 -99999.99 -99999.99 -99999.99
5/18/2021 3:00:00 AM -99999.99 -179968 -99999.99 -99999.99 -99999.99 -99999.99
5/18/2021 3:15:00 AM -99999.99 -179968 -99999.99 -99999.99 -99999.99 -99999.99
5/18/2021 3:30:00 AM -99999.99 -179968 -99999.99 -99999.99 -99999.99 -99999.99
5/18/2021 3:45:00 AM -99999.99 -179968 -99999.99 -99999.99 -99999.99 -99999.99
5/18/2021 4:00:00 AM -99999.99 -179968 -99999.99 -99999.99 -99999.99 -99999.99
5/18/2021 4:15:00 AM -99999.99 -179968 -99999.99 -99999.99 -99999.99 -99999.99
5/18/2021 4:30:00 AM -99999.99 -179968 -99999.99 -99999.99 -99999.99 -99999.99
5/18/2021 4:45:00 AM -99999.99 -179968 -99999.99 -99999.99 -99999.99 -99999.99
5/18/2021 5:00:00 AM -99999.99 -179968 -99999.99 -99999.99 -99999.99 -99999.99
5/18/2021 5:15:00 AM -99999.99 -179968 -99999.99 -99999.99 -99999.99 -99999.99
5/18/2021 5:30:00 AM -99999.99 -179968 -99999.99 -99999.99 -99999.99 -99999.99
5/18/2021 5:45:00 AM -99999.99 -179968 -99999.99 -99999.99 -99999.99 -99999.99
5/18/2021 6:00:00 AM -99999.99 -179968 -99999.99 -99999.99 -99999.99 -99999.99
5/18/2021 6:15:00 AM -99999.99 -179968 -99999.99 -99999.99 -99999.99 -99999.99
5/18/2021 6:30:00 AM -99999.99 -179968 -99999.99 -99999.99 -99999.99 -99999.99
5/18/2021 6:45:00 AM -99999.99 -179968 -99999.99 -99999.99 -99999.99 -99999.99
5/18/2021 7:00:00 AM -99999.99 -179968 -99999.99 -99999.99 -99999.99 -99999.99
5/18/2021 7:15:00 AM -99999.99 -179968 -99999.99 -99999.99 -99999.99 -99999.99
5/18/2021 7:30:00 AM -99999.99 -179968 -99999.99 -99999.99 -99999.99 -99999.99
5/18/2021 7:45:00 AM -99999.99 -179968 -99999.99 -99999.99 -99999.99 -99999.99
5/18/2021 8:00:00 AM -99999.99 -179968 -99999.99 -99999.99 -99999.99 -99999.99
5/18/2021 8:15:00 AM -99999.99 -179968 -99999.99 -99999.99 -99999.99 -99999.99
5/18/2021 8:30:00 AM -99999.99 -179968 -99999.99 -99999.99 -99999.99 -99999.99
5/18/2021 8:45:00 AM -99999.99 -179968 -99999.99 -99999.99 -99999.99 -99999.99
5/18/2021 9:00:00 AM -99999.99 -179968 -99999.99 -99999.99 -99999.99 -99999.99
5/18/2021 9:15:00 AM -99999.99 -179968 -99999.99 -99999.99 -99999.99 -99999.99
5/18/2021 9:30:00 AM -99999.99 -179968 -99999.99 -99999.99 -99999.99 -99999.99
5/18/2021 9:45:00 AM -99999.99 -179968 -99999.99 -99999.99 -99999.99 -99999.99
5/18/2021 10:00:00 AM -99999.99 -179968 -99999.99 -99999.99 -99999.99 -99999.99
5/18/2021 10:15:00 AM -99999.99 -179968 -99999.99 -99999.99 -99999.99 -99999.99
5/18/2021 10:30:00 AM -99999.99 -179968 -99999.99 -99999.99 -99999.99 -99999.99
5/18/2021 10:45:00 AM -99999.99 -179968 -99999.99 -99999.99 -99999.99 -99999.99
5/18/2021 11:00:00 AM -99999.99 -179968 -99999.99 -99999.99 -99999.99 -99999.99
5/18/2021 11:15:00 AM -99999.99 -179968 -99999.99 -99999.99 -99999.99 -99999.99
5/18/2021 11:30:00 AM -99999.99 -179968 -99999.99 -99999.99 -99999.99 -99999.99
5/18/2021 11:45:00 AM -99999.99 -179968 -99999.99 -99999.99 -99999.99 -99999.99
5/18/2021 12:00:00 PM -99999.99 -179968 -99999.99 -99999.99 -99999.99 -99999.99
5/18/2021 12:15:00 PM -99999.99 -179968 -99999.99 -99999.99 -99999.99 -99999.99
5/18/2021 12:30:00 PM -99999.99 -179968 -99999.99 -99999.99 -99999.99 -99999.99
5/18/2021 12:45:00 PM -99999.99 -179968 -99999.99 -99999.99 -99999.99 -99999.99
5/18/2021 1:00:00 PM -99999.99 -179968 -99999.99 -99999.99 -99999.99 -99999.99
5/18/2021 1:15:00 PM -99999.99 -179968 -99999.99 -99999.99 -99999.99 -99999.99
5/18/2021 1:30:00 PM -99999.99 -179968 -99999.99 -99999.99 -99999.99 -99999.99
5/18/2021 1:45:00 PM -99999.99 -179968 -99999.99 -99999.99 -99999.99 -99999.99
5/18/2021 2:00:00 PM -99999.99 -179968 -99999.99 -99999.99 -99999.99 -99999.99
5/18/2021 2:15:00 PM -99999.99 -179968 -99999.99 -99999.99 -99999.99 -99999.99
5/18/2021 2:30:00 PM -99999.99 -179968 -99999.99 -99999.99 -99999.99 -99999.99
5/18/2021 2:45:00 PM -99999.99 -179968 -99999.99 -99999.99 -99999.99 -99999.99
5/18/2021 3:00:00 PM -99999.99 -179968 -99999.99 -99999.99 -99999.99 -99999.99
5/18/2021 3:15:00 PM -99999.99 -179968 -99999.99 -99999.99 -99999.99 -99999.99
5/18/2021 3:30:00 PM -99999.99 -179968 -99999.99 -99999.99 -99999.99 -99999.99
5/18/2021 3:45:00 PM -99999.99 -179968 -99999.99 -99999.99 -99999.99 -99999.99
5/18/2021 4:00:00 PM -99999.99 -179968 -99999.99 -99999.99 -99999.99 -99999.99
5/18/2021 4:15:00 PM -99999.99 -179968 -99999.99 -99999.99 -99999.99 -99999.99
5/18/2021 4:30:00 PM -99999.99 -179968 -99999.99 -99999.99 -99999.99 -99999.99
5/18/2021 4:45:00 PM -99999.99 -179968 -99999.99 -99999.99 -99999.99 -99999.99
5/18/2021 5:00:00 PM -99999.99 -179968 -99999.99 -99999.99 -99999.99 -99999.99
5/18/2021 5:15:00 PM -99999.99 -179968 -99999.99 -99999.99 -99999.99 -99999.99
5/18/2021 5:30:00 PM -99999.99 -179968 -99999.99 -99999.99 -99999.99 -99999.99
5/18/2021 5:45:00 PM -99999.99 -179968 -99999.99 -99999.99 -99999.99 -99999.99
5/18/2021 6:00:00 PM -99999.99 -179968 -99999.99 -99999.99 -99999.99 -99999.99
5/18/2021 6:15:00 PM -99999.99 -179968 -99999.99 -99999.99 -99999.99 -99999.99
5/18/2021 6:30:00 PM -99999.99 -179968 -99999.99 -99999.99 -99999.99 -99999.99
5/18/2021 6:45:00 PM -99999.99 -179968 -99999.99 -99999.99 -99999.99 -99999.99
5/18/2021 7:00:00 PM -99999.99 -179968 -99999.99 -99999.99 -99999.99 -99999.99
5/18/2021 7:15:00 PM -99999.99 -179968 -99999.99 -99999.99 -99999.99 -99999.99
5/18/2021 7:30:00 PM -99999.99 -179968 -99999.99 -99999.99 -99999.99 -99999.99
5/18/2021 7:45:00 PM -99999.99 -179968 -99999.99 -99999.99 -99999.99 -99999.99
5/18/2021 8:00:00 PM -99999.99 -179968 -99999.99 -99999.99 -99999.99 -99999.99
5/18/2021 8:15:00 PM -99999.99 -179968 -99999.99 -99999.99 -99999.99 -99999.99
5/18/2021 8:30:00 PM -99999.99 -179968 -99999.99 -99999.99 -99999.99 -99999.99
5/18/2021 8:45:00 PM -99999.99 -179968 -99999.99 -99999.99 -99999.99 -99999.99
5/18/2021 9:00:00 PM -99999.99 -179968 -99999.99 -99999.99 -99999.99 -99999.99
5/18/2021 9:15:00 PM -99999.99 -179968 -99999.99 -99999.99 -99999.99 -99999.99
5/18/2021 9:30:00 PM -99999.99 -179968 -99999.99 -99999.99 -99999.99 -99999.99
5/18/2021 9:45:00 PM -99999.99 -179968 -99999.99 -99999.99 -99999.99 -99999.99
5/18/2021 10:00:00 PM -99999.99 -179968 -99999.99 -99999.99 -99999.99 -99999.99
5/18/2021 10:15:00 PM -99999.99 -179968 -99999.99 -99999.99 -99999.99 -99999.99
5/18/2021 10:30:00 PM -99999.99 -179968 -99999.99 -99999.99 -99999.99 -99999.99
5/18/2021 10:45:00 PM -99999.99 -179968 -99999.99 -99999.99 -99999.99 -99999.99
5/18/2021 11:00:00 PM -99999.99 -179968 -99999.99 -99999.99 -99999.99 -99999.99
5/18/2021 11:15:00 PM -99999.99 -179968 -99999.99 -99999.99 -99999.99 -99999.99
5/18/2021 11:30:00 PM -99999.99 -179968 -99999.99 -99999.99 -99999.99 -99999.99
5/18/2021 11:45:00 PM -99999.99 -179968 -99999.99 -99999.99 -99999.99 -99999.99
5/19/2021 12:00:00 AM -99999.99 -179968 -99999.99 -99999.99 -99999.99 -99999.99
5/19/2021 12:15:00 AM -99999.99 -179968 -99999.99 -99999.99 -99999.99 -99999.99
5/19/2021 12:30:00 AM -99999.99 -179968 -99999.99 -99999.99 -99999.99 -99999.99
5/19/2021 12:45:00 AM -99999.99 -179968 -99999.99 -99999.99 -99999.99 -99999.99
5/19/2021 1:00:00 AM -99999.99 -179968 -99999.99 -99999.99 -99999.99 -99999.99
5/19/2021 1:15:00 AM -99999.99 -179968 -99999.99 -99999.99 -99999.99 -99999.99
5/19/2021 1:30:00 AM -99999.99 -179968 -99999.99 -99999.99 -99999.99 -99999.99
5/19/2021 1:45:00 AM -99999.99 -179968 -99999.99 -99999.99 -99999.99 -99999.99
5/19/2021 2:00:00 AM -99999.99 -179968 -99999.99 -99999.99 -99999.99 -99999.99
5/19/2021 2:15:00 AM -99999.99 -179968 -99999.99 -99999.99 -99999.99 -99999.99
5/19/2021 2:30:00 AM -99999.99 -179968 -99999.99 -99999.99 -99999.99 -99999.99
5/19/2021 2:45:00 AM -99999.99 -179968 -99999.99 -99999.99 -99999.99 -99999.99
5/19/2021 3:00:00 AM -99999.99 -179968 -99999.99 -99999.99 -99999.99 -99999.99
5/19/2021 3:15:00 AM -99999.99 -179968 -99999.99 -99999.99 -99999.99 -99999.99
5/19/2021 3:30:00 AM -99999.99 -179968 -99999.99 -99999.99 -99999.99 -99999.99
5/19/2021 3:45:00 AM -99999.99 -179968 -99999.99 -99999.99 -99999.99 -99999.99
5/19/2021 4:00:00 AM -99999.99 -179968 -99999.99 -99999.99 -99999.99 -99999.99
5/19/2021 4:15:00 AM -99999.99 -179968 -99999.99 -99999.99 -99999.99 -99999.99
5/19/2021 4:30:00 AM -99999.99 -179968 -99999.99 -99999.99 -99999.99 -99999.99
5/19/2021 4:45:00 AM -99999.99 -179968 -99999.99 -99999.99 -99999.99 -99999.99
5/19/2021 5:00:00 AM -99999.99 -179968 -99999.99 -99999.99 -99999.99 -99999.99
5/19/2021 5:15:00 AM -99999.99 -179968 -99999.99 -99999.99 -99999.99 -99999.99
5/19/2021 5:30:00 AM -99999.99 -179968 -99999.99 -99999.99 -99999.99 -99999.99
5/19/2021 5:45:00 AM -99999.99 -179968 -99999.99 -99999.99 -99999.99 -99999.99
5/19/2021 6:00:00 AM -99999.99 -179968 -99999.99 -99999.99 -99999.99 -99999.99
5/19/2021 6:15:00 AM -99999.99 -179968 -99999.99 -99999.99 -99999.99 -99999.99
5/19/2021 6:30:00 AM -99999.99 -179968 -99999.99 -99999.99 -99999.99 -99999.99
5/19/2021 6:45:00 AM -99999.99 -179968 -99999.99 -99999.99 -99999.99 -99999.99
5/19/2021 7:00:00 AM -99999.99 -179968 -99999.99 -99999.99 -99999.99 -99999.99
5/19/2021 7:15:00 AM -99999.99 -179968 -99999.99 -99999.99 -99999.99 -99999.99
5/19/2021 7:30:00 AM -99999.99 -179968 -99999.99 -99999.99 -99999.99 -99999.99
5/19/2021 7:45:00 AM -99999.99 -179968 -99999.99 -99999.99 -99999.99 -99999.99
5/19/2021 8:00:00 AM -99999.99 -179968 -99999.99 -99999.99 -99999.99 -99999.99
5/19/2021 8:15:00 AM -99999.99 -179968 -99999.99 -99999.99 -99999.99 -99999.99
5/19/2021 8:30:00 AM -99999.99 -179968 -99999.99 -99999.99 -99999.99 -99999.99
5/19/2021 8:45:00 AM -99999.99 -179968 -99999.99 -99999.99 -99999.99 -99999.99
5/19/2021 9:00:00 AM -99999.99 -179968 -99999.99 -99999.99 -99999.99 -99999.99
5/19/2021 9:15:00 AM -99999.99 -179968 -99999.99 -99999.99 -99999.99 -99999.99
5/19/2021 9:30:00 AM -99999.99 -179968 -99999.99 -99999.99 -99999.99 -99999.99
5/19/2021 9:45:00 AM -99999.99 -179968 -99999.99 -99999.99 -99999.99 -99999.99
5/19/2021 10:00:00 AM -99999.99 -179968 -99999.99 -99999.99 -99999.99 -99999.99
5/19/2021 10:15:00 AM -99999.99 -179968 -99999.99 -99999.99 -99999.99 -99999.99
5/19/2021 10:30:00 AM -99999.99 -179968 -99999.99 -99999.99 -99999.99 -99999.99
5/19/2021 10:45:00 AM -99999.99 -179968 -99999.99 -99999.99 -99999.99 -99999.99
5/19/2021 11:00:00 AM -99999.99 -179968 -99999.99 -99999.99 -99999.99 -99999.99
5/19/2021 11:15:00 AM -99999.99 -179968 -99999.99 -99999.99 -99999.99 -99999.99
5/19/2021 11:30:00 AM -99999.99 -179968 -99999.99 -99999.99 -99999.99 -99999.99
5/19/2021 11:45:00 AM -99999.99 -179968 -99999.99 -99999.99 -99999.99 -99999.99
5/19/2021 12:00:00 PM -99999.99 -179968 -99999.99 -99999.99 -99999.99 -99999.99
5/19/2021 12:15:00 PM -99999.99 -179968 -99999.99 -99999.99 -99999.99 -99999.99
5/19/2021 12:30:00 PM -99999.99 -179968 -99999.99 -99999.99 -99999.99 -99999.99
5/19/2021 12:45:00 PM -99999.99 -179968 -99999.99 -99999.99 -99999.99 -99999.99
5/19/2021 1:00:00 PM -99999.99 -179968 -99999.99 -99999.99 -99999.99 -99999.99
5/19/2021 1:15:00 PM -99999.99 -179968 -99999.99 -99999.99 -99999.99 -99999.99
5/19/2021 1:30:00 PM -99999.99 -179968 -99999.99 -99999.99 -99999.99 -99999.99
5/19/2021 1:45:00 PM -99999.99 -179968 -99999.99 -99999.99 -99999.99 -99999.99
5/19/2021 2:00:00 PM -99999.99 -179968 -99999.99 -99999.99 -99999.99 -99999.99
5/19/2021 2:15:00 PM -99999.99 -179968 -99999.99 -99999.99 -99999.99 -99999.99
5/19/2021 2:30:00 PM -99999.99 -179968 -99999.99 -99999.99 -99999.99 -99999.99
5/19/2021 2:45:00 PM -99999.99 -179968 -99999.99 -99999.99 -99999.99 -99999.99
5/19/2021 3:00:00 PM -99999.99 -179968 -99999.99 -99999.99 -99999.99 -99999.99
5/19/2021 3:15:00 PM -99999.99 -179968 -99999.99 -99999.99 -99999.99 -99999.99
5/19/2021 3:30:00 PM -99999.99 -179968 -99999.99 -99999.99 -99999.99 -99999.99
5/19/2021 3:45:00 PM -99999.99 -179968 -99999.99 -99999.99 -99999.99 -99999.99
5/19/2021 4:00:00 PM -99999.99 -179968 -99999.99 -99999.99 -99999.99 -99999.99
5/19/2021 4:15:00 PM -99999.99 -179968 -99999.99 -99999.99 -99999.99 -99999.99
5/19/2021 4:30:00 PM -99999.99 -179968 -99999.99 -99999.99 -99999.99 -99999.99
5/19/2021 4:45:00 PM -99999.99 -179968 -99999.99 -99999.99 -99999.99 -99999.99
5/19/2021 5:00:00 PM -99999.99 -179968 -99999.99 -99999.99 -99999.99 -99999.99
5/19/2021 5:15:00 PM -99999.99 -179968 -99999.99 -99999.99 -99999.99 -99999.99
5/19/2021 5:30:00 PM -99999.99 -179968 -99999.99 -99999.99 -99999.99 -99999.99
5/19/2021 5:45:00 PM -99999.99 -179968 -99999.99 -99999.99 -99999.99 -99999.99
5/19/2021 6:00:00 PM -99999.99 -179968 -99999.99 -99999.99 -99999.99 -99999.99
5/19/2021 6:15:00 PM -99999.99 -179968 -99999.99 -99999.99 -99999.99 -99999.99
5/19/2021 6:30:00 PM -99999.99 -179968 -99999.99 -99999.99 -99999.99 -99999.99
5/19/2021 6:45:00 PM -99999.99 -179968 -99999.99 -99999.99 -99999.99 -99999.99
5/19/2021 7:00:00 PM -99999.99 -179968 -99999.99 -99999.99 -99999.99 -99999.99
5/19/2021 7:15:00 PM -99999.99 -179968 -99999.99 -99999.99 -99999.99 -99999.99
5/19/2021 7:30:00 PM -99999.99 -179968 -99999.99 -99999.99 -99999.99 -99999.99
5/19/2021 7:45:00 PM -99999.99 -179968 -99999.99 -99999.99 -99999.99 -99999.99
5/19/2021 8:00:00 PM -99999.99 -179968 -99999.99 -99999.99 -99999.99 -99999.99
5/19/2021 8:15:00 PM -99999.99 -179968 -99999.99 -99999.99 -99999.99 -99999.99
5/19/2021 8:30:00 PM -99999.99 -179968 -99999.99 -99999.99 -99999.99 -99999.99
5/19/2021 8:45:00 PM -99999.99 -179968 -99999.99 -99999.99 -99999.99 -99999.99
5/19/2021 9:00:00 PM -99999.99 -179968 -99999.99 -99999.99 -99999.99 -99999.99
5/19/2021 9:15:00 PM -99999.99 -179968 -99999.99 -99999.99 -99999.99 -99999.99
5/19/2021 9:30:00 PM -99999.99 -179968 -99999.99 -99999.99 -99999.99 -99999.99
5/19/2021 9:45:00 PM -99999.99 -179968 -99999.99 -99999.99 -99999.99 -99999.99
5/19/2021 10:00:00 PM -99999.99 -179968 -99999.99 -99999.99 -99999.99 -99999.99
5/19/2021 10:15:00 PM -99999.99 -179968 -99999.99 -99999.99 -99999.99 -99999.99
5/19/2021 10:30:00 PM -99999.99 -179968 -99999.99 -99999.99 -99999.99 -99999.99
5/19/2021 10:45:00 PM -99999.99 -179968 -99999.99 -99999.99 -99999.99 -99999.99
5/19/2021 11:00:00 PM -99999.99 -179968 -99999.99 -99999.99 -99999.99 -99999.99
5/19/2021 11:15:00 PM -99999.99 -179968 -99999.99 -99999.99 -99999.99 -99999.99
5/19/2021 11:30:00 PM -99999.99 -179968 -99999.99 -99999.99 -99999.99 -99999.99
5/19/2021 11:45:00 PM -99999.99 -179968 -99999.99 -99999.99 -99999.99 -99999.99
5/20/2021 12:00:00 AM -99999.99 -179968 -99999.99 -99999.99 -99999.99 -99999.99
5/20/2021 12:15:00 AM -99999.99 -179968 -99999.99 -99999.99 -99999.99 -99999.99
5/20/2021 12:30:00 AM -99999.99 -179968 -99999.99 -99999.99 -99999.99 -99999.99
5/20/2021 12:45:00 AM -99999.99 -179968 -99999.99 -99999.99 -99999.99 -99999.99
5/20/2021 1:00:00 AM -99999.99 -179968 -99999.99 -99999.99 -99999.99 -99999.99
5/20/2021 1:15:00 AM -99999.99 -179968 -99999.99 -99999.99 -99999.99 -99999.99
5/20/2021 1:30:00 AM -99999.99 -179968 -99999.99 -99999.99 -99999.99 -99999.99
5/20/2021 1:45:00 AM -99999.99 -179968 -99999.99 -99999.99 -99999.99 -99999.99
5/20/2021 2:00:00 AM -99999.99 -179968 -99999.99 -99999.99 -99999.99 -99999.99
5/20/2021 2:15:00 AM -99999.99 -179968 -99999.99 -99999.99 -99999.99 -99999.99
5/20/2021 2:30:00 AM -99999.99 -179968 -99999.99 -99999.99 -99999.99 -99999.99
5/20/2021 2:45:00 AM -99999.99 -179968 -99999.99 -99999.99 -99999.99 -99999.99
5/20/2021 3:00:00 AM -99999.99 -179968 -99999.99 -99999.99 -99999.99 -99999.99
5/20/2021 3:15:00 AM -99999.99 -179968 -99999.99 -99999.99 -99999.99 -99999.99
5/20/2021 3:30:00 AM -99999.99 -179968 -99999.99 -99999.99 -99999.99 -99999.99
5/20/2021 3:45:00 AM -99999.99 -179968 -99999.99 -99999.99 -99999.99 -99999.99
5/20/2021 4:00:00 AM -99999.99 -179968 -99999.99 -99999.99 -99999.99 -99999.99
5/20/2021 4:15:00 AM -99999.99 -179968 -99999.99 -99999.99 -99999.99 -99999.99
5/20/2021 4:30:00 AM -99999.99 -179968 -99999.99 -99999.99 -99999.99 -99999.99
5/20/2021 4:45:00 AM -99999.99 -179968 -99999.99 -99999.99 -99999.99 -99999.99
5/20/2021 5:00:00 AM -99999.99 -179968 -99999.99 -99999.99 -99999.99 -99999.99
5/20/2021 5:15:00 AM -99999.99 -179968 -99999.99 -99999.99 -99999.99 -99999.99
5/20/2021 5:30:00 AM -99999.99 -179968 -99999.99 -99999.99 -99999.99 -99999.99
5/20/2021 5:45:00 AM -99999.99 -179968 -99999.99 -99999.99 -99999.99 -99999.99
5/20/2021 6:00:00 AM -99999.99 -179968 -99999.99 -99999.99 -99999.99 -99999.99
5/20/2021 6:15:00 AM -99999.99 -179968 -99999.99 -99999.99 -99999.99 -99999.99
5/20/2021 6:30:00 AM -99999.99 -179968 -99999.99 -99999.99 -99999.99 -99999.99
5/20/2021 6:45:00 AM -99999.99 -179968 -99999.99 -99999.99 -99999.99 -99999.99
5/20/2021 7:00:00 AM -99999.99 -179968 -99999.99 -99999.99 -99999.99 -99999.99
5/20/2021 7:15:00 AM -99999.99 -179968 -99999.99 -99999.99 -99999.99 -99999.99
5/20/2021 7:30:00 AM -99999.99 -179968 -99999.99 -99999.99 -99999.99 -99999.99
5/20/2021 7:45:00 AM -99999.99 -179968 -99999.99 -99999.99 -99999.99 -99999.99
5/20/2021 8:00:00 AM -99999.99 -179968 -99999.99 -99999.99 -99999.99 -99999.99
5/20/2021 8:15:00 AM -99999.99 -179968 -99999.99 -99999.99 -99999.99 -99999.99
5/20/2021 8:30:00 AM -99999.99 -179968 -99999.99 -99999.99 -99999.99 -99999.99
5/20/2021 8:45:00 AM -99999.99 -179968 -99999.99 -99999.99 -99999.99 -99999.99
5/20/2021 9:00:00 AM -99999.99 -179968 -99999.99 -99999.99 -99999.99 -99999.99
5/20/2021 9:15:00 AM -99999.99 -179968 -99999.99 -99999.99 -99999.99 -99999.99
5/20/2021 9:30:00 AM -99999.99 -179968 -99999.99 -99999.99 -99999.99 -99999.99
5/20/2021 9:45:00 AM -99999.99 -179968 -99999.99 -99999.99 -99999.99 -99999.99
5/20/2021 10:00:00 AM -99999.99 -179968 -99999.99 -99999.99 -99999.99 -99999.99
5/20/2021 10:15:00 AM -99999.99 -179968 -99999.99 -99999.99 -99999.99 -99999.99
5/20/2021 10:30:00 AM -99999.99 -179968 -99999.99 -99999.99 -99999.99 -99999.99
5/20/2021 10:45:00 AM -99999.99 -179968 -99999.99 -99999.99 -99999.99 -99999.99
5/20/2021 11:00:00 AM -99999.99 -179968 -99999.99 -99999.99 -99999.99 -99999.99
5/20/2021 11:15:00 AM -99999.99 -179968 -99999.99 -99999.99 -99999.99 -99999.99
5/20/2021 11:30:00 AM -99999.99 -179968 -99999.99 -99999.99 -99999.99 -99999.99
5/20/2021 11:45:00 AM -99999.99 -179968 -99999.99 -99999.99 -99999.99 -99999.99
5/20/2021 12:00:00 PM -99999.99 -179968 -99999.99 -99999.99 -99999.99 -99999.99
5/20/2021 12:15:00 PM -99999.99 -179968 -99999.99 -99999.99 -99999.99 -99999.99
5/20/2021 12:30:00 PM -99999.99 -179968 -99999.99 -99999.99 -99999.99 -99999.99
5/20/2021 12:45:00 PM -99999.99 -179968 -99999.99 -99999.99 -99999.99 -99999.99
5/20/2021 1:00:00 PM -99999.99 -179968 -99999.99 -99999.99 -99999.99 -99999.99
5/20/2021 1:15:00 PM -99999.99 -179968 -99999.99 -99999.99 -99999.99 -99999.99
5/20/2021 1:30:00 PM -99999.99 -179968 -99999.99 -99999.99 -99999.99 -99999.99
5/20/2021 1:45:00 PM -99999.99 -179968 -99999.99 -99999.99 -99999.99 -99999.99
5/20/2021 2:00:00 PM -99999.99 -179968 -99999.99 -99999.99 -99999.99 -99999.99
5/20/2021 2:15:00 PM -99999.99 -179968 -99999.99 -99999.99 -99999.99 -99999.99
5/20/2021 2:30:00 PM -99999.99 -179968 -99999.99 -99999.99 -99999.99 -99999.99
5/20/2021 2:45:00 PM -99999.99 -179968 -99999.99 -99999.99 -99999.99 -99999.99
5/20/2021 3:00:00 PM -99999.99 -179968 -99999.99 -99999.99 -99999.99 -99999.99
5/20/2021 3:15:00 PM -99999.99 -179968 -99999.99 -99999.99 -99999.99 -99999.99
5/20/2021 3:30:00 PM -99999.99 -179968 -99999.99 -99999.99 -99999.99 -99999.99
5/20/2021 3:45:00 PM -99999.99 -179968 -99999.99 -99999.99 -99999.99 -99999.99
5/20/2021 4:00:00 PM -99999.99 -179968 -99999.99 -99999.99 -99999.99 -99999.99
5/20/2021 4:15:00 PM -99999.99 -179968 -99999.99 -99999.99 -99999.99 -99999.99
5/20/2021 4:30:00 PM -99999.99 -179968 -99999.99 -99999.99 -99999.99 -99999.99
5/20/2021 4:45:00 PM -99999.99 -179968 -99999.99 -99999.99 -99999.99 -99999.99
5/20/2021 5:00:00 PM -99999.99 -179968 -99999.99 -99999.99 -99999.99 -99999.99
5/20/2021 5:15:00 PM -99999.99 -179968 -99999.99 -99999.99 -99999.99 -99999.99
5/20/2021 5:30:00 PM -99999.99 -179968 -99999.99 -99999.99 -99999.99 -99999.99
5/20/2021 5:45:00 PM -99999.99 -179968 -99999.99 -99999.99 -99999.99 -99999.99
5/20/2021 6:00:00 PM -99999.99 -179968 -99999.99 -99999.99 -99999.99 -99999.99
5/20/2021 6:15:00 PM -99999.99 -179968 -99999.99 -99999.99 -99999.99 -99999.99
5/20/2021 6:30:00 PM -99999.99 -179968 -99999.99 -99999.99 -99999.99 -99999.99
5/20/2021 6:45:00 PM -99999.99 -179968 -99999.99 -99999.99 -99999.99 -99999.99
5/20/2021 7:00:00 PM -99999.99 -179968 -99999.99 -99999.99 -99999.99 -99999.99
5/20/2021 7:15:00 PM -99999.99 -179968 -99999.99 -99999.99 -99999.99 -99999.99
5/20/2021 7:30:00 PM -99999.99 -179968 -99999.99 -99999.99 -99999.99 -99999.99
5/20/2021 7:45:00 PM -99999.99 -179968 -99999.99 -99999.99 -99999.99 -99999.99
5/20/2021 8:00:00 PM -99999.99 -179968 -99999.99 -99999.99 -99999.99 -99999.99
5/20/2021 8:15:00 PM -99999.99 -179968 -99999.99 -99999.99 -99999.99 -99999.99
5/20/2021 8:30:00 PM -99999.99 -179968 -99999.99 -99999.99 -99999.99 -99999.99
5/20/2021 8:45:00 PM -99999.99 -179968 -99999.99 -99999.99 -99999.99 -99999.99
5/20/2021 9:00:00 PM -99999.99 -179968 -99999.99 -99999.99 -99999.99 -99999.99
5/20/2021 9:15:00 PM -99999.99 -179968 -99999.99 -99999.99 -99999.99 -99999.99
5/20/2021 9:30:00 PM -99999.99 -179968 -99999.99 -99999.99 -99999.99 -99999.99
5/20/2021 9:45:00 PM -99999.99 -179968 -99999.99 -99999.99 -99999.99 -99999.99
5/20/2021 10:00:00 PM -99999.99 -179968 -99999.99 -99999.99 -99999.99 -99999.99
5/20/2021 10:15:00 PM -99999.99 -179968 -99999.99 -99999.99 -99999.99 -99999.99
5/20/2021 10:30:00 PM -99999.99 -179968 -99999.99 -99999.99 -99999.99 -99999.99
5/20/2021 10:45:00 PM -99999.99 -179968 -99999.99 -99999.99 -99999.99 -99999.99
5/20/2021 11:00:00 PM -99999.99 -179968 -99999.99 -99999.99 -99999.99 -99999.99
5/20/2021 11:15:00 PM -99999.99 -179968 -99999.99 -99999.99 -99999.99 -99999.99
5/20/2021 11:30:00 PM -99999.99 -179968 -99999.99 -99999.99 -99999.99 -99999.99
5/20/2021 11:45:00 PM -99999.99 -179968 -99999.99 -99999.99 -99999.99 -99999.99
5/21/2021 12:00:00 AM -99999.99 -179968 -99999.99 -99999.99 -99999.99 -99999.99
5/21/2021 12:15:00 AM -99999.99 -179968 -99999.99 -99999.99 -99999.99 -99999.99
5/21/2021 12:30:00 AM -99999.99 -179968 -99999.99 -99999.99 -99999.99 -99999.99
5/21/2021 12:45:00 AM -99999.99 -179968 -99999.99 -99999.99 -99999.99 -99999.99
5/21/2021 1:00:00 AM -99999.99 -179968 -99999.99 -99999.99 -99999.99 -99999.99
5/21/2021 1:15:00 AM -99999.99 -179968 -99999.99 -99999.99 -99999.99 -99999.99
5/21/2021 1:30:00 AM -99999.99 -179968 -99999.99 -99999.99 -99999.99 -99999.99
5/21/2021 1:45:00 AM -99999.99 -179968 -99999.99 -99999.99 -99999.99 -99999.99
5/21/2021 2:00:00 AM -99999.99 -179968 -99999.99 -99999.99 -99999.99 -99999.99
5/21/2021 2:15:00 AM -99999.99 -179968 -99999.99 -99999.99 -99999.99 -99999.99
5/21/2021 2:30:00 AM -99999.99 -179968 -99999.99 -99999.99 -99999.99 -99999.99
5/21/2021 2:45:00 AM -99999.99 -179968 -99999.99 -99999.99 -99999.99 -99999.99
5/21/2021 3:00:00 AM -99999.99 -179968 -99999.99 -99999.99 -99999.99 -99999.99
5/21/2021 3:15:00 AM -99999.99 -179968 -99999.99 -99999.99 -99999.99 -99999.99
5/21/2021 3:30:00 AM -99999.99 -179968 -99999.99 -99999.99 -99999.99 -99999.99
5/21/2021 3:45:00 AM -99999.99 -179968 -99999.99 -99999.99 -99999.99 -99999.99
5/21/2021 4:00:00 AM -99999.99 -179968 -99999.99 -99999.99 -99999.99 -99999.99
5/21/2021 4:15:00 AM -99999.99 -179968 -99999.99 -99999.99 -99999.99 -99999.99
5/21/2021 4:30:00 AM -99999.99 -179968 -99999.99 -99999.99 -99999.99 -99999.99
5/21/2021 4:45:00 AM -99999.99 -179968 -99999.99 -99999.99 -99999.99 -99999.99
5/21/2021 5:00:00 AM -99999.99 -179968 -99999.99 -99999.99 -99999.99 -99999.99
5/21/2021 5:15:00 AM -99999.99 -179968 -99999.99 -99999.99 -99999.99 -99999.99
5/21/2021 5:30:00 AM -99999.99 -179968 -99999.99 -99999.99 -99999.99 -99999.99
5/21/2021 5:45:00 AM -99999.99 -179968 -99999.99 -99999.99 -99999.99 -99999.99
5/21/2021 6:00:00 AM -99999.99 -179968 -99999.99 -99999.99 -99999.99 -99999.99
5/21/2021 6:15:00 AM -99999.99 -179968 -99999.99 -99999.99 -99999.99 -99999.99
5/21/2021 6:30:00 AM -99999.99 -179968 -99999.99 -99999.99 -99999.99 -99999.99
5/21/2021 6:45:00 AM -99999.99 -179968 -99999.99 -99999.99 -99999.99 -99999.99
5/21/2021 7:00:00 AM -99999.99 -179968 -99999.99 -99999.99 -99999.99 -99999.99
5/21/2021 7:15:00 AM -99999.99 -179968 -99999.99 -99999.99 -99999.99 -99999.99
5/21/2021 7:30:00 AM -99999.99 -179968 -99999.99 -99999.99 -99999.99 -99999.99
5/21/2021 7:45:00 AM -99999.99 -179968 -99999.99 -99999.99 -99999.99 -99999.99
5/21/2021 8:00:00 AM -99999.99 -179968 -99999.99 -99999.99 -99999.99 -99999.99
5/21/2021 8:15:00 AM -99999.99 -179968 -99999.99 -99999.99 -99999.99 -99999.99
5/21/2021 8:30:00 AM -99999.99 -179968 -99999.99 -99999.99 -99999.99 -99999.99
5/21/2021 8:45:00 AM -99999.99 -179968 -99999.99 -99999.99 -99999.99 -99999.99
5/21/2021 9:00:00 AM -99999.99 -179968 -99999.99 -99999.99 -99999.99 -99999.99
5/21/2021 9:15:00 AM -99999.99 -179968 -99999.99 -99999.99 -99999.99 -99999.99
5/21/2021 9:30:00 AM -99999.99 -179968 -99999.99 -99999.99 -99999.99 -99999.99
5/21/2021 9:45:00 AM -99999.99 -179968 -99999.99 -99999.99 -99999.99 -99999.99
5/21/2021 10:00:00 AM -99999.99 -179968 -99999.99 -99999.99 -99999.99 -99999.99
5/21/2021 10:15:00 AM -99999.99 -179968 -99999.99 -99999.99 -99999.99 -99999.99
5/21/2021 10:30:00 AM -99999.99 -179968 -99999.99 -99999.99 -99999.99 -99999.99
5/21/2021 10:45:00 AM -99999.99 -179968 -99999.99 -99999.99 -99999.99 -99999.99
5/21/2021 11:00:00 AM -99999.99 -179968 -99999.99 -99999.99 -99999.99 -99999.99
5/21/2021 11:15:00 AM -99999.99 -179968 -99999.99 -99999.99 -99999.99 -99999.99
5/21/2021 11:30:00 AM -99999.99 -179968 -99999.99 -99999.99 -99999.99 -99999.99
5/21/2021 11:45:00 AM -99999.99 -179968 -99999.99 -99999.99 -99999.99 -99999.99
5/21/2021 12:00:00 PM -99999.99 -179968 -99999.99 -99999.99 -99999.99 -99999.99
5/21/2021 12:15:00 PM -99999.99 -179968 -99999.99 -99999.99 -99999.99 -99999.99
5/21/2021 12:30:00 PM -99999.99 -179968 -99999.99 -99999.99 -99999.99 -99999.99
5/21/2021 12:45:00 PM -99999.99 -179968 -99999.99 -99999.99 -99999.99 -99999.99
5/21/2021 1:00:00 PM -99999.99 -179968 -99999.99 -99999.99 -99999.99 -99999.99
5/21/2021 1:15:00 PM -99999.99 -179968 -99999.99 -99999.99 -99999.99 -99999.99
5/21/2021 1:30:00 PM -99999.99 -179968 -99999.99 -99999.99 -99999.99 -99999.99
5/21/2021 1:45:00 PM -99999.99 -179968 -99999.99 -99999.99 -99999.99 -99999.99
5/21/2021 2:00:00 PM -99999.99 -179968 -99999.99 -99999.99 -99999.99 -99999.99
5/21/2021 2:15:00 PM -99999.99 -179968 -99999.99 -99999.99 -99999.99 -99999.99
5/21/2021 2:30:00 PM -99999.99 -179968 -99999.99 -99999.99 -99999.99 -99999.99
5/21/2021 2:45:00 PM -99999.99 -179968 -99999.99 -99999.99 -99999.99 -99999.99
5/21/2021 3:00:00 PM -99999.99 -179968 -99999.99 -99999.99 -99999.99 -99999.99
5/21/2021 3:15:00 PM -99999.99 -179968 -99999.99 -99999.99 -99999.99 -99999.99
5/21/2021 3:30:00 PM -99999.99 -179968 -99999.99 -99999.99 -99999.99 -99999.99
5/21/2021 3:45:00 PM -99999.99 -179968 -99999.99 -99999.99 -99999.99 -99999.99
5/21/2021 4:00:00 PM -99999.99 -179968 -99999.99 -99999.99 -99999.99 -99999.99
5/21/2021 4:15:00 PM -99999.99 -179968 -99999.99 -99999.99 -99999.99 -99999.99
5/21/2021 4:30:00 PM -99999.99 -179968 -99999.99 -99999.99 -99999.99 -99999.99
5/21/2021 4:45:00 PM -99999.99 -179968 -99999.99 -99999.99 -99999.99 -99999.99
5/21/2021 5:00:00 PM -99999.99 -179968 -99999.99 -99999.99 -99999.99 -99999.99
5/21/2021 5:15:00 PM -99999.99 -179968 -99999.99 -99999.99 -99999.99 -99999.99
5/21/2021 5:30:00 PM -99999.99 -179968 -99999.99 -99999.99 -99999.99 -99999.99
5/21/2021 5:45:00 PM -99999.99 -179968 -99999.99 -99999.99 -99999.99 -99999.99
5/21/2021 6:00:00 PM -99999.99 -179968 -99999.99 -99999.99 -99999.99 -99999.99
5/21/2021 6:15:00 PM -99999.99 -179968 -99999.99 -99999.99 -99999.99 -99999.99
5/21/2021 6:30:00 PM -99999.99 -179968 -99999.99 -99999.99 -99999.99 -99999.99
5/21/2021 6:45:00 PM -99999.99 -179968 -99999.99 -99999.99 -99999.99 -99999.99
5/21/2021 7:00:00 PM -99999.99 -179968 -99999.99 -99999.99 -99999.99 -99999.99
5/21/2021 7:15:00 PM -99999.99 -179968 -99999.99 -99999.99 -99999.99 -99999.99
5/21/2021 7:30:00 PM -99999.99 -179968 -99999.99 -99999.99 -99999.99 -99999.99
5/21/2021 7:45:00 PM -99999.99 -179968 -99999.99 -99999.99 -99999.99 -99999.99
5/21/2021 8:00:00 PM -99999.99 -179968 -99999.99 -99999.99 -99999.99 -99999.99
5/21/2021 8:15:00 PM -99999.99 -179968 -99999.99 -99999.99 -99999.99 -99999.99
5/21/2021 8:30:00 PM -99999.99 -179968 -99999.99 -99999.99 -99999.99 -99999.99
5/21/2021 8:45:00 PM -99999.99 -179968 -99999.99 -99999.99 -99999.99 -99999.99
5/21/2021 9:00:00 PM -99999.99 -179968 -99999.99 -99999.99 -99999.99 -99999.99
5/21/2021 9:15:00 PM -99999.99 -179968 -99999.99 -99999.99 -99999.99 -99999.99
5/21/2021 9:30:00 PM -99999.99 -179968 -99999.99 -99999.99 -99999.99 -99999.99
5/21/2021 9:45:00 PM -99999.99 -179968 -99999.99 -99999.99 -99999.99 -99999.99
5/21/2021 10:00:00 PM -99999.99 -179968 -99999.99 -99999.99 -99999.99 -99999.99
5/21/2021 10:15:00 PM -99999.99 -179968 -99999.99 -99999.99 -99999.99 -99999.99
5/21/2021 10:30:00 PM -99999.99 -179968 -99999.99 -99999.99 -99999.99 -99999.99
5/21/2021 10:45:00 PM -99999.99 -179968 -99999.99 -99999.99 -99999.99 -99999.99
5/21/2021 11:00:00 PM -99999.99 -179968 -99999.99 -99999.99 -99999.99 -99999.99
5/21/2021 11:15:00 PM -99999.99 -179968 -99999.99 -99999.99 -99999.99 -99999.99
5/21/2021 11:30:00 PM -99999.99 -179968 -99999.99 -99999.99 -99999.99 -99999.99
5/21/2021 11:45:00 PM -99999.99 -179968 -99999.99 -99999.99 -99999.99 -99999.99
5/22/2021 12:00:00 AM -99999.99 -179968 -99999.99 -99999.99 -99999.99 -99999.99
5/22/2021 12:15:00 AM -99999.99 -179968 -99999.99 -99999.99 -99999.99 -99999.99
5/22/2021 12:30:00 AM -99999.99 -179968 -99999.99 -99999.99 -99999.99 -99999.99
5/22/2021 12:45:00 AM -99999.99 -179968 -99999.99 -99999.99 -99999.99 -99999.99
5/22/2021 1:00:00 AM -99999.99 -179968 -99999.99 -99999.99 -99999.99 -99999.99
5/22/2021 1:15:00 AM -99999.99 -179968 -99999.99 -99999.99 -99999.99 -99999.99
5/22/2021 1:30:00 AM -99999.99 -179968 -99999.99 -99999.99 -99999.99 -99999.99
5/22/2021 1:45:00 AM -99999.99 -179968 -99999.99 -99999.99 -99999.99 -99999.99
5/22/2021 2:00:00 AM -99999.99 -179968 -99999.99 -99999.99 -99999.99 -99999.99
5/22/2021 2:15:00 AM -99999.99 -179968 -99999.99 -99999.99 -99999.99 -99999.99
5/22/2021 2:30:00 AM -99999.99 -179968 -99999.99 -99999.99 -99999.99 -99999.99
5/22/2021 2:45:00 AM -99999.99 -179968 -99999.99 -99999.99 -99999.99 -99999.99
5/22/2021 3:00:00 AM -99999.99 -179968 -99999.99 -99999.99 -99999.99 -99999.99
5/22/2021 3:15:00 AM -99999.99 -179968 -99999.99 -99999.99 -99999.99 -99999.99
5/22/2021 3:30:00 AM -99999.99 -179968 -99999.99 -99999.99 -99999.99 -99999.99
5/22/2021 3:45:00 AM -99999.99 -179968 -99999.99 -99999.99 -99999.99 -99999.99
5/22/2021 4:00:00 AM -99999.99 -179968 -99999.99 -99999.99 -99999.99 -99999.99
5/22/2021 4:15:00 AM -99999.99 -179968 -99999.99 -99999.99 -99999.99 -99999.99
5/22/2021 4:30:00 AM -99999.99 -179968 -99999.99 -99999.99 -99999.99 -99999.99
5/22/2021 4:45:00 AM -99999.99 -179968 -99999.99 -99999.99 -99999.99 -99999.99
5/22/2021 5:00:00 AM -99999.99 -179968 -99999.99 -99999.99 -99999.99 -99999.99
5/22/2021 5:15:00 AM -99999.99 -179968 -99999.99 -99999.99 -99999.99 -99999.99
5/22/2021 5:30:00 AM -99999.99 -179968 -99999.99 -99999.99 -99999.99 -99999.99
5/22/2021 5:45:00 AM -99999.99 -179968 -99999.99 -99999.99 -99999.99 -99999.99
5/22/2021 6:00:00 AM -99999.99 -179968 -99999.99 -99999.99 -99999.99 -99999.99
5/22/2021 6:15:00 AM -99999.99 -179968 -99999.99 -99999.99 -99999.99 -99999.99
5/22/2021 6:30:00 AM -99999.99 -179968 -99999.99 -99999.99 -99999.99 -99999.99
5/22/2021 6:45:00 AM -99999.99 -179968 -99999.99 -99999.99 -99999.99 -99999.99
5/22/2021 7:00:00 AM -99999.99 -179968 -99999.99 -99999.99 -99999.99 -99999.99
5/22/2021 7:15:00 AM -99999.99 -179968 -99999.99 -99999.99 -99999.99 -99999.99
5/22/2021 7:30:00 AM -99999.99 -179968 -99999.99 -99999.99 -99999.99 -99999.99
5/22/2021 7:45:00 AM -99999.99 -179968 -99999.99 -99999.99 -99999.99 -99999.99
5/22/2021 8:00:00 AM -99999.99 -179968 -99999.99 -99999.99 -99999.99 -99999.99
5/22/2021 8:15:00 AM -99999.99 -179968 -99999.99 -99999.99 -99999.99 -99999.99
5/22/2021 8:30:00 AM -99999.99 -179968 -99999.99 -99999.99 -99999.99 -99999.99
5/22/2021 8:45:00 AM -99999.99 -179968 -99999.99 -99999.99 -99999.99 -99999.99
5/22/2021 9:00:00 AM -99999.99 -179968 -99999.99 -99999.99 -99999.99 -99999.99
5/22/2021 9:15:00 AM -99999.99 -179968 -99999.99 -99999.99 -99999.99 -99999.99
5/22/2021 9:30:00 AM -99999.99 -179968 -99999.99 -99999.99 -99999.99 -99999.99
5/22/2021 9:45:00 AM -99999.99 -179968 -99999.99 -99999.99 -99999.99 -99999.99
5/22/2021 10:00:00 AM -99999.99 -179968 -99999.99 -99999.99 -99999.99 -99999.99
5/22/2021 10:15:00 AM -99999.99 -179968 -99999.99 -99999.99 -99999.99 -99999.99
5/22/2021 10:30:00 AM -99999.99 -179968 -99999.99 -99999.99 -99999.99 -99999.99
5/22/2021 10:45:00 AM -99999.99 -179968 -99999.99 -99999.99 -99999.99 -99999.99
5/22/2021 11:00:00 AM -99999.99 -179968 -99999.99 -99999.99 -99999.99 -99999.99
5/22/2021 11:15:00 AM -99999.99 -179968 -99999.99 -99999.99 -99999.99 -99999.99
5/22/2021 11:30:00 AM -99999.99 -179968 -99999.99 -99999.99 -99999.99 -99999.99
5/22/2021 11:45:00 AM -99999.99 -179968 -99999.99 -99999.99 -99999.99 -99999.99
5/22/2021 12:00:00 PM -99999.99 -179968 -99999.99 -99999.99 -99999.99 -99999.99
5/22/2021 12:15:00 PM -99999.99 -179968 -99999.99 -99999.99 -99999.99 -99999.99
5/22/2021 12:30:00 PM -99999.99 -179968 -99999.99 -99999.99 -99999.99 -99999.99
5/22/2021 12:45:00 PM -99999.99 -179968 -99999.99 -99999.99 -99999.99 -99999.99
5/22/2021 1:00:00 PM -99999.99 -179968 -99999.99 -99999.99 -99999.99 -99999.99
5/22/2021 1:15:00 PM -99999.99 -179968 -99999.99 -99999.99 -99999.99 -99999.99
5/22/2021 1:30:00 PM -99999.99 -179968 -99999.99 -99999.99 -99999.99 -99999.99
5/22/2021 1:45:00 PM -99999.99 -179968 -99999.99 -99999.99 -99999.99 -99999.99
5/22/2021 2:00:00 PM -99999.99 -179968 -99999.99 -99999.99 -99999.99 -99999.99
5/22/2021 2:15:00 PM -99999.99 -179968 -99999.99 -99999.99 -99999.99 -99999.99
5/22/2021 2:30:00 PM -99999.99 -179968 -99999.99 -99999.99 -99999.99 -99999.99
5/22/2021 2:45:00 PM -99999.99 -179968 -99999.99 -99999.99 -99999.99 -99999.99
5/22/2021 3:00:00 PM -99999.99 -179968 -99999.99 -99999.99 -99999.99 -99999.99
5/22/2021 3:15:00 PM -99999.99 -179968 -99999.99 -99999.99 -99999.99 -99999.99
5/22/2021 3:30:00 PM -99999.99 -179968 -99999.99 -99999.99 -99999.99 -99999.99
5/22/2021 3:45:00 PM -99999.99 -179968 -99999.99 -99999.99 -99999.99 -99999.99
5/22/2021 4:00:00 PM -99999.99 -179968 -99999.99 -99999.99 -99999.99 -99999.99
5/22/2021 4:15:00 PM -99999.99 -179968 -99999.99 -99999.99 -99999.99 -99999.99
5/22/2021 4:30:00 PM -99999.99 -179968 -99999.99 -99999.99 -99999.99 -99999.99
5/22/2021 4:45:00 PM -99999.99 -179968 -99999.99 -99999.99 -99999.99 -99999.99
5/22/2021 5:00:00 PM -99999.99 -179968 -99999.99 -99999.99 -99999.99 -99999.99
5/22/2021 5:15:00 PM -99999.99 -179968 -99999.99 -99999.99 -99999.99 -99999.99
5/22/2021 5:30:00 PM -99999.99 -179968 -99999.99 -99999.99 -99999.99 -99999.99
5/22/2021 5:45:00 PM -99999.99 -179968 -99999.99 -99999.99 -99999.99 -99999.99
5/22/2021 6:00:00 PM -99999.99 -179968 -99999.99 -99999.99 -99999.99 -99999.99
5/22/2021 6:15:00 PM -99999.99 -179968 -99999.99 -99999.99 -99999.99 -99999.99
5/22/2021 6:30:00 PM -99999.99 -179968 -99999.99 -99999.99 -99999.99 -99999.99
5/22/2021 6:45:00 PM -99999.99 -179968 -99999.99 -99999.99 -99999.99 -99999.99
5/22/2021 7:00:00 PM -99999.99 -179968 -99999.99 -99999.99 -99999.99 -99999.99
5/22/2021 7:15:00 PM -99999.99 -179968 -99999.99 -99999.99 -99999.99 -99999.99
5/22/2021 7:30:00 PM -99999.99 -179968 -99999.99 -99999.99 -99999.99 -99999.99
5/22/2021 7:45:00 PM -99999.99 -179968 -99999.99 -99999.99 -99999.99 -99999.99
5/22/2021 8:00:00 PM -99999.99 -179968 -99999.99 -99999.99 -99999.99 -99999.99
5/22/2021 8:15:00 PM -99999.99 -179968 -99999.99 -99999.99 -99999.99 -99999.99
5/22/2021 8:30:00 PM -99999.99 -179968 -99999.99 -99999.99 -99999.99 -99999.99
5/22/2021 8:45:00 PM -99999.99 -179968 -99999.99 -99999.99 -99999.99 -99999.99
5/22/2021 9:00:00 PM -99999.99 -179968 -99999.99 -99999.99 -99999.99 -99999.99
5/22/2021 9:15:00 PM -99999.99 -179968 -99999.99 -99999.99 -99999.99 -99999.99
5/22/2021 9:30:00 PM -99999.99 -179968 -99999.99 -99999.99 -99999.99 -99999.99
5/22/2021 9:45:00 PM -99999.99 -179968 -99999.99 -99999.99 -99999.99 -99999.99
5/22/2021 10:00:00 PM -99999.99 -179968 -99999.99 -99999.99 -99999.99 -99999.99
5/22/2021 10:15:00 PM -99999.99 -179968 -99999.99 -99999.99 -99999.99 -99999.99
5/22/2021 10:30:00 PM -99999.99 -179968 -99999.99 -99999.99 -99999.99 -99999.99
5/22/2021 10:45:00 PM -99999.99 -179968 -99999.99 -99999.99 -99999.99 -99999.99
5/22/2021 11:00:00 PM -99999.99 -179968 -99999.99 -99999.99 -99999.99 -99999.99
5/22/2021 11:15:00 PM -99999.99 -179968 -99999.99 -99999.99 -99999.99 -99999.99
5/22/2021 11:30:00 PM -99999.99 -179968 -99999.99 -99999.99 -99999.99 -99999.99
5/22/2021 11:45:00 PM -99999.99 -179968 -99999.99 -99999.99 -99999.99 -99999.99
5/23/2021 12:00:00 AM -99999.99 -179968 -99999.99 -99999.99 -99999.99 -99999.99
5/23/2021 12:15:00 AM -99999.99 -179968 -99999.99 -99999.99 -99999.99 -99999.99
5/23/2021 12:30:00 AM -99999.99 -179968 -99999.99 -99999.99 -99999.99 -99999.99
5/23/2021 12:45:00 AM -99999.99 -179968 -99999.99 -99999.99 -99999.99 -99999.99
5/23/2021 1:00:00 AM -99999.99 -179968 -99999.99 -99999.99 -99999.99 -99999.99
5/23/2021 1:15:00 AM -99999.99 -179968 -99999.99 -99999.99 -99999.99 -99999.99
5/23/2021 1:30:00 AM -99999.99 -179968 -99999.99 -99999.99 -99999.99 -99999.99
5/23/2021 1:45:00 AM -99999.99 -179968 -99999.99 -99999.99 -99999.99 -99999.99
5/23/2021 2:00:00 AM -99999.99 -179968 -99999.99 -99999.99 -99999.99 -99999.99
5/23/2021 2:15:00 AM -99999.99 -179968 -99999.99 -99999.99 -99999.99 -99999.99
5/23/2021 2:30:00 AM -99999.99 -179968 -99999.99 -99999.99 -99999.99 -99999.99
5/23/2021 2:45:00 AM -99999.99 -179968 -99999.99 -99999.99 -99999.99 -99999.99
5/23/2021 3:00:00 AM -99999.99 -179968 -99999.99 -99999.99 -99999.99 -99999.99
5/23/2021 3:15:00 AM -99999.99 -179968 -99999.99 -99999.99 -99999.99 -99999.99
5/23/2021 3:30:00 AM -99999.99 -179968 -99999.99 -99999.99 -99999.99 -99999.99
5/23/2021 3:45:00 AM -99999.99 -179968 -99999.99 -99999.99 -99999.99 -99999.99
5/23/2021 4:00:00 AM -99999.99 -179968 -99999.99 -99999.99 -99999.99 -99999.99
5/23/2021 4:15:00 AM -99999.99 -179968 -99999.99 -99999.99 -99999.99 -99999.99
5/23/2021 4:30:00 AM -99999.99 -179968 -99999.99 -99999.99 -99999.99 -99999.99
5/23/2021 4:45:00 AM -99999.99 -179968 -99999.99 -99999.99 -99999.99 -99999.99
5/23/2021 5:00:00 AM -99999.99 -179968 -99999.99 -99999.99 -99999.99 -99999.99
5/23/2021 5:15:00 AM -99999.99 -179968 -99999.99 -99999.99 -99999.99 -99999.99
5/23/2021 5:30:00 AM -99999.99 -179968 -99999.99 -99999.99 -99999.99 -99999.99
5/23/2021 5:45:00 AM -99999.99 -179968 -99999.99 -99999.99 -99999.99 -99999.99
5/23/2021 6:00:00 AM -99999.99 -179968 -99999.99 -99999.99 -99999.99 -99999.99
5/23/2021 6:15:00 AM -99999.99 -179968 -99999.99 -99999.99 -99999.99 -99999.99
5/23/2021 6:30:00 AM -99999.99 -179968 -99999.99 -99999.99 -99999.99 -99999.99
5/23/2021 6:45:00 AM -99999.99 -179968 -99999.99 -99999.99 -99999.99 -99999.99
5/23/2021 7:00:00 AM -99999.99 -179968 -99999.99 -99999.99 -99999.99 -99999.99
5/23/2021 7:15:00 AM -99999.99 -179968 -99999.99 -99999.99 -99999.99 -99999.99
5/23/2021 7:30:00 AM -99999.99 -179968 -99999.99 -99999.99 -99999.99 -99999.99
5/23/2021 7:45:00 AM -99999.99 -179968 -99999.99 -99999.99 -99999.99 -99999.99
5/23/2021 8:00:00 AM -99999.99 -179968 -99999.99 -99999.99 -99999.99 -99999.99
5/23/2021 8:15:00 AM -99999.99 -179968 -99999.99 -99999.99 -99999.99 -99999.99
5/23/2021 8:30:00 AM -99999.99 -179968 -99999.99 -99999.99 -99999.99 -99999.99
5/23/2021 8:45:00 AM -99999.99 -179968 -99999.99 -99999.99 -99999.99 -99999.99
5/23/2021 9:00:00 AM -99999.99 -179968 -99999.99 -99999.99 -99999.99 -99999.99
5/23/2021 9:15:00 AM -99999.99 -179968 -99999.99 -99999.99 -99999.99 -99999.99
5/23/2021 9:30:00 AM -99999.99 -179968 -99999.99 -99999.99 -99999.99 -99999.99
5/23/2021 9:45:00 AM -99999.99 -179968 -99999.99 -99999.99 -99999.99 -99999.99
5/23/2021 10:00:00 AM -99999.99 -179968 -99999.99 -99999.99 -99999.99 -99999.99
5/23/2021 10:15:00 AM -99999.99 -179968 -99999.99 -99999.99 -99999.99 -99999.99
5/23/2021 10:30:00 AM -99999.99 -179968 -99999.99 -99999.99 -99999.99 -99999.99
5/23/2021 10:45:00 AM -99999.99 -179968 -99999.99 -99999.99 -99999.99 -99999.99
5/23/2021 11:00:00 AM -99999.99 -179968 -99999.99 -99999.99 -99999.99 -99999.99
5/23/2021 11:15:00 AM -99999.99 -179968 -99999.99 -99999.99 -99999.99 -99999.99
5/23/2021 11:30:00 AM -99999.99 -179968 -99999.99 -99999.99 -99999.99 -99999.99
5/23/2021 11:45:00 AM -99999.99 -179968 -99999.99 -99999.99 -99999.99 -99999.99
5/23/2021 12:00:00 PM -99999.99 -179968 -99999.99 -99999.99 -99999.99 -99999.99
5/23/2021 12:15:00 PM -99999.99 -179968 -99999.99 -99999.99 -99999.99 -99999.99
5/23/2021 12:30:00 PM -99999.99 -179968 -99999.99 -99999.99 -99999.99 -99999.99
5/23/2021 12:45:00 PM -99999.99 -179968 -99999.99 -99999.99 -99999.99 -99999.99
5/23/2021 1:00:00 PM -99999.99 -179968 -99999.99 -99999.99 -99999.99 -99999.99
5/23/2021 1:15:00 PM -99999.99 -179968 -99999.99 -99999.99 -99999.99 -99999.99
5/23/2021 1:30:00 PM -99999.99 -179968 -99999.99 -99999.99 -99999.99 -99999.99
5/23/2021 1:45:00 PM -99999.99 -179968 -99999.99 -99999.99 -99999.99 -99999.99
5/23/2021 2:00:00 PM -99999.99 -179968 -99999.99 -99999.99 -99999.99 -99999.99
5/23/2021 2:15:00 PM -99999.99 -179968 -99999.99 -99999.99 -99999.99 -99999.99
5/23/2021 2:30:00 PM -99999.99 -179968 -99999.99 -99999.99 -99999.99 -99999.99
5/23/2021 2:45:00 PM -99999.99 -179968 -99999.99 -99999.99 -99999.99 -99999.99
5/23/2021 3:00:00 PM -99999.99 -179968 -99999.99 -99999.99 -99999.99 -99999.99
5/23/2021 3:15:00 PM -99999.99 -179968 -99999.99 -99999.99 -99999.99 -99999.99
5/23/2021 3:30:00 PM -99999.99 -179968 -99999.99 -99999.99 -99999.99 -99999.99
5/23/2021 3:45:00 PM -99999.99 -179968 -99999.99 -99999.99 -99999.99 -99999.99
5/23/2021 4:00:00 PM -99999.99 -179968 -99999.99 -99999.99 -99999.99 -99999.99
5/23/2021 4:15:00 PM -99999.99 -179968 -99999.99 -99999.99 -99999.99 -99999.99
5/23/2021 4:30:00 PM -99999.99 -179968 -99999.99 -99999.99 -99999.99 -99999.99
5/23/2021 4:45:00 PM -99999.99 -179968 -99999.99 -99999.99 -99999.99 -99999.99
5/23/2021 5:00:00 PM -99999.99 -179968 -99999.99 -99999.99 -99999.99 -99999.99
5/23/2021 5:15:00 PM -99999.99 -179968 -99999.99 -99999.99 -99999.99 -99999.99
5/23/2021 5:30:00 PM -99999.99 -179968 -99999.99 -99999.99 -99999.99 -99999.99
5/23/2021 5:45:00 PM -99999.99 -179968 -99999.99 -99999.99 -99999.99 -99999.99
5/23/2021 6:00:00 PM -99999.99 -179968 -99999.99 -99999.99 -99999.99 -99999.99
5/23/2021 6:15:00 PM -99999.99 -179968 -99999.99 -99999.99 -99999.99 -99999.99
5/23/2021 6:30:00 PM -99999.99 -179968 -99999.99 -99999.99 -99999.99 -99999.99
5/23/2021 6:45:00 PM -99999.99 -179968 -99999.99 -99999.99 -99999.99 -99999.99
5/23/2021 7:00:00 PM -99999.99 -179968 -99999.99 -99999.99 -99999.99 -99999.99
5/23/2021 7:15:00 PM -99999.99 -179968 -99999.99 -99999.99 -99999.99 -99999.99
5/23/2021 7:30:00 PM -99999.99 -179968 -99999.99 -99999.99 -99999.99 -99999.99
5/23/2021 7:45:00 PM -99999.99 -179968 -99999.99 -99999.99 -99999.99 -99999.99
5/23/2021 8:00:00 PM -99999.99 -179968 -99999.99 -99999.99 -99999.99 -99999.99
5/23/2021 8:15:00 PM -99999.99 -179968 -99999.99 -99999.99 -99999.99 -99999.99
5/23/2021 8:30:00 PM -99999.99 -179968 -99999.99 -99999.99 -99999.99 -99999.99
5/23/2021 8:45:00 PM -99999.99 -179968 -99999.99 -99999.99 -99999.99 -99999.99
5/23/2021 9:00:00 PM -99999.99 -179968 -99999.99 -99999.99 -99999.99 -99999.99
5/23/2021 9:15:00 PM -99999.99 -179968 -99999.99 -99999.99 -99999.99 -99999.99
5/23/2021 9:30:00 PM -99999.99 -179968 -99999.99 -99999.99 -99999.99 -99999.99
5/23/2021 9:45:00 PM -99999.99 -179968 -99999.99 -99999.99 -99999.99 -99999.99
5/23/2021 10:00:00 PM -99999.99 -179968 -99999.99 -99999.99 -99999.99 -99999.99
5/23/2021 10:15:00 PM -99999.99 -179968 -99999.99 -99999.99 -99999.99 -99999.99
5/23/2021 10:30:00 PM -99999.99 -179968 -99999.99 -99999.99 -99999.99 -99999.99
5/23/2021 10:45:00 PM -99999.99 -179968 -99999.99 -99999.99 -99999.99 -99999.99
5/23/2021 11:00:00 PM -99999.99 -179968 -99999.99 -99999.99 -99999.99 -99999.99
5/23/2021 11:15:00 PM -99999.99 -179968 -99999.99 -99999.99 -99999.99 -99999.99
5/23/2021 11:30:00 PM -99999.99 -179968 -99999.99 -99999.99 -99999.99 -99999.99
5/23/2021 11:45:00 PM -99999.99 -179968 -99999.99 -99999.99 -99999.99 -99999.99
5/24/2021 12:00:00 AM -99999.99 -179968 -99999.99 -99999.99 -99999.99 -99999.99
5/24/2021 12:15:00 AM -99999.99 -179968 -99999.99 -99999.99 -99999.99 -99999.99
5/24/2021 12:30:00 AM -99999.99 -179968 -99999.99 -99999.99 -99999.99 -99999.99
5/24/2021 12:45:00 AM -99999.99 -179968 -99999.99 -99999.99 -99999.99 -99999.99
5/24/2021 1:00:00 AM -99999.99 -179968 -99999.99 -99999.99 -99999.99 -99999.99
5/24/2021 1:15:00 AM -99999.99 -179968 -99999.99 -99999.99 -99999.99 -99999.99
5/24/2021 1:30:00 AM -99999.99 -179968 -99999.99 -99999.99 -99999.99 -99999.99
5/24/2021 1:45:00 AM -99999.99 -179968 -99999.99 -99999.99 -99999.99 -99999.99
5/24/2021 2:00:00 AM -99999.99 -179968 -99999.99 -99999.99 -99999.99 -99999.99
5/24/2021 2:15:00 AM -99999.99 -179968 -99999.99 -99999.99 -99999.99 -99999.99
5/24/2021 2:30:00 AM -99999.99 -179968 -99999.99 -99999.99 -99999.99 -99999.99
5/24/2021 2:45:00 AM -99999.99 -179968 -99999.99 -99999.99 -99999.99 -99999.99
5/24/2021 3:00:00 AM -99999.99 -179968 -99999.99 -99999.99 -99999.99 -99999.99
5/24/2021 3:15:00 AM -99999.99 -179968 -99999.99 -99999.99 -99999.99 -99999.99
5/24/2021 3:30:00 AM -99999.99 -179968 -99999.99 -99999.99 -99999.99 -99999.99
5/24/2021 3:45:00 AM -99999.99 -179968 -99999.99 -99999.99 -99999.99 -99999.99
5/24/2021 4:00:00 AM -99999.99 -179968 -99999.99 -99999.99 -99999.99 -99999.99
5/24/2021 4:15:00 AM -99999.99 -179968 -99999.99 -99999.99 -99999.99 -99999.99
5/24/2021 4:30:00 AM -99999.99 -179968 -99999.99 -99999.99 -99999.99 -99999.99
5/24/2021 4:45:00 AM -99999.99 -179968 -99999.99 -99999.99 -99999.99 -99999.99
5/24/2021 5:00:00 AM -99999.99 -179968 -99999.99 -99999.99 -99999.99 -99999.99
5/24/2021 5:15:00 AM -99999.99 -179968 -99999.99 -99999.99 -99999.99 -99999.99
5/24/2021 5:30:00 AM -99999.99 -179968 -99999.99 -99999.99 -99999.99 -99999.99
5/24/2021 5:45:00 AM -99999.99 -179968 -99999.99 -99999.99 -99999.99 -99999.99
5/24/2021 6:00:00 AM -99999.99 -179968 -99999.99 -99999.99 -99999.99 -99999.99
5/24/2021 6:15:00 AM -99999.99 -179968 -99999.99 -99999.99 -99999.99 -99999.99
5/24/2021 6:30:00 AM -99999.99 -179968 -99999.99 -99999.99 -99999.99 -99999.99
5/24/2021 6:45:00 AM -99999.99 -179968 -99999.99 -99999.99 -99999.99 -99999.99
5/24/2021 7:00:00 AM -99999.99 -179968 -99999.99 -99999.99 -99999.99 -99999.99
5/24/2021 7:15:00 AM -99999.99 -179968 -99999.99 -99999.99 -99999.99 -99999.99
5/24/2021 7:30:00 AM -99999.99 -179968 -99999.99 -99999.99 -99999.99 -99999.99
5/24/2021 7:45:00 AM -99999.99 -179968 -99999.99 -99999.99 -99999.99 -99999.99
5/24/2021 8:00:00 AM -99999.99 -179968 -99999.99 -99999.99 -99999.99 -99999.99
5/24/2021 8:15:00 AM -99999.99 -179968 -99999.99 -99999.99 -99999.99 -99999.99
5/24/2021 8:30:00 AM -99999.99 -179968 -99999.99 -99999.99 -99999.99 -99999.99
5/24/2021 8:45:00 AM -99999.99 -179968 -99999.99 -99999.99 -99999.99 -99999.99
5/24/2021 9:00:00 AM -99999.99 -179968 -99999.99 -99999.99 -99999.99 -99999.99
5/24/2021 9:15:00 AM -99999.99 -179968 -99999.99 -99999.99 -99999.99 -99999.99
5/24/2021 9:30:00 AM -99999.99 -179968 -99999.99 -99999.99 -99999.99 -99999.99
5/24/2021 9:45:00 AM -99999.99 -179968 -99999.99 -99999.99 -99999.99 -99999.99
5/24/2021 10:00:00 AM -99999.99 -179968 -99999.99 -99999.99 -99999.99 -99999.99
5/24/2021 10:15:00 AM -99999.99 -179968 -99999.99 -99999.99 -99999.99 -99999.99
5/24/2021 10:30:00 AM -99999.99 -179968 -99999.99 -99999.99 -99999.99 -99999.99
5/24/2021 10:45:00 AM -99999.99 -179968 -99999.99 -99999.99 -99999.99 -99999.99
5/24/2021 11:00:00 AM -99999.99 -179968 -99999.99 -99999.99 -99999.99 -99999.99
5/24/2021 11:15:00 AM -99999.99 -179968 -99999.99 -99999.99 -99999.99 -99999.99
5/24/2021 11:30:00 AM -99999.99 -179968 -99999.99 -99999.99 -99999.99 -99999.99
5/24/2021 11:45:00 AM -99999.99 -179968 -99999.99 -99999.99 -99999.99 -99999.99
5/24/2021 12:00:00 PM -99999.99 -179968 -99999.99 -99999.99 -99999.99 -99999.99
5/24/2021 12:15:00 PM -99999.99 -179968 -99999.99 -99999.99 -99999.99 -99999.99
5/24/2021 12:30:00 PM -99999.99 -179968 -99999.99 -99999.99 -99999.99 -99999.99
5/24/2021 12:45:00 PM -99999.99 -179968 -99999.99 -99999.99 -99999.99 -99999.99
5/24/2021 1:00:00 PM -99999.99 -179968 -99999.99 -99999.99 -99999.99 -99999.99
5/24/2021 1:15:00 PM -99999.99 -179968 -99999.99 -99999.99 -99999.99 -99999.99
5/24/2021 1:30:00 PM -99999.99 -179968 -99999.99 -99999.99 -99999.99 -99999.99
5/24/2021 1:45:00 PM -99999.99 -179968 -99999.99 -99999.99 -99999.99 -99999.99
5/24/2021 2:00:00 PM -99999.99 -179968 -99999.99 -99999.99 -99999.99 -99999.99
5/24/2021 2:15:00 PM -99999.99 -179968 -99999.99 -99999.99 -99999.99 -99999.99
5/24/2021 2:30:00 PM -99999.99 -179968 -99999.99 -99999.99 -99999.99 -99999.99
5/24/2021 2:45:00 PM -99999.99 -179968 -99999.99 -99999.99 -99999.99 -99999.99
5/24/2021 3:00:00 PM -99999.99 -179968 -99999.99 -99999.99 -99999.99 -99999.99
5/24/2021 3:15:00 PM -99999.99 -179968 -99999.99 -99999.99 -99999.99 -99999.99
5/24/2021 3:30:00 PM -99999.99 -179968 -99999.99 -99999.99 -99999.99 -99999.99
5/24/2021 3:45:00 PM -99999.99 -179968 -99999.99 -99999.99 -99999.99 -99999.99
5/24/2021 4:00:00 PM -99999.99 -179968 -99999.99 -99999.99 -99999.99 -99999.99
5/24/2021 4:15:00 PM -99999.99 -179968 -99999.99 -99999.99 -99999.99 -99999.99
5/24/2021 4:30:00 PM -99999.99 -179968 -99999.99 -99999.99 -99999.99 -99999.99
5/24/2021 4:45:00 PM -99999.99 -179968 -99999.99 -99999.99 -99999.99 -99999.99
5/24/2021 5:00:00 PM -99999.99 -179968 -99999.99 -99999.99 -99999.99 -99999.99
5/24/2021 5:15:00 PM -99999.99 -179968 -99999.99 -99999.99 -99999.99 -99999.99
5/24/2021 5:30:00 PM -99999.99 -179968 -99999.99 -99999.99 -99999.99 -99999.99
5/24/2021 5:45:00 PM -99999.99 -179968 -99999.99 -99999.99 -99999.99 -99999.99
5/24/2021 6:00:00 PM -99999.99 -179968 -99999.99 -99999.99 -99999.99 -99999.99
5/24/2021 6:15:00 PM -99999.99 -179968 -99999.99 -99999.99 -99999.99 -99999.99
5/24/2021 6:30:00 PM -99999.99 -179968 -99999.99 -99999.99 -99999.99 -99999.99
5/24/2021 6:45:00 PM -99999.99 -179968 -99999.99 -99999.99 -99999.99 -99999.99
5/24/2021 7:00:00 PM -99999.99 -179968 -99999.99 -99999.99 -99999.99 -99999.99
5/24/2021 7:15:00 PM -99999.99 -179968 -99999.99 -99999.99 -99999.99 -99999.99
5/24/2021 7:30:00 PM -99999.99 -179968 -99999.99 -99999.99 -99999.99 -99999.99
5/24/2021 7:45:00 PM -99999.99 -179968 -99999.99 -99999.99 -99999.99 -99999.99
5/24/2021 8:00:00 PM -99999.99 -179968 -99999.99 -99999.99 -99999.99 -99999.99
5/24/2021 8:15:00 PM -99999.99 -179968 -99999.99 -99999.99 -99999.99 -99999.99
5/24/2021 8:30:00 PM -99999.99 -179968 -99999.99 -99999.99 -99999.99 -99999.99
5/24/2021 8:45:00 PM -99999.99 -179968 -99999.99 -99999.99 -99999.99 -99999.99
5/24/2021 9:00:00 PM -99999.99 -179968 -99999.99 -99999.99 -99999.99 -99999.99
5/24/2021 9:15:00 PM -99999.99 -179968 -99999.99 -99999.99 -99999.99 -99999.99
5/24/2021 9:30:00 PM -99999.99 -179968 -99999.99 -99999.99 -99999.99 -99999.99
5/24/2021 9:45:00 PM -99999.99 -179968 -99999.99 -99999.99 -99999.99 -99999.99
5/24/2021 10:00:00 PM -99999.99 -179968 -99999.99 -99999.99 -99999.99 -99999.99
5/24/2021 10:15:00 PM -99999.99 -179968 -99999.99 -99999.99 -99999.99 -99999.99
5/24/2021 10:30:00 PM -99999.99 -179968 -99999.99 -99999.99 -99999.99 -99999.99
5/24/2021 10:45:00 PM -99999.99 -179968 -99999.99 -99999.99 -99999.99 -99999.99
5/24/2021 11:00:00 PM -99999.99 -179968 -99999.99 -99999.99 -99999.99 -99999.99
5/24/2021 11:15:00 PM -99999.99 -179968 -99999.99 -99999.99 -99999.99 -99999.99
5/24/2021 11:30:00 PM -99999.99 -179968 -99999.99 -99999.99 -99999.99 -99999.99
5/24/2021 11:45:00 PM -99999.99 -179968 -99999.99 -99999.99 -99999.99 -99999.99
5/25/2021 12:00:00 AM -99999.99 -179968 -99999.99 -99999.99 -99999.99 -99999.99
5/25/2021 12:15:00 AM -99999.99 -179968 -99999.99 -99999.99 -99999.99 -99999.99
5/25/2021 12:30:00 AM -99999.99 -179968 -99999.99 -99999.99 -99999.99 -99999.99
5/25/2021 12:45:00 AM -99999.99 -179968 -99999.99 -99999.99 -99999.99 -99999.99
5/25/2021 1:00:00 AM -99999.99 -179968 -99999.99 -99999.99 -99999.99 -99999.99
5/25/2021 1:15:00 AM -99999.99 -179968 -99999.99 -99999.99 -99999.99 -99999.99
5/25/2021 1:30:00 AM -99999.99 -179968 -99999.99 -99999.99 -99999.99 -99999.99
5/25/2021 1:45:00 AM -99999.99 -179968 -99999.99 -99999.99 -99999.99 -99999.99
5/25/2021 2:00:00 AM -99999.99 -179968 -99999.99 -99999.99 -99999.99 -99999.99
5/25/2021 2:15:00 AM -99999.99 -179968 -99999.99 -99999.99 -99999.99 -99999.99
5/25/2021 2:30:00 AM -99999.99 -179968 -99999.99 -99999.99 -99999.99 -99999.99
5/25/2021 2:45:00 AM -99999.99 -179968 -99999.99 -99999.99 -99999.99 -99999.99
5/25/2021 3:00:00 AM -99999.99 -179968 -99999.99 -99999.99 -99999.99 -99999.99
5/25/2021 3:15:00 AM -99999.99 -179968 -99999.99 -99999.99 -99999.99 -99999.99
5/25/2021 3:30:00 AM -99999.99 -179968 -99999.99 -99999.99 -99999.99 -99999.99
5/25/2021 3:45:00 AM -99999.99 -179968 -99999.99 -99999.99 -99999.99 -99999.99
5/25/2021 4:00:00 AM -99999.99 -179968 -99999.99 -99999.99 -99999.99 -99999.99
5/25/2021 4:15:00 AM -99999.99 -179968 -99999.99 -99999.99 -99999.99 -99999.99
5/25/2021 4:30:00 AM -99999.99 -179968 -99999.99 -99999.99 -99999.99 -99999.99
5/25/2021 4:45:00 AM -99999.99 -179968 -99999.99 -99999.99 -99999.99 -99999.99
5/25/2021 5:00:00 AM -99999.99 -179968 -99999.99 -99999.99 -99999.99 -99999.99
5/25/2021 5:15:00 AM -99999.99 -179968 -99999.99 -99999.99 -99999.99 -99999.99
5/25/2021 5:30:00 AM -99999.99 -179968 -99999.99 -99999.99 -99999.99 -99999.99
5/25/2021 5:45:00 AM -99999.99 -179968 -99999.99 -99999.99 -99999.99 -99999.99
5/25/2021 6:00:00 AM -99999.99 -179968 -99999.99 -99999.99 -99999.99 -99999.99
5/25/2021 6:15:00 AM -99999.99 -179968 -99999.99 -99999.99 -99999.99 -99999.99
5/25/2021 6:30:00 AM -99999.99 -179968 -99999.99 -99999.99 -99999.99 -99999.99
5/25/2021 6:45:00 AM -99999.99 -179968 -99999.99 -99999.99 -99999.99 -99999.99
5/25/2021 7:00:00 AM -99999.99 -179968 -99999.99 -99999.99 -99999.99 -99999.99
5/25/2021 7:15:00 AM -99999.99 -179968 -99999.99 -99999.99 -99999.99 -99999.99
5/25/2021 7:30:00 AM -99999.99 -179968 -99999.99 -99999.99 -99999.99 -99999.99
5/25/2021 7:45:00 AM -99999.99 -179968 -99999.99 -99999.99 -99999.99 -99999.99
5/25/2021 8:00:00 AM -99999.99 -179968 -99999.99 -99999.99 -99999.99 -99999.99
5/25/2021 8:15:00 AM -99999.99 -179968 -99999.99 -99999.99 -99999.99 -99999.99
5/25/2021 8:30:00 AM -99999.99 -179968 -99999.99 -99999.99 -99999.99 -99999.99
5/25/2021 8:45:00 AM -99999.99 -179968 -99999.99 -99999.99 -99999.99 -99999.99
5/25/2021 9:00:00 AM -99999.99 -179968 -99999.99 -99999.99 -99999.99 -99999.99
5/25/2021 9:15:00 AM -99999.99 -179968 -99999.99 -99999.99 -99999.99 -99999.99
5/25/2021 9:30:00 AM -99999.99 -179968 -99999.99 -99999.99 -99999.99 -99999.99
5/25/2021 9:45:00 AM -99999.99 -179968 -99999.99 -99999.99 -99999.99 -99999.99
5/25/2021 10:00:00 AM -99999.99 -179968 -99999.99 -99999.99 -99999.99 -99999.99
5/25/2021 10:15:00 AM -99999.99 -179968 -99999.99 -99999.99 -99999.99 -99999.99
5/25/2021 10:30:00 AM -99999.99 -179968 -99999.99 -99999.99 -99999.99 -99999.99
5/25/2021 10:45:00 AM -99999.99 -179968 -99999.99 -99999.99 -99999.99 -99999.99
5/25/2021 11:00:00 AM -99999.99 -179968 -99999.99 -99999.99 -99999.99 -99999.99
5/25/2021 11:15:00 AM -99999.99 -179968 -99999.99 -99999.99 -99999.99 -99999.99
5/25/2021 11:30:00 AM -99999.99 -179968 -99999.99 -99999.99 -99999.99 -99999.99
5/25/2021 11:45:00 AM -99999.99 -179968 -99999.99 -99999.99 -99999.99 -99999.99
5/25/2021 12:00:00 PM -99999.99 -179968 -99999.99 -99999.99 -99999.99 -99999.99
5/25/2021 12:15:00 PM -99999.99 -179968 -99999.99 -99999.99 -99999.99 -99999.99
5/25/2021 12:30:00 PM -99999.99 -179968 -99999.99 -99999.99 -99999.99 -99999.99
5/25/2021 12:45:00 PM -99999.99 -179968 -99999.99 -99999.99 -99999.99 -99999.99
5/25/2021 1:00:00 PM -99999.99 -179968 -99999.99 -99999.99 -99999.99 -99999.99
5/25/2021 1:15:00 PM -99999.99 -179968 -99999.99 -99999.99 -99999.99 -99999.99
5/25/2021 1:30:00 PM -99999.99 -179968 -99999.99 -99999.99 -99999.99 -99999.99
5/25/2021 1:45:00 PM -99999.99 -179968 -99999.99 -99999.99 -99999.99 -99999.99
5/25/2021 2:00:00 PM -99999.99 -179968 -99999.99 -99999.99 -99999.99 -99999.99
5/25/2021 2:15:00 PM -99999.99 -179968 -99999.99 -99999.99 -99999.99 -99999.99
5/25/2021 2:30:00 PM -99999.99 -179968 -99999.99 -99999.99 -99999.99 -99999.99
5/25/2021 2:45:00 PM -99999.99 -179968 -99999.99 -99999.99 -99999.99 -99999.99
5/25/2021 3:00:00 PM -99999.99 -179968 -99999.99 -99999.99 -99999.99 -99999.99
5/25/2021 3:15:00 PM -99999.99 -179968 -99999.99 -99999.99 -99999.99 -99999.99
5/25/2021 3:30:00 PM -99999.99 -179968 -99999.99 -99999.99 -99999.99 -99999.99
5/25/2021 3:45:00 PM -99999.99 -179968 -99999.99 -99999.99 -99999.99 -99999.99
5/25/2021 4:00:00 PM -99999.99 -179968 -99999.99 -99999.99 -99999.99 -99999.99
5/25/2021 4:15:00 PM -99999.99 -179968 -99999.99 -99999.99 -99999.99 -99999.99
5/25/2021 4:30:00 PM -99999.99 -179968 -99999.99 -99999.99 -99999.99 -99999.99
5/25/2021 4:45:00 PM -99999.99 -179968 -99999.99 -99999.99 -99999.99 -99999.99
5/25/2021 5:00:00 PM -99999.99 -179968 -99999.99 -99999.99 -99999.99 -99999.99
5/25/2021 5:15:00 PM -99999.99 -179968 -99999.99 -99999.99 -99999.99 -99999.99
5/25/2021 5:30:00 PM -99999.99 -179968 -99999.99 -99999.99 -99999.99 -99999.99
5/25/2021 5:45:00 PM -99999.99 -179968 -99999.99 -99999.99 -99999.99 -99999.99
5/25/2021 6:00:00 PM -99999.99 -179968 -99999.99 -99999.99 -99999.99 -99999.99
5/25/2021 6:15:00 PM -99999.99 -179968 -99999.99 -99999.99 -99999.99 -99999.99
5/25/2021 6:30:00 PM -99999.99 -179968 -99999.99 -99999.99 -99999.99 -99999.99
5/25/2021 6:45:00 PM -99999.99 -179968 -99999.99 -99999.99 -99999.99 -99999.99
5/25/2021 7:00:00 PM -99999.99 -179968 -99999.99 -99999.99 -99999.99 -99999.99
5/25/2021 7:15:00 PM -99999.99 -179968 -99999.99 -99999.99 -99999.99 -99999.99
5/25/2021 7:30:00 PM -99999.99 -179968 -99999.99 -99999.99 -99999.99 -99999.99
5/25/2021 7:45:00 PM -99999.99 -179968 -99999.99 -99999.99 -99999.99 -99999.99
5/25/2021 8:00:00 PM -99999.99 -179968 -99999.99 -99999.99 -99999.99 -99999.99
5/25/2021 8:15:00 PM -99999.99 -179968 -99999.99 -99999.99 -99999.99 -99999.99
5/25/2021 8:30:00 PM -99999.99 -179968 -99999.99 -99999.99 -99999.99 -99999.99
5/25/2021 8:45:00 PM -99999.99 -179968 -99999.99 -99999.99 -99999.99 -99999.99
5/25/2021 9:00:00 PM -99999.99 -179968 -99999.99 -99999.99 -99999.99 -99999.99
5/25/2021 9:15:00 PM -99999.99 -179968 -99999.99 -99999.99 -99999.99 -99999.99
5/25/2021 9:30:00 PM -99999.99 -179968 -99999.99 -99999.99 -99999.99 -99999.99
5/25/2021 9:45:00 PM -99999.99 -179968 -99999.99 -99999.99 -99999.99 -99999.99
5/25/2021 10:00:00 PM -99999.99 -179968 -99999.99 -99999.99 -99999.99 -99999.99
5/25/2021 10:15:00 PM -99999.99 -179968 -99999.99 -99999.99 -99999.99 -99999.99
5/25/2021 10:30:00 PM -99999.99 -179968 -99999.99 -99999.99 -99999.99 -99999.99
5/25/2021 10:45:00 PM -99999.99 -179968 -99999.99 -99999.99 -99999.99 -99999.99
5/25/2021 11:00:00 PM -99999.99 -179968 -99999.99 -99999.99 -99999.99 -99999.99
5/25/2021 11:15:00 PM -99999.99 -179968 -99999.99 -99999.99 -99999.99 -99999.99
5/25/2021 11:30:00 PM -99999.99 -179968 -99999.99 -99999.99 -99999.99 -99999.99
5/25/2021 11:45:00 PM -99999.99 -179968 -99999.99 -99999.99 -99999.99 -99999.99
5/26/2021 12:00:00 AM -99999.99 -179968 -99999.99 -99999.99 -99999.99 -99999.99
5/26/2021 12:15:00 AM -99999.99 -179968 -99999.99 -99999.99 -99999.99 -99999.99
5/26/2021 12:30:00 AM -99999.99 -179968 -99999.99 -99999.99 -99999.99 -99999.99
5/26/2021 12:45:00 AM -99999.99 -179968 -99999.99 -99999.99 -99999.99 -99999.99
5/26/2021 1:00:00 AM -99999.99 -179968 -99999.99 -99999.99 -99999.99 -99999.99
5/26/2021 1:15:00 AM -99999.99 -179968 -99999.99 -99999.99 -99999.99 -99999.99
5/26/2021 1:30:00 AM -99999.99 -179968 -99999.99 -99999.99 -99999.99 -99999.99
5/26/2021 1:45:00 AM -99999.99 -179968 -99999.99 -99999.99 -99999.99 -99999.99
5/26/2021 2:00:00 AM -99999.99 -179968 -99999.99 -99999.99 -99999.99 -99999.99
5/26/2021 2:15:00 AM -99999.99 -179968 -99999.99 -99999.99 -99999.99 -99999.99
5/26/2021 2:30:00 AM -99999.99 -179968 -99999.99 -99999.99 -99999.99 -99999.99
5/26/2021 2:45:00 AM -99999.99 -179968 -99999.99 -99999.99 -99999.99 -99999.99
5/26/2021 3:00:00 AM -99999.99 -179968 -99999.99 -99999.99 -99999.99 -99999.99
5/26/2021 3:15:00 AM -99999.99 -179968 -99999.99 -99999.99 -99999.99 -99999.99
5/26/2021 3:30:00 AM -99999.99 -179968 -99999.99 -99999.99 -99999.99 -99999.99
5/26/2021 3:45:00 AM -99999.99 -179968 -99999.99 -99999.99 -99999.99 -99999.99
5/26/2021 4:00:00 AM -99999.99 -179968 -99999.99 -99999.99 -99999.99 -99999.99
5/26/2021 4:15:00 AM -99999.99 -179968 -99999.99 -99999.99 -99999.99 -99999.99
5/26/2021 4:30:00 AM -99999.99 -179968 -99999.99 -99999.99 -99999.99 -99999.99
5/26/2021 4:45:00 AM -99999.99 -179968 -99999.99 -99999.99 -99999.99 -99999.99
5/26/2021 5:00:00 AM -99999.99 -179968 -99999.99 -99999.99 -99999.99 -99999.99
5/26/2021 5:15:00 AM -99999.99 -179968 -99999.99 -99999.99 -99999.99 -99999.99
5/26/2021 5:30:00 AM -99999.99 -179968 -99999.99 -99999.99 -99999.99 -99999.99
5/26/2021 5:45:00 AM -99999.99 -179968 -99999.99 -99999.99 -99999.99 -99999.99
5/26/2021 6:00:00 AM -99999.99 -179968 -99999.99 -99999.99 -99999.99 -99999.99
5/26/2021 6:15:00 AM -99999.99 -179968 -99999.99 -99999.99 -99999.99 -99999.99
5/26/2021 6:30:00 AM -99999.99 -179968 -99999.99 -99999.99 -99999.99 -99999.99
5/26/2021 6:45:00 AM -99999.99 -179968 -99999.99 -99999.99 -99999.99 -99999.99
5/26/2021 7:00:00 AM -99999.99 -179968 -99999.99 -99999.99 -99999.99 -99999.99
5/26/2021 7:15:00 AM -99999.99 -179968 -99999.99 -99999.99 -99999.99 -99999.99
5/26/2021 7:30:00 AM -99999.99 -179968 -99999.99 -99999.99 -99999.99 -99999.99
5/26/2021 7:45:00 AM -99999.99 -179968 -99999.99 -99999.99 -99999.99 -99999.99
5/26/2021 8:00:00 AM -99999.99 -179968 -99999.99 -99999.99 -99999.99 -99999.99
5/26/2021 8:15:00 AM -99999.99 -179968 -99999.99 -99999.99 -99999.99 -99999.99
5/26/2021 8:30:00 AM -99999.99 -179968 -99999.99 -99999.99 -99999.99 -99999.99
5/26/2021 8:45:00 AM -99999.99 -179968 -99999.99 -99999.99 -99999.99 -99999.99
5/26/2021 9:00:00 AM -99999.99 -179968 -99999.99 -99999.99 -99999.99 -99999.99
5/26/2021 9:15:00 AM -99999.99 -179968 -99999.99 -99999.99 -99999.99 -99999.99
5/26/2021 9:30:00 AM -99999.99 -179968 -99999.99 -99999.99 -99999.99 -99999.99
5/26/2021 9:45:00 AM -99999.99 -179968 -99999.99 -99999.99 -99999.99 -99999.99
5/26/2021 10:00:00 AM -99999.99 -179968 -99999.99 -99999.99 -99999.99 -99999.99
5/26/2021 10:15:00 AM -99999.99 -179968 -99999.99 -99999.99 -99999.99 -99999.99
5/26/2021 10:30:00 AM -99999.99 -179968 -99999.99 -99999.99 -99999.99 -99999.99
5/26/2021 10:45:00 AM -99999.99 -179968 -99999.99 -99999.99 -99999.99 -99999.99
5/26/2021 11:00:00 AM -99999.99 -179968 -99999.99 -99999.99 -99999.99 -99999.99
5/26/2021 11:15:00 AM -99999.99 -179968 -99999.99 -99999.99 -99999.99 -99999.99
5/26/2021 11:30:00 AM -99999.99 -179968 -99999.99 -99999.99 -99999.99 -99999.99
5/26/2021 11:45:00 AM -99999.99 -179968 -99999.99 -99999.99 -99999.99 -99999.99
5/26/2021 12:00:00 PM -99999.99 -179968 -99999.99 -99999.99 -99999.99 -99999.99
5/26/2021 12:15:00 PM -99999.99 -179968 -99999.99 -99999.99 -99999.99 -99999.99
5/26/2021 12:30:00 PM -99999.99 -179968 -99999.99 -99999.99 -99999.99 -99999.99
5/26/2021 12:45:00 PM -99999.99 -179968 -99999.99 -99999.99 -99999.99 -99999.99
5/26/2021 1:00:00 PM -99999.99 -179968 -99999.99 -99999.99 -99999.99 -99999.99
5/26/2021 1:15:00 PM -99999.99 -179968 -99999.99 -99999.99 -99999.99 -99999.99
5/26/2021 1:30:00 PM -99999.99 -179968 -99999.99 -99999.99 -99999.99 -99999.99
5/26/2021 1:45:00 PM -99999.99 -179968 -99999.99 -99999.99 -99999.99 -99999.99
5/26/2021 2:00:00 PM -99999.99 -179968 -99999.99 -99999.99 -99999.99 -99999.99
5/26/2021 2:15:00 PM -99999.99 -179968 -99999.99 -99999.99 -99999.99 -99999.99
5/26/2021 2:30:00 PM -99999.99 -179968 -99999.99 -99999.99 -99999.99 -99999.99
5/26/2021 2:45:00 PM -99999.99 -179968 -99999.99 -99999.99 -99999.99 -99999.99
5/26/2021 3:00:00 PM -99999.99 -179968 -99999.99 -99999.99 -99999.99 -99999.99
5/26/2021 3:15:00 PM -99999.99 -179968 -99999.99 -99999.99 -99999.99 -99999.99
5/26/2021 3:30:00 PM -99999.99 -179968 -99999.99 -99999.99 -99999.99 -99999.99
5/26/2021 3:45:00 PM -99999.99 -179968 -99999.99 -99999.99 -99999.99 -99999.99
5/26/2021 4:00:00 PM -99999.99 -179968 -99999.99 -99999.99 -99999.99 -99999.99
5/26/2021 4:15:00 PM -99999.99 -179968 -99999.99 -99999.99 -99999.99 -99999.99
5/26/2021 4:30:00 PM -99999.99 -179968 -99999.99 -99999.99 -99999.99 -99999.99
5/26/2021 4:45:00 PM -99999.99 -179968 -99999.99 -99999.99 -99999.99 -99999.99
5/26/2021 5:00:00 PM -99999.99 -179968 -99999.99 -99999.99 -99999.99 -99999.99
5/26/2021 5:15:00 PM -99999.99 -179968 -99999.99 -99999.99 -99999.99 -99999.99
5/26/2021 5:30:00 PM -99999.99 -179968 -99999.99 -99999.99 -99999.99 -99999.99
5/26/2021 5:45:00 PM -99999.99 -179968 -99999.99 -99999.99 -99999.99 -99999.99
5/26/2021 6:00:00 PM -99999.99 -179968 -99999.99 -99999.99 -99999.99 -99999.99
5/26/2021 6:15:00 PM -99999.99 -179968 -99999.99 -99999.99 -99999.99 -99999.99
5/26/2021 6:30:00 PM -99999.99 -179968 -99999.99 -99999.99 -99999.99 -99999.99
5/26/2021 6:45:00 PM -99999.99 -179968 -99999.99 -99999.99 -99999.99 -99999.99
5/26/2021 7:00:00 PM -99999.99 -179968 -99999.99 -99999.99 -99999.99 -99999.99
5/26/2021 7:15:00 PM -99999.99 -179968 -99999.99 -99999.99 -99999.99 -99999.99
5/26/2021 7:30:00 PM -99999.99 -179968 -99999.99 -99999.99 -99999.99 -99999.99
5/26/2021 7:45:00 PM -99999.99 -179968 -99999.99 -99999.99 -99999.99 -99999.99
5/26/2021 8:00:00 PM -99999.99 -179968 -99999.99 -99999.99 -99999.99 -99999.99
5/26/2021 8:15:00 PM -99999.99 -179968 -99999.99 -99999.99 -99999.99 -99999.99
5/26/2021 8:30:00 PM -99999.99 -179968 -99999.99 -99999.99 -99999.99 -99999.99
5/26/2021 8:45:00 PM -99999.99 -179968 -99999.99 -99999.99 -99999.99 -99999.99
5/26/2021 9:00:00 PM -99999.99 -179968 -99999.99 -99999.99 -99999.99 -99999.99
5/26/2021 9:15:00 PM -99999.99 -179968 -99999.99 -99999.99 -99999.99 -99999.99
5/26/2021 9:30:00 PM -99999.99 -179968 -99999.99 -99999.99 -99999.99 -99999.99
5/26/2021 9:45:00 PM -99999.99 -179968 -99999.99 -99999.99 -99999.99 -99999.99
5/26/2021 10:00:00 PM -99999.99 -179968 -99999.99 -99999.99 -99999.99 -99999.99
5/26/2021 10:15:00 PM -99999.99 -179968 -99999.99 -99999.99 -99999.99 -99999.99
5/26/2021 10:30:00 PM -99999.99 -179968 -99999.99 -99999.99 -99999.99 -99999.99
5/26/2021 10:45:00 PM -99999.99 -179968 -99999.99 -99999.99 -99999.99 -99999.99
5/26/2021 11:00:00 PM -99999.99 -179968 -99999.99 -99999.99 -99999.99 -99999.99
5/26/2021 11:15:00 PM -99999.99 -179968 -99999.99 -99999.99 -99999.99 -99999.99
5/26/2021 11:30:00 PM -99999.99 -179968 -99999.99 -99999.99 -99999.99 -99999.99
5/26/2021 11:45:00 PM -99999.99 -179968 -99999.99 -99999.99 -99999.99 -99999.99
5/27/2021 12:00:00 AM -99999.99 -179968 -99999.99 -99999.99 -99999.99 -99999.99
5/27/2021 12:15:00 AM -99999.99 -179968 -99999.99 -99999.99 -99999.99 -99999.99
5/27/2021 12:30:00 AM -99999.99 -179968 -99999.99 -99999.99 -99999.99 -99999.99
5/27/2021 12:45:00 AM -99999.99 -179968 -99999.99 -99999.99 -99999.99 -99999.99
5/27/2021 1:00:00 AM -99999.99 -179968 -99999.99 -99999.99 -99999.99 -99999.99
5/27/2021 1:15:00 AM -99999.99 -179968 -99999.99 -99999.99 -99999.99 -99999.99
5/27/2021 1:30:00 AM -99999.99 -179968 -99999.99 -99999.99 -99999.99 -99999.99
5/27/2021 1:45:00 AM -99999.99 -179968 -99999.99 -99999.99 -99999.99 -99999.99
5/27/2021 2:00:00 AM -99999.99 -179968 -99999.99 -99999.99 -99999.99 -99999.99
5/27/2021 2:15:00 AM -99999.99 -179968 -99999.99 -99999.99 -99999.99 -99999.99
5/27/2021 2:30:00 AM -99999.99 -179968 -99999.99 -99999.99 -99999.99 -99999.99
5/27/2021 2:45:00 AM -99999.99 -179968 -99999.99 -99999.99 -99999.99 -99999.99
5/27/2021 3:00:00 AM -99999.99 -179968 -99999.99 -99999.99 -99999.99 -99999.99
5/27/2021 3:15:00 AM -99999.99 -179968 -99999.99 -99999.99 -99999.99 -99999.99
5/27/2021 3:30:00 AM -99999.99 -179968 -99999.99 -99999.99 -99999.99 -99999.99
5/27/2021 3:45:00 AM -99999.99 -179968 -99999.99 -99999.99 -99999.99 -99999.99
5/27/2021 4:00:00 AM -99999.99 -179968 -99999.99 -99999.99 -99999.99 -99999.99
5/27/2021 4:15:00 AM -99999.99 -179968 -99999.99 -99999.99 -99999.99 -99999.99
5/27/2021 4:30:00 AM -99999.99 -179968 -99999.99 -99999.99 -99999.99 -99999.99
5/27/2021 4:45:00 AM -99999.99 -179968 -99999.99 -99999.99 -99999.99 -99999.99
5/27/2021 5:00:00 AM -99999.99 -179968 -99999.99 -99999.99 -99999.99 -99999.99
5/27/2021 5:15:00 AM -99999.99 -179968 -99999.99 -99999.99 -99999.99 -99999.99
5/27/2021 5:30:00 AM -99999.99 -179968 -99999.99 -99999.99 -99999.99 -99999.99
5/27/2021 5:45:00 AM -99999.99 -179968 -99999.99 -99999.99 -99999.99 -99999.99
5/27/2021 6:00:00 AM -99999.99 -179968 -99999.99 -99999.99 -99999.99 -99999.99
5/27/2021 6:15:00 AM -99999.99 -179968 -99999.99 -99999.99 -99999.99 -99999.99
5/27/2021 6:30:00 AM -99999.99 -179968 -99999.99 -99999.99 -99999.99 -99999.99
5/27/2021 6:45:00 AM -99999.99 -179968 -99999.99 -99999.99 -99999.99 -99999.99
5/27/2021 7:00:00 AM -99999.99 -179968 -99999.99 -99999.99 -99999.99 -99999.99
5/27/2021 7:15:00 AM -99999.99 -179968 -99999.99 -99999.99 -99999.99 -99999.99
5/27/2021 7:30:00 AM -99999.99 -179968 -99999.99 -99999.99 -99999.99 -99999.99
5/27/2021 7:45:00 AM -99999.99 -179968 -99999.99 -99999.99 -99999.99 -99999.99
5/27/2021 8:00:00 AM -99999.99 -179968 -99999.99 -99999.99 -99999.99 -99999.99
5/27/2021 8:15:00 AM -99999.99 -179968 -99999.99 -99999.99 -99999.99 -99999.99
5/27/2021 8:30:00 AM -99999.99 -179968 -99999.99 -99999.99 -99999.99 -99999.99
5/27/2021 8:45:00 AM -99999.99 -179968 -99999.99 -99999.99 -99999.99 -99999.99
5/27/2021 9:00:00 AM -99999.99 -179968 -99999.99 -99999.99 -99999.99 -99999.99
5/27/2021 9:15:00 AM -99999.99 -179968 -99999.99 -99999.99 -99999.99 -99999.99
5/27/2021 9:30:00 AM -99999.99 -179968 -99999.99 -99999.99 -99999.99 -99999.99
5/27/2021 9:45:00 AM -99999.99 -179968 -99999.99 -99999.99 -99999.99 -99999.99
5/27/2021 10:00:00 AM -99999.99 -179968 -99999.99 -99999.99 -99999.99 -99999.99
5/27/2021 10:15:00 AM -99999.99 -179968 -99999.99 -99999.99 -99999.99 -99999.99
5/27/2021 10:30:00 AM -99999.99 -179968 -99999.99 -99999.99 -99999.99 -99999.99
5/27/2021 10:45:00 AM -99999.99 -179968 -99999.99 -99999.99 -99999.99 -99999.99
5/27/2021 11:00:00 AM -99999.99 -179968 -99999.99 -99999.99 -99999.99 -99999.99
5/27/2021 11:15:00 AM -99999.99 -179968 -99999.99 -99999.99 -99999.99 -99999.99
5/27/2021 11:30:00 AM -99999.99 -179968 -99999.99 -99999.99 -99999.99 -99999.99
5/27/2021 11:45:00 AM -99999.99 -179968 -99999.99 -99999.99 -99999.99 -99999.99
5/27/2021 12:00:00 PM -99999.99 -179968 -99999.99 -99999.99 -99999.99 -99999.99
5/27/2021 12:15:00 PM -99999.99 -179968 -99999.99 -99999.99 -99999.99 -99999.99
5/27/2021 12:30:00 PM -99999.99 -179968 -99999.99 -99999.99 -99999.99 -99999.99
5/27/2021 12:45:00 PM -99999.99 -179968 -99999.99 -99999.99 -99999.99 -99999.99
5/27/2021 1:00:00 PM -99999.99 -179968 -99999.99 -99999.99 -99999.99 -99999.99
5/27/2021 1:15:00 PM -99999.99 -179968 -99999.99 -99999.99 -99999.99 -99999.99
5/27/2021 1:30:00 PM -99999.99 -179968 -99999.99 -99999.99 -99999.99 -99999.99